PWSweather.com
Personal Weather Stations
Station Observations
WOODBURYWX
Lighthouse Rd, Woodbury, Woodbury, CT 06798

Lighthouse Rd, WoodburyWoodbury, CT 06798

Lat: 41.553333, Lon: -73.224167

Elevation: 437

Station Type: Ambient Weather WS-1090

Latest ConditionsUpdated 3:45:00 PM EDT Tuesday, Apr 28, 2015
Currently Today's Max Today's Min Today's Average
Temperature 64.4°F18.0°C 66.6°F19.2°C 42.8°F6.0°C 52.4°F11.3°C
Dew Point 26.8°F-2.9°C 45.4°F7.4°C 23.5°F-4.7°C 38.6°F3.7°C
Winds 7.7 mph N12.4 kmh N 8.8 mph N14.2 kmh N - 4.3 mph 6.9 kmh
Wind Gusts 13.1 mph21.1 kmh 14.8 mph23.8 kmh - -
Humidity 24% 98% 22% 66%
Pressure 29.56 in1001.0 mb 29.79 in1008.8 mb 29.44 in997.0 mb -
Hour Temp Dew Point Humidity Winds Wind Gusts Pressure Precip Precip Rate Daily Precip Total
03:45 PM 64.4°F18.0°C 26.8°F-2.9°C 24% 7.7 mph N12.4 kmh N 13.1 mph21.1 kmh 29.56 in1001.0 mb 0.00 in0.0 mm 0.00 in0.0 mm 0.00 in0.0 mm
03:44 PM 64.9°F18.3°C 27.2°F-2.7°C 24% 7.4 mph N11.9 kmh N 13.1 mph21.1 kmh 29.57 in1001.4 mb 0.00 in0.0 mm 0.00 in0.0 mm 0.00 in0.0 mm
03:43 PM 64.4°F18.0°C 26.8°F-2.9°C 24% 7.1 mph N11.4 kmh N 13.1 mph21.1 kmh 29.57 in1001.4 mb 0.00 in0.0 mm 0.00 in0.0 mm 0.00 in0.0 mm
03:42 PM 64.6°F18.1°C 26.9°F-2.8°C 24% 7.0 mph N11.3 kmh N 13.1 mph21.1 kmh 29.57 in1001.4 mb 0.00 in0.0 mm 0.00 in0.0 mm 0.00 in0.0 mm
03:41 PM 65.7°F18.7°C 28.8°F-1.8°C 25% 6.7 mph N10.8 kmh N 13.1 mph21.1 kmh 29.56 in1001.0 mb 0.00 in0.0 mm 0.00 in0.0 mm 0.00 in0.0 mm
03:40 PM 64.6°F18.1°C 27.9°F-2.3°C 25% 6.3 mph N10.1 kmh N 9.6 mph15.4 kmh 29.57 in1001.4 mb 0.00 in0.0 mm 0.00 in0.0 mm 0.00 in0.0 mm
03:39 PM 64.8°F18.2°C 28.1°F-2.2°C 25% 6.5 mph N10.5 kmh N 9.6 mph15.4 kmh 29.57 in1001.4 mb 0.00 in0.0 mm 0.00 in0.0 mm 0.00 in0.0 mm
03:38 PM 64.6°F18.1°C 27.9°F-2.3°C 25% 6.6 mph N10.6 kmh N 9.6 mph15.4 kmh 29.57 in1001.4 mb 0.00 in0.0 mm 0.00 in0.0 mm 0.00 in0.0 mm
03:37 PM 63.9°F17.7°C 25.3°F-3.7°C 23% 6.4 mph N10.3 kmh N 9.6 mph15.4 kmh 29.57 in1001.4 mb 0.00 in0.0 mm 0.00 in0.0 mm 0.00 in0.0 mm
03:36 PM 66.0°F18.9°C 30.1°F-1.1°C 26% 6.4 mph N10.3 kmh N 9.6 mph15.4 kmh 29.57 in1001.4 mb 0.00 in0.0 mm 0.00 in0.0 mm 0.00 in0.0 mm
03:35 PM 65.7°F18.7°C 29.8°F-1.2°C 26% 6.3 mph N10.1 kmh N 8.7 mph14.0 kmh 29.57 in1001.4 mb 0.00 in0.0 mm 0.00 in0.0 mm 0.00 in0.0 mm
03:34 PM 64.9°F18.3°C 29.2°F-1.6°C 26% 6.9 mph N11.1 kmh N 8.7 mph14.0 kmh 29.57 in1001.4 mb 0.00 in0.0 mm 0.00 in0.0 mm 0.00 in0.0 mm
03:33 PM 64.8°F18.2°C 29.0°F-1.7°C 26% 7.4 mph N11.9 kmh N 8.7 mph14.0 kmh 29.57 in1001.4 mb 0.00 in0.0 mm 0.00 in0.0 mm 0.00 in0.0 mm
03:32 PM 64.8°F18.2°C 30.0°F-1.1°C 27% 7.9 mph N12.7 kmh N 9.6 mph15.4 kmh 29.57 in1001.4 mb 0.00 in0.0 mm 0.00 in0.0 mm 0.00 in0.0 mm
03:31 PM 63.9°F17.7°C 27.3°F-2.6°C 25% 7.9 mph N12.7 kmh N 9.6 mph15.4 kmh 29.57 in1001.4 mb 0.00 in0.0 mm 0.00 in0.0 mm 0.00 in0.0 mm
03:30 PM 63.9°F17.7°C 27.3°F-2.6°C 25% 7.9 mph N12.7 kmh N 9.6 mph15.4 kmh 29.57 in1001.4 mb 0.00 in0.0 mm 0.00 in0.0 mm 0.00 in0.0 mm
03:29 PM 64.4°F18.0°C 29.7°F-1.3°C 27% 7.9 mph N12.7 kmh N 9.6 mph15.4 kmh 29.57 in1001.4 mb 0.00 in0.0 mm 0.00 in0.0 mm 0.00 in0.0 mm
03:28 PM 65.1°F18.4°C 30.3°F-0.9°C 27% 8.0 mph N12.9 kmh N 13.1 mph21.1 kmh 29.57 in1001.4 mb 0.00 in0.0 mm 0.00 in0.0 mm 0.00 in0.0 mm
03:27 PM 64.6°F18.1°C 29.8°F-1.2°C 27% 8.6 mph N13.8 kmh N 13.1 mph21.1 kmh 29.58 in1001.7 mb 0.00 in0.0 mm 0.00 in0.0 mm 0.00 in0.0 mm
03:26 PM 64.2°F17.9°C 28.6°F-1.9°C 26% 8.5 mph N13.7 kmh N 13.1 mph21.1 kmh 29.58 in1001.7 mb 0.00 in0.0 mm 0.00 in0.0 mm 0.00 in0.0 mm
03:25 PM 63.7°F17.6°C 28.1°F-2.2°C 26% 8.4 mph N13.5 kmh N 13.1 mph21.1 kmh 29.57 in1001.4 mb 0.00 in0.0 mm 0.00 in0.0 mm 0.00 in0.0 mm
03:24 PM 63.5°F17.5°C 27.0°F-2.8°C 25% 8.3 mph N13.4 kmh N 13.1 mph21.1 kmh 29.57 in1001.4 mb 0.00 in0.0 mm 0.00 in0.0 mm 0.00 in0.0 mm
03:23 PM 63.3°F17.4°C 25.9°F-3.4°C 24% 8.1 mph N13.0 kmh N 13.1 mph21.1 kmh 29.57 in1001.4 mb 0.00 in0.0 mm 0.00 in0.0 mm 0.00 in0.0 mm
03:22 PM 64.0°F17.8°C 27.5°F-2.5°C 25% 7.9 mph N12.7 kmh N 13.1 mph21.1 kmh 29.58 in1001.7 mb 0.00 in0.0 mm 0.00 in0.0 mm 0.00 in0.0 mm
03:21 PM 64.2°F17.9°C 27.6°F-2.4°C 25% 7.9 mph NNW12.7 kmh NNW 13.1 mph21.1 kmh 29.58 in1001.7 mb 0.00 in0.0 mm 0.00 in0.0 mm 0.00 in0.0 mm
03:20 PM 65.1°F18.4°C 28.4°F-2.0°C 25% 7.7 mph NW12.4 kmh NW 13.1 mph21.1 kmh 29.58 in1001.7 mb 0.00 in0.0 mm 0.00 in0.0 mm 0.00 in0.0 mm
03:19 PM 64.0°F17.8°C 25.5°F-3.6°C 23% 7.6 mph NNW12.2 kmh NNW 13.1 mph21.1 kmh 29.58 in1001.7 mb 0.00 in0.0 mm 0.00 in0.0 mm 0.00 in0.0 mm
03:18 PM 64.6°F18.1°C 27.9°F-2.3°C 25% 7.4 mph W11.9 kmh W 13.1 mph21.1 kmh 29.59 in1002.0 mb 0.00 in0.0 mm 0.00 in0.0 mm 0.00 in0.0 mm
03:17 PM 65.3°F18.5°C 28.5°F-1.9°C 25% 7.1 mph W11.4 kmh W 10.5 mph16.9 kmh 29.58 in1001.7 mb 0.00 in0.0 mm 0.00 in0.0 mm 0.00 in0.0 mm
03:16 PM 65.7°F18.7°C 29.8°F-1.2°C 26% 7.0 mph WNW11.3 kmh WNW 9.6 mph15.4 kmh 29.58 in1001.7 mb 0.00 in0.0 mm 0.00 in0.0 mm 0.00 in0.0 mm
03:15 PM 65.5°F18.6°C 29.7°F-1.3°C 26% 7.1 mph W11.4 kmh W 9.6 mph15.4 kmh 29.58 in1001.7 mb 0.00 in0.0 mm 0.00 in0.0 mm 0.00 in0.0 mm
03:14 PM 64.8°F18.2°C 28.1°F-2.2°C 25% 7.3 mph WNW11.7 kmh WNW 9.6 mph15.4 kmh 29.58 in1001.7 mb 0.00 in0.0 mm 0.00 in0.0 mm 0.00 in0.0 mm
03:13 PM 65.7°F18.7°C 30.7°F-0.7°C 27% 7.3 mph NW11.7 kmh NW 9.6 mph15.4 kmh 29.58 in1001.7 mb 0.00 in0.0 mm 0.00 in0.0 mm 0.00 in0.0 mm
03:12 PM 66.2°F19.0°C 30.3°F-0.9°C 26% 7.0 mph NW11.3 kmh NW 9.6 mph15.4 kmh 29.58 in1001.7 mb 0.00 in0.0 mm 0.00 in0.0 mm 0.00 in0.0 mm
03:11 PM 65.3°F18.5°C 31.3°F-0.4°C 28% 6.9 mph NNW11.1 kmh NNW 9.6 mph15.4 kmh 29.58 in1001.7 mb 0.00 in0.0 mm 0.00 in0.0 mm 0.00 in0.0 mm
03:10 PM 64.6°F18.1°C 29.8°F-1.2°C 27% 6.8 mph N10.9 kmh N 9.6 mph15.4 kmh 29.58 in1001.7 mb 0.00 in0.0 mm 0.00 in0.0 mm 0.00 in0.0 mm
03:09 PM 64.2°F17.9°C 28.6°F-1.9°C 26% 7.1 mph N11.4 kmh N 9.6 mph15.4 kmh 29.59 in1002.0 mb 0.00 in0.0 mm 0.00 in0.0 mm 0.00 in0.0 mm
03:08 PM 65.3°F18.5°C 31.3°F-0.4°C 28% 7.2 mph N11.6 kmh N 9.6 mph15.4 kmh 29.58 in1001.7 mb 0.00 in0.0 mm 0.00 in0.0 mm 0.00 in0.0 mm
03:07 PM 63.5°F17.5°C 27.0°F-2.8°C 25% 6.9 mph N11.1 kmh N 9.6 mph15.4 kmh 29.58 in1001.7 mb 0.00 in0.0 mm 0.00 in0.0 mm 0.00 in0.0 mm
03:06 PM 64.0°F17.8°C 27.5°F-2.5°C 25% 7.0 mph N11.3 kmh N 9.6 mph15.4 kmh 29.59 in1002.0 mb 0.00 in0.0 mm 0.00 in0.0 mm 0.00 in0.0 mm
03:05 PM 64.8°F18.2°C 29.0°F-1.7°C 26% 6.6 mph N10.6 kmh N 9.6 mph15.4 kmh 29.59 in1002.0 mb 0.00 in0.0 mm 0.00 in0.0 mm 0.00 in0.0 mm
03:04 PM 64.6°F18.1°C 28.9°F-1.7°C 26% 6.2 mph N10.0 kmh N 9.6 mph15.4 kmh 29.59 in1002.0 mb 0.00 in0.0 mm 0.00 in0.0 mm 0.00 in0.0 mm
03:03 PM 64.4°F18.0°C 27.8°F-2.3°C 25% 6.2 mph NNE10.0 kmh NNE 9.6 mph15.4 kmh 29.58 in1001.7 mb 0.00 in0.0 mm 0.00 in0.0 mm 0.00 in0.0 mm
03:02 PM 64.0°F17.8°C 26.5°F-3.1°C 24% 6.3 mph N10.1 kmh N 9.6 mph15.4 kmh 29.59 in1002.0 mb 0.00 in0.0 mm 0.00 in0.0 mm 0.00 in0.0 mm
03:01 PM 64.6°F18.1°C 27.9°F-2.3°C 25% 6.2 mph N10.0 kmh N 9.6 mph15.4 kmh 29.59 in1002.0 mb 0.00 in0.0 mm 0.00 in0.0 mm 0.00 in0.0 mm
03:00 PM 65.7°F18.7°C 27.9°F-2.3°C 24% 5.8 mph N9.3 kmh N 9.6 mph15.4 kmh 29.59 in1002.0 mb 0.00 in0.0 mm 0.00 in0.0 mm 0.00 in0.0 mm
02:59 PM 65.7°F18.7°C 28.8°F-1.8°C 25% 5.5 mph N8.9 kmh N 8.7 mph14.0 kmh 29.59 in1002.0 mb 0.00 in0.0 mm 0.00 in0.0 mm 0.00 in0.0 mm
02:58 PM 65.5°F18.6°C 28.7°F-1.8°C 25% 5.2 mph N8.4 kmh N 7.9 mph12.7 kmh 29.59 in1002.0 mb 0.00 in0.0 mm 0.00 in0.0 mm 0.00 in0.0 mm
02:57 PM 66.6°F19.2°C 28.6°F-1.9°C 24% 5.5 mph NNE8.9 kmh NNE 7.9 mph12.7 kmh 29.59 in1002.0 mb 0.00 in0.0 mm 0.00 in0.0 mm 0.00 in0.0 mm
02:56 PM 66.4°F19.1°C 28.5°F-1.9°C 24% 5.3 mph NNE8.5 kmh NNE 7.9 mph12.7 kmh 29.59 in1002.0 mb 0.00 in0.0 mm 0.00 in0.0 mm 0.00 in0.0 mm
02:55 PM 65.5°F18.6°C 28.7°F-1.8°C 25% 5.4 mph NNE8.7 kmh NNE 7.9 mph12.7 kmh 29.59 in1002.0 mb 0.00 in0.0 mm 0.00 in0.0 mm 0.00 in0.0 mm
02:54 PM 65.7°F18.7°C 29.8°F-1.2°C 26% 5.6 mph NNE9.0 kmh NNE 9.6 mph15.4 kmh 29.59 in1002.0 mb 0.00 in0.0 mm 0.00 in0.0 mm 0.00 in0.0 mm
02:53 PM 64.6°F18.1°C 27.9°F-2.3°C 25% 5.8 mph N9.3 kmh N 9.6 mph15.4 kmh 29.59 in1002.0 mb 0.00 in0.0 mm 0.00 in0.0 mm 0.00 in0.0 mm
02:52 PM 64.6°F18.1°C 28.9°F-1.7°C 26% 5.8 mph N9.3 kmh N 9.6 mph15.4 kmh 29.59 in1002.0 mb 0.00 in0.0 mm 0.00 in0.0 mm 0.00 in0.0 mm
02:51 PM 63.7°F17.6°C 26.2°F-3.2°C 24% 5.9 mph N9.5 kmh N 9.6 mph15.4 kmh 29.59 in1002.0 mb 0.00 in0.0 mm 0.00 in0.0 mm 0.00 in0.0 mm
02:50 PM 64.0°F17.8°C 26.5°F-3.1°C 24% 6.5 mph N10.5 kmh N 9.6 mph15.4 kmh 29.59 in1002.0 mb 0.00 in0.0 mm 0.00 in0.0 mm 0.00 in0.0 mm
02:49 PM 63.9°F17.7°C 26.3°F-3.2°C 24% 7.3 mph N11.7 kmh N 14.8 mph23.8 kmh 29.60 in1002.4 mb 0.00 in0.0 mm 0.00 in0.0 mm 0.00 in0.0 mm
02:48 PM 64.4°F18.0°C 27.8°F-2.3°C 25% 7.4 mph N11.9 kmh N 14.8 mph23.8 kmh 29.60 in1002.4 mb 0.00 in0.0 mm 0.00 in0.0 mm 0.00 in0.0 mm
02:47 PM 64.8°F18.2°C 29.0°F-1.7°C 26% 7.3 mph N11.7 kmh N 14.8 mph23.8 kmh 29.60 in1002.4 mb 0.00 in0.0 mm 0.00 in0.0 mm 0.00 in0.0 mm
02:46 PM 64.6°F18.1°C 27.9°F-2.3°C 25% 7.3 mph N11.7 kmh N 14.8 mph23.8 kmh 29.60 in1002.4 mb 0.00 in0.0 mm 0.00 in0.0 mm 0.00 in0.0 mm
02:45 PM 62.8°F17.1°C 24.4°F-4.2°C 23% 7.3 mph N11.7 kmh N 14.8 mph23.8 kmh 29.60 in1002.4 mb 0.00 in0.0 mm 0.00 in0.0 mm 0.00 in0.0 mm
02:44 PM 63.9°F17.7°C 25.3°F-3.7°C 23% 7.2 mph N11.6 kmh N 14.8 mph23.8 kmh 29.60 in1002.4 mb 0.00 in0.0 mm 0.00 in0.0 mm 0.00 in0.0 mm
02:43 PM 63.0°F17.2°C 23.5°F-4.7°C 22% 7.0 mph N11.3 kmh N 14.8 mph23.8 kmh 29.60 in1002.4 mb 0.00 in0.0 mm 0.00 in0.0 mm 0.00 in0.0 mm
02:42 PM 63.3°F17.4°C 24.8°F-4.0°C 23% 7.1 mph N11.4 kmh N 14.8 mph23.8 kmh 29.60 in1002.4 mb 0.00 in0.0 mm 0.00 in0.0 mm 0.00 in0.0 mm
02:41 PM 63.9°F17.7°C 26.3°F-3.2°C 24% 7.0 mph N11.3 kmh N 14.8 mph23.8 kmh 29.60 in1002.4 mb 0.00 in0.0 mm 0.00 in0.0 mm 0.00 in0.0 mm
02:40 PM 64.0°F17.8°C 26.5°F-3.1°C 24% 7.0 mph N11.3 kmh N 14.8 mph23.8 kmh 29.60 in1002.4 mb 0.00 in0.0 mm 0.00 in0.0 mm 0.00 in0.0 mm
02:39 PM 64.6°F18.1°C 28.9°F-1.7°C 26% 6.9 mph N11.1 kmh N 11.3 mph18.2 kmh 29.60 in1002.4 mb 0.00 in0.0 mm 0.00 in0.0 mm 0.00 in0.0 mm
02:38 PM 63.7°F17.6°C 26.2°F-3.2°C 24% 6.8 mph N10.9 kmh N 11.3 mph18.2 kmh 29.60 in1002.4 mb 0.00 in0.0 mm 0.00 in0.0 mm 0.00 in0.0 mm
02:37 PM 63.1°F17.3°C 25.7°F-3.5°C 24% 6.8 mph N10.9 kmh N 11.3 mph18.2 kmh 29.60 in1002.4 mb 0.00 in0.0 mm 0.00 in0.0 mm 0.00 in0.0 mm
02:36 PM 63.5°F17.5°C 26.0°F-3.3°C 24% 7.2 mph N11.6 kmh N 11.3 mph18.2 kmh 29.60 in1002.4 mb 0.00 in0.0 mm 0.00 in0.0 mm 0.00 in0.0 mm
02:35 PM 64.0°F17.8°C 26.5°F-3.1°C 24% 7.5 mph N12.1 kmh N 11.3 mph18.2 kmh 29.60 in1002.4 mb 0.00 in0.0 mm 0.00 in0.0 mm 0.00 in0.0 mm
02:34 PM 63.9°F17.7°C 26.3°F-3.2°C 24% 7.5 mph N12.1 kmh N 11.3 mph18.2 kmh 29.60 in1002.4 mb 0.00 in0.0 mm 0.00 in0.0 mm 0.00 in0.0 mm
02:33 PM 63.5°F17.5°C 25.0°F-3.9°C 23% 7.8 mph N12.6 kmh N 11.3 mph18.2 kmh 29.60 in1002.4 mb 0.00 in0.0 mm 0.00 in0.0 mm 0.00 in0.0 mm
02:32 PM 62.8°F17.1°C 24.4°F-4.2°C 23% 8.3 mph N13.4 kmh N 12.2 mph19.6 kmh 29.60 in1002.4 mb 0.00 in0.0 mm 0.00 in0.0 mm 0.00 in0.0 mm
02:31 PM 63.0°F17.2°C 24.5°F-4.2°C 23% 8.1 mph N13.0 kmh N 12.2 mph19.6 kmh 29.61 in1002.7 mb 0.00 in0.0 mm 0.00 in0.0 mm 0.00 in0.0 mm
02:30 PM 62.8°F17.1°C 24.4°F-4.2°C 23% 7.9 mph N12.7 kmh N 12.2 mph19.6 kmh 29.61 in1002.7 mb 0.00 in0.0 mm 0.00 in0.0 mm 0.00 in0.0 mm
02:29 PM 63.1°F17.3°C 24.7°F-4.1°C 23% 7.6 mph N12.2 kmh N 12.2 mph19.6 kmh 29.61 in1002.7 mb 0.00 in0.0 mm 0.00 in0.0 mm 0.00 in0.0 mm
02:28 PM 63.0°F17.2°C 24.5°F-4.2°C 23% 7.3 mph N11.7 kmh N 12.2 mph19.6 kmh 29.61 in1002.7 mb 0.00 in0.0 mm 0.00 in0.0 mm 0.00 in0.0 mm
02:27 PM 63.0°F17.2°C 24.5°F-4.2°C 23% 7.5 mph N12.1 kmh N 12.2 mph19.6 kmh 29.61 in1002.7 mb 0.00 in0.0 mm 0.00 in0.0 mm 0.00 in0.0 mm
02:26 PM 63.5°F17.5°C 25.0°F-3.9°C 23% 7.4 mph N11.9 kmh N 12.2 mph19.6 kmh 29.61 in1002.7 mb 0.00 in0.0 mm 0.00 in0.0 mm 0.00 in0.0 mm
02:25 PM 63.3°F17.4°C 25.9°F-3.4°C 24% 7.3 mph N11.7 kmh N 12.2 mph19.6 kmh 29.61 in1002.7 mb 0.00 in0.0 mm 0.00 in0.0 mm 0.00 in0.0 mm
02:24 PM 63.5°F17.5°C 26.0°F-3.3°C 24% 7.6 mph N12.2 kmh N 12.2 mph19.6 kmh 29.61 in1002.7 mb 0.00 in0.0 mm 0.00 in0.0 mm 0.00 in0.0 mm
02:23 PM 63.7°F17.6°C 27.2°F-2.7°C 25% 7.4 mph N11.9 kmh N 12.2 mph19.6 kmh 29.61 in1002.7 mb 0.00 in0.0 mm 0.00 in0.0 mm 0.00 in0.0 mm
02:22 PM 63.9°F17.7°C 28.3°F-2.1°C 26% 7.0 mph N11.3 kmh N 12.2 mph19.6 kmh 29.61 in1002.7 mb 0.00 in0.0 mm 0.00 in0.0 mm 0.00 in0.0 mm
02:21 PM 63.7°F17.6°C 28.1°F-2.2°C 26% 6.9 mph N11.1 kmh N 10.5 mph16.9 kmh 29.61 in1002.7 mb 0.00 in0.0 mm 0.00 in0.0 mm 0.00 in0.0 mm
02:20 PM 65.1°F18.4°C 30.3°F-0.9°C 27% 6.8 mph N10.9 kmh N 10.5 mph16.9 kmh 29.61 in1002.7 mb 0.00 in0.0 mm 0.00 in0.0 mm 0.00 in0.0 mm
02:19 PM 63.9°F17.7°C 28.3°F-2.1°C 26% 6.5 mph N10.5 kmh N 9.6 mph15.4 kmh 29.61 in1002.7 mb 0.00 in0.0 mm 0.00 in0.0 mm 0.00 in0.0 mm
02:18 PM 62.1°F16.7°C 25.8°F-3.4°C 25% 6.8 mph N10.9 kmh N 9.6 mph15.4 kmh 29.61 in1002.7 mb 0.00 in0.0 mm 0.00 in0.0 mm 0.00 in0.0 mm
02:17 PM 62.1°F16.7°C 24.8°F-4.0°C 24% 6.7 mph N10.8 kmh N 9.6 mph15.4 kmh 29.61 in1002.7 mb 0.00 in0.0 mm 0.00 in0.0 mm 0.00 in0.0 mm
02:16 PM 63.7°F17.6°C 25.1°F-3.8°C 23% 6.4 mph N10.3 kmh N 9.6 mph15.4 kmh 29.61 in1002.7 mb 0.00 in0.0 mm 0.00 in0.0 mm 0.00 in0.0 mm
02:15 PM 64.8°F18.2°C 28.1°F-2.2°C 25% 6.1 mph N9.8 kmh N 9.6 mph15.4 kmh 29.61 in1002.7 mb 0.00 in0.0 mm 0.00 in0.0 mm 0.00 in0.0 mm
02:14 PM 64.4°F18.0°C 27.8°F-2.3°C 25% 5.6 mph N9.0 kmh N 9.6 mph15.4 kmh 29.61 in1002.7 mb 0.00 in0.0 mm 0.00 in0.0 mm 0.00 in0.0 mm
02:13 PM 64.2°F17.9°C 26.6°F-3.0°C 24% 5.3 mph N8.5 kmh N 7.9 mph12.7 kmh 29.61 in1002.7 mb 0.00 in0.0 mm 0.00 in0.0 mm 0.00 in0.0 mm
02:12 PM 65.3°F18.5°C 30.4°F-0.9°C 27% 5.2 mph N8.4 kmh N 7.9 mph12.7 kmh 29.61 in1002.7 mb 0.00 in0.0 mm 0.00 in0.0 mm 0.00 in0.0 mm
02:11 PM 64.8°F18.2°C 29.0°F-1.7°C 26% 5.0 mph N8.0 kmh N 7.9 mph12.7 kmh 29.62 in1003.0 mb 0.00 in0.0 mm 0.00 in0.0 mm 0.00 in0.0 mm
02:10 PM 64.9°F18.3°C 29.2°F-1.6°C 26% 4.9 mph N7.9 kmh N 7.9 mph12.7 kmh 29.61 in1002.7 mb 0.00 in0.0 mm 0.00 in0.0 mm 0.00 in0.0 mm
02:09 PM 65.5°F18.6°C 30.6°F-0.8°C 27% 4.9 mph N7.9 kmh N 7.9 mph12.7 kmh 29.62 in1003.0 mb 0.00 in0.0 mm 0.00 in0.0 mm 0.00 in0.0 mm
02:08 PM 63.5°F17.5°C 26.0°F-3.3°C 24% 4.6 mph N7.4 kmh N 7.9 mph12.7 kmh 29.61 in1002.7 mb 0.00 in0.0 mm 0.00 in0.0 mm 0.00 in0.0 mm
02:07 PM 64.0°F17.8°C 31.1°F-0.5°C 29% 4.3 mph N6.9 kmh N 5.2 mph8.4 kmh 29.61 in1002.7 mb 0.00 in0.0 mm 0.00 in0.0 mm 0.00 in0.0 mm
02:06 PM 64.0°F17.8°C 31.1°F-0.5°C 29% 4.5 mph N7.2 kmh N 7.0 mph11.3 kmh 29.61 in1002.7 mb 0.00 in0.0 mm 0.00 in0.0 mm 0.00 in0.0 mm
02:05 PM 64.0°F17.8°C 31.1°F-0.5°C 29% 4.7 mph N7.6 kmh N 7.9 mph12.7 kmh 29.62 in1003.0 mb 0.00 in0.0 mm 0.00 in0.0 mm 0.00 in0.0 mm
02:04 PM 64.0°F17.8°C 31.1°F-0.5°C 29% 5.0 mph N8.0 kmh N 7.9 mph12.7 kmh 29.62 in1003.0 mb 0.00 in0.0 mm 0.00 in0.0 mm 0.00 in0.0 mm
02:03 PM 64.0°F17.8°C 31.1°F-0.5°C 29% 4.9 mph N7.9 kmh N 7.9 mph12.7 kmh 29.62 in1003.0 mb 0.00 in0.0 mm 0.00 in0.0 mm 0.00 in0.0 mm
02:02 PM 64.0°F17.8°C 31.1°F-0.5°C 29% 4.8 mph N7.7 kmh N 7.9 mph12.7 kmh 29.62 in1003.0 mb 0.00 in0.0 mm 0.00 in0.0 mm 0.00 in0.0 mm
02:01 PM 64.0°F17.8°C 31.1°F-0.5°C 29% 4.8 mph N7.7 kmh N 7.9 mph12.7 kmh 29.62 in1003.0 mb 0.00 in0.0 mm 0.00 in0.0 mm 0.00 in0.0 mm
02:00 PM 64.0°F17.8°C 31.1°F-0.5°C 29% 5.0 mph N8.0 kmh N 7.9 mph12.7 kmh 29.62 in1003.0 mb 0.00 in0.0 mm 0.00 in0.0 mm 0.00 in0.0 mm
01:59 PM 64.6°F18.1°C 34.0°F1.1°C 32% 5.1 mph N8.2 kmh N 7.9 mph12.7 kmh 29.62 in1003.0 mb 0.00 in0.0 mm 0.00 in0.0 mm 0.00 in0.0 mm
01:58 PM 63.0°F17.2°C 30.2°F-1.0°C 29% 5.1 mph N8.2 kmh N 7.9 mph12.7 kmh 29.62 in1003.0 mb 0.00 in0.0 mm 0.00 in0.0 mm 0.00 in0.0 mm
01:57 PM 62.4°F16.9°C 29.7°F-1.3°C 29% 5.4 mph NNE8.7 kmh NNE 7.9 mph12.7 kmh 29.62 in1003.0 mb 0.00 in0.0 mm 0.00 in0.0 mm 0.00 in0.0 mm
01:56 PM 64.4°F18.0°C 33.9°F1.1°C 32% 5.1 mph NNE8.2 kmh NNE 7.9 mph12.7 kmh 29.62 in1003.0 mb 0.00 in0.0 mm 0.00 in0.0 mm 0.00 in0.0 mm
01:55 PM 64.6°F18.1°C 34.0°F1.1°C 32% 4.8 mph NNE7.7 kmh NNE 7.9 mph12.7 kmh 29.62 in1003.0 mb 0.00 in0.0 mm 0.00 in0.0 mm 0.00 in0.0 mm
01:54 PM 65.5°F18.6°C 35.6°F2.0°C 33% 4.5 mph N7.2 kmh N 7.0 mph11.3 kmh 29.62 in1003.0 mb 0.00 in0.0 mm 0.00 in0.0 mm 0.00 in0.0 mm
01:53 PM 64.4°F18.0°C 34.6°F1.4°C 33% 4.7 mph N7.6 kmh N 7.0 mph11.3 kmh 29.62 in1003.0 mb 0.00 in0.0 mm 0.00 in0.0 mm 0.00 in0.0 mm
01:52 PM 63.3°F17.4°C 31.3°F-0.4°C 30% 4.8 mph N7.7 kmh N 7.0 mph11.3 kmh 29.62 in1003.0 mb 0.00 in0.0 mm 0.00 in0.0 mm 0.00 in0.0 mm
01:51 PM 63.9°F17.7°C 32.6°F0.3°C 31% 4.8 mph N7.7 kmh N 7.0 mph11.3 kmh 29.62 in1003.0 mb 0.00 in0.0 mm 0.00 in0.0 mm 0.00 in0.0 mm
01:50 PM 63.9°F17.7°C 33.4°F0.8°C 32% 4.7 mph N7.6 kmh N 7.0 mph11.3 kmh 29.62 in1003.0 mb 0.00 in0.0 mm 0.00 in0.0 mm 0.00 in0.0 mm
01:49 PM 63.3°F17.4°C 32.9°F0.5°C 32% 4.7 mph N7.6 kmh N 6.1 mph9.8 kmh 29.62 in1003.0 mb 0.00 in0.0 mm 0.00 in0.0 mm 0.00 in0.0 mm
01:48 PM 62.8°F17.1°C 33.2°F0.7°C 33% 4.7 mph N7.6 kmh N 6.1 mph9.8 kmh 29.62 in1003.0 mb 0.00 in0.0 mm 0.00 in0.0 mm 0.00 in0.0 mm
01:47 PM 61.5°F16.4°C 32.9°F0.5°C 34% 4.7 mph NNW7.6 kmh NNW 6.1 mph9.8 kmh 29.62 in1003.0 mb 0.00 in0.0 mm 0.00 in0.0 mm 0.00 in0.0 mm
01:46 PM 60.6°F15.9°C 32.8°F0.4°C 35% 4.8 mph NNW7.7 kmh NNW 6.1 mph9.8 kmh 29.62 in1003.0 mb 0.00 in0.0 mm 0.00 in0.0 mm 0.00 in0.0 mm
01:45 PM 60.1°F15.6°C 32.3°F0.2°C 35% 5.0 mph N8.0 kmh N 6.1 mph9.8 kmh 29.62 in1003.0 mb 0.00 in0.0 mm 0.00 in0.0 mm 0.00 in0.0 mm
01:44 PM 60.6°F15.9°C 33.5°F0.8°C 36% 5.0 mph N8.0 kmh N 6.1 mph9.8 kmh 29.62 in1003.0 mb 0.00 in0.0 mm 0.00 in0.0 mm 0.00 in0.0 mm
01:43 PM 60.4°F15.8°C 32.6°F0.3°C 35% 5.1 mph N8.2 kmh N 6.1 mph9.8 kmh 29.62 in1003.0 mb 0.00 in0.0 mm 0.00 in0.0 mm 0.00 in0.0 mm
01:42 PM 60.4°F15.8°C 32.6°F0.3°C 35% 5.6 mph N9.0 kmh N 10.5 mph16.9 kmh 29.62 in1003.0 mb 0.00 in0.0 mm 0.00 in0.0 mm 0.00 in0.0 mm
01:41 PM 59.9°F15.5°C 31.4°F-0.3°C 34% 5.7 mph N9.2 kmh N 10.5 mph16.9 kmh 29.62 in1003.0 mb 0.00 in0.0 mm 0.00 in0.0 mm 0.00 in0.0 mm
01:40 PM 61.2°F16.2°C 32.5°F0.3°C 34% 5.8 mph N9.3 kmh N 10.5 mph16.9 kmh 29.62 in1003.0 mb 0.00 in0.0 mm 0.00 in0.0 mm 0.00 in0.0 mm
01:39 PM 61.0°F16.1°C 31.6°F-0.2°C 33% 6.1 mph NNE9.8 kmh NNE 10.5 mph16.9 kmh 29.62 in1003.0 mb 0.00 in0.0 mm 0.00 in0.0 mm 0.00 in0.0 mm
01:38 PM 60.3°F15.7°C 31.0°F-0.6°C 33% 6.4 mph NNE10.3 kmh NNE 10.5 mph16.9 kmh 29.62 in1003.0 mb 0.00 in0.0 mm 0.00 in0.0 mm 0.00 in0.0 mm
01:37 PM 62.4°F16.9°C 32.9°F0.5°C 33% 6.6 mph NNE10.6 kmh NNE 10.5 mph16.9 kmh 29.62 in1003.0 mb 0.00 in0.0 mm 0.00 in0.0 mm 0.00 in0.0 mm
01:36 PM 63.7°F17.6°C 34.0°F1.1°C 33% 6.7 mph NNE10.8 kmh NNE 10.5 mph16.9 kmh 29.62 in1003.0 mb 0.00 in0.0 mm 0.00 in0.0 mm 0.00 in0.0 mm
01:35 PM 63.1°F17.3°C 33.5°F0.8°C 33% 7.0 mph NNE11.3 kmh NNE 10.5 mph16.9 kmh 29.62 in1003.0 mb 0.00 in0.0 mm 0.00 in0.0 mm 0.00 in0.0 mm
01:34 PM 61.9°F16.6°C 32.4°F0.2°C 33% 7.4 mph N11.9 kmh N 10.5 mph16.9 kmh 29.62 in1003.0 mb 0.00 in0.0 mm 0.00 in0.0 mm 0.00 in0.0 mm
01:33 PM 62.4°F16.9°C 32.9°F0.5°C 33% 7.7 mph NNE12.4 kmh NNE 10.5 mph16.9 kmh 29.62 in1003.0 mb 0.00 in0.0 mm 0.00 in0.0 mm 0.00 in0.0 mm
01:32 PM 62.4°F16.9°C 32.9°F0.5°C 33% 7.3 mph NNE11.7 kmh NNE 8.7 mph14.0 kmh 29.62 in1003.0 mb 0.00 in0.0 mm 0.00 in0.0 mm 0.00 in0.0 mm
01:31 PM 61.7°F16.5°C 31.5°F-0.3°C 32% 7.1 mph NNE11.4 kmh NNE 8.7 mph14.0 kmh 29.62 in1003.0 mb 0.00 in0.0 mm 0.00 in0.0 mm 0.00 in0.0 mm
01:30 PM 63.0°F17.2°C 31.8°F-0.1°C 31% 6.7 mph NNE10.8 kmh NNE 8.7 mph14.0 kmh 29.62 in1003.0 mb 0.00 in0.0 mm 0.00 in0.0 mm 0.00 in0.0 mm
01:29 PM 63.0°F17.2°C 31.8°F-0.1°C 31% 6.4 mph NNE10.3 kmh NNE 8.7 mph14.0 kmh 29.62 in1003.0 mb 0.00 in0.0 mm 0.00 in0.0 mm 0.00 in0.0 mm
01:28 PM 63.7°F17.6°C 32.5°F0.3°C 31% 6.2 mph NNE10.0 kmh NNE 8.7 mph14.0 kmh 29.62 in1003.0 mb 0.00 in0.0 mm 0.00 in0.0 mm 0.00 in0.0 mm
01:27 PM 63.7°F17.6°C 33.2°F0.7°C 32% 5.9 mph NNE9.5 kmh NNE 8.7 mph14.0 kmh 29.63 in1003.4 mb 0.00 in0.0 mm 0.00 in0.0 mm 0.00 in0.0 mm
01:26 PM 62.4°F16.9°C 32.1°F0.1°C 32% 5.9 mph N9.5 kmh N 8.7 mph14.0 kmh 29.63 in1003.4 mb 0.00 in0.0 mm 0.00 in0.0 mm 0.00 in0.0 mm
01:25 PM 64.0°F17.8°C 32.8°F0.4°C 31% 5.6 mph NNE9.0 kmh NNE 8.7 mph14.0 kmh 29.62 in1003.0 mb 0.00 in0.0 mm 0.00 in0.0 mm 0.00 in0.0 mm
01:24 PM 63.9°F17.7°C 33.4°F0.8°C 32% 5.3 mph NNE8.5 kmh NNE 8.7 mph14.0 kmh 29.63 in1003.4 mb 0.00 in0.0 mm 0.00 in0.0 mm 0.00 in0.0 mm
01:23 PM 63.9°F17.7°C 33.4°F0.8°C 32% 5.3 mph N8.5 kmh N 8.7 mph14.0 kmh 29.62 in1003.0 mb 0.00 in0.0 mm 0.00 in0.0 mm 0.00 in0.0 mm
01:22 PM 63.0°F17.2°C 32.6°F0.3°C 32% 5.2 mph N8.4 kmh N 8.7 mph14.0 kmh 29.62 in1003.0 mb 0.00 in0.0 mm 0.00 in0.0 mm 0.00 in0.0 mm
01:21 PM 63.0°F17.2°C 32.6°F0.3°C 32% 5.4 mph N8.7 kmh N 8.7 mph14.0 kmh 29.63 in1003.4 mb 0.00 in0.0 mm 0.00 in0.0 mm 0.00 in0.0 mm
01:20 PM 62.2°F16.8°C 32.0°F0.0°C 32% 5.8 mph N9.3 kmh N 8.7 mph14.0 kmh 29.63 in1003.4 mb 0.00 in0.0 mm 0.00 in0.0 mm 0.00 in0.0 mm
01:19 PM 62.2°F16.8°C 32.0°F0.0°C 32% 5.8 mph N9.3 kmh N 8.7 mph14.0 kmh 29.62 in1003.0 mb 0.00 in0.0 mm 0.00 in0.0 mm 0.00 in0.0 mm
01:18 PM 62.2°F16.8°C 32.0°F0.0°C 32% 5.9 mph N9.5 kmh N 8.7 mph14.0 kmh 29.63 in1003.4 mb 0.00 in0.0 mm 0.00 in0.0 mm 0.00 in0.0 mm
01:17 PM 61.9°F16.6°C 30.9°F-0.6°C 31% 5.9 mph N9.5 kmh N 8.7 mph14.0 kmh 29.63 in1003.4 mb 0.00 in0.0 mm 0.00 in0.0 mm 0.00 in0.0 mm
01:16 PM 63.3°F17.4°C 31.3°F-0.4°C 30% 5.9 mph N9.5 kmh N 8.7 mph14.0 kmh 29.62 in1003.0 mb 0.00 in0.0 mm 0.00 in0.0 mm 0.00 in0.0 mm
01:15 PM 63.9°F17.7°C 31.8°F-0.1°C 30% 5.9 mph N9.5 kmh N 8.7 mph14.0 kmh 29.63 in1003.4 mb 0.00 in0.0 mm 0.00 in0.0 mm 0.00 in0.0 mm
01:14 PM 64.4°F18.0°C 33.9°F1.1°C 32% 6.0 mph N9.7 kmh N 8.7 mph14.0 kmh 29.62 in1003.0 mb 0.00 in0.0 mm 0.00 in0.0 mm 0.00 in0.0 mm
01:13 PM 64.2°F17.9°C 31.3°F-0.4°C 29% 6.2 mph N10.0 kmh N 10.5 mph16.9 kmh 29.63 in1003.4 mb 0.00 in0.0 mm 0.00 in0.0 mm 0.00 in0.0 mm
01:12 PM 63.7°F17.6°C 31.6°F-0.2°C 30% 6.6 mph N10.6 kmh N 10.5 mph16.9 kmh 29.64 in1003.7 mb 0.00 in0.0 mm 0.00 in0.0 mm 0.00 in0.0 mm
01:11 PM 63.3°F17.4°C 31.3°F-0.4°C 30% 6.9 mph N11.1 kmh N 10.5 mph16.9 kmh 29.63 in1003.4 mb 0.00 in0.0 mm 0.00 in0.0 mm 0.00 in0.0 mm
01:10 PM 62.1°F16.7°C 30.2°F-1.0°C 30% 7.0 mph N11.3 kmh N 10.5 mph16.9 kmh 29.63 in1003.4 mb 0.00 in0.0 mm 0.00 in0.0 mm 0.00 in0.0 mm
01:09 PM 61.9°F16.6°C 30.1°F-1.1°C 30% 7.3 mph N11.7 kmh N 11.3 mph18.2 kmh 29.63 in1003.4 mb 0.00 in0.0 mm 0.00 in0.0 mm 0.00 in0.0 mm
01:08 PM 61.9°F16.6°C 30.9°F-0.6°C 31% 7.8 mph N12.6 kmh N 11.3 mph18.2 kmh 29.63 in1003.4 mb 0.00 in0.0 mm 0.00 in0.0 mm 0.00 in0.0 mm
01:07 PM 61.0°F16.1°C 29.3°F-1.5°C 30% 8.4 mph N13.5 kmh N 11.3 mph18.2 kmh 29.63 in1003.4 mb 0.00 in0.0 mm 0.00 in0.0 mm 0.00 in0.0 mm
01:06 PM 60.8°F16.0°C 29.1°F-1.6°C 30% 8.5 mph N13.7 kmh N 11.3 mph18.2 kmh 29.63 in1003.4 mb 0.00 in0.0 mm 0.00 in0.0 mm 0.00 in0.0 mm
01:05 PM 60.4°F15.8°C 29.6°F-1.3°C 31% 8.6 mph N13.8 kmh N 11.3 mph18.2 kmh 29.63 in1003.4 mb 0.00 in0.0 mm 0.00 in0.0 mm 0.00 in0.0 mm
01:04 PM 61.9°F16.6°C 30.1°F-1.1°C 30% 8.8 mph N14.2 kmh N 11.3 mph18.2 kmh 29.62 in1003.0 mb 0.00 in0.0 mm 0.00 in0.0 mm 0.00 in0.0 mm
01:03 PM 62.1°F16.7°C 30.2°F-1.0°C 30% 8.5 mph N13.7 kmh N 11.3 mph18.2 kmh 29.63 in1003.4 mb 0.00 in0.0 mm 0.00 in0.0 mm 0.00 in0.0 mm
01:02 PM 61.3°F16.3°C 29.6°F-1.3°C 30% 8.2 mph N13.2 kmh N 11.3 mph18.2 kmh 29.62 in1003.0 mb 0.00 in0.0 mm 0.00 in0.0 mm 0.00 in0.0 mm
01:01 PM 60.1°F15.6°C 29.3°F-1.5°C 31% 7.6 mph N12.2 kmh N 11.3 mph18.2 kmh 29.63 in1003.4 mb 0.00 in0.0 mm 0.00 in0.0 mm 0.00 in0.0 mm
01:00 PM 61.0°F16.1°C 29.3°F-1.5°C 30% 7.1 mph N11.4 kmh N 11.3 mph18.2 kmh 29.63 in1003.4 mb 0.00 in0.0 mm 0.00 in0.0 mm 0.00 in0.0 mm
12:59 PM 62.8°F17.1°C 30.9°F-0.6°C 30% 6.9 mph N11.1 kmh N 11.3 mph18.2 kmh 29.63 in1003.4 mb 0.00 in0.0 mm 0.00 in0.0 mm 0.00 in0.0 mm
12:58 PM 62.8°F17.1°C 30.9°F-0.6°C 30% 6.4 mph NNE10.3 kmh NNE 11.3 mph18.2 kmh 29.63 in1003.4 mb 0.00 in0.0 mm 0.00 in0.0 mm 0.00 in0.0 mm
12:57 PM 63.0°F17.2°C 31.8°F-0.1°C 31% 6.0 mph NE9.7 kmh NE 10.5 mph16.9 kmh 29.63 in1003.4 mb 0.00 in0.0 mm 0.00 in0.0 mm 0.00 in0.0 mm
12:56 PM 61.7°F16.5°C 31.5°F-0.3°C 32% 6.1 mph NE9.8 kmh NE 10.5 mph16.9 kmh 29.63 in1003.4 mb 0.00 in0.0 mm 0.00 in0.0 mm 0.00 in0.0 mm
12:55 PM 62.4°F16.9°C 32.1°F0.1°C 32% 6.0 mph NNE9.7 kmh NNE 10.5 mph16.9 kmh 29.63 in1003.4 mb 0.00 in0.0 mm 0.00 in0.0 mm 0.00 in0.0 mm
12:54 PM 62.8°F17.1°C 32.5°F0.3°C 32% 5.7 mph N9.2 kmh N 10.5 mph16.9 kmh 29.63 in1003.4 mb 0.00 in0.0 mm 0.00 in0.0 mm 0.00 in0.0 mm
12:53 PM 62.8°F17.1°C 33.2°F0.7°C 33% 5.6 mph N9.0 kmh N 8.7 mph14.0 kmh 29.63 in1003.4 mb 0.00 in0.0 mm 0.00 in0.0 mm 0.00 in0.0 mm
12:52 PM 61.7°F16.5°C 32.3°F0.2°C 33% 5.7 mph N9.2 kmh N 8.7 mph14.0 kmh 29.63 in1003.4 mb 0.00 in0.0 mm 0.00 in0.0 mm 0.00 in0.0 mm
12:51 PM 61.2°F16.2°C 31.8°F-0.1°C 33% 6.2 mph N10.0 kmh N 8.7 mph14.0 kmh 29.63 in1003.4 mb 0.00 in0.0 mm 0.00 in0.0 mm 0.00 in0.0 mm
12:50 PM 60.4°F15.8°C 31.2°F-0.4°C 33% 6.8 mph N10.9 kmh N 10.5 mph16.9 kmh 29.63 in1003.4 mb 0.00 in0.0 mm 0.00 in0.0 mm 0.00 in0.0 mm
12:49 PM 61.9°F16.6°C 32.4°F0.2°C 33% 7.0 mph NNE11.3 kmh NNE 10.5 mph16.9 kmh 29.63 in1003.4 mb 0.00 in0.0 mm 0.00 in0.0 mm 0.00 in0.0 mm
12:48 PM 62.2°F16.8°C 33.5°F0.8°C 34% 7.2 mph NNE11.6 kmh NNE 10.5 mph16.9 kmh 29.63 in1003.4 mb 0.00 in0.0 mm 0.00 in0.0 mm 0.00 in0.0 mm
12:47 PM 61.5°F16.4°C 32.9°F0.5°C 34% 7.3 mph NNE11.7 kmh NNE 10.5 mph16.9 kmh 29.63 in1003.4 mb 0.00 in0.0 mm 0.00 in0.0 mm 0.00 in0.0 mm
12:46 PM 61.7°F16.5°C 33.0°F0.6°C 34% 7.4 mph N11.9 kmh N 11.3 mph18.2 kmh 29.64 in1003.7 mb 0.00 in0.0 mm 0.00 in0.0 mm 0.00 in0.0 mm
12:45 PM 60.4°F15.8°C 32.6°F0.3°C 35% 8.0 mph N12.9 kmh N 11.3 mph18.2 kmh 29.64 in1003.7 mb 0.00 in0.0 mm 0.00 in0.0 mm 0.00 in0.0 mm
12:44 PM 59.9°F15.5°C 31.4°F-0.3°C 34% 8.2 mph N13.2 kmh N 11.3 mph18.2 kmh 29.64 in1003.7 mb 0.00 in0.0 mm 0.00 in0.0 mm 0.00 in0.0 mm
12:43 PM 59.7°F15.4°C 31.3°F-0.4°C 34% 8.2 mph N13.2 kmh N 11.3 mph18.2 kmh 29.64 in1003.7 mb 0.00 in0.0 mm 0.00 in0.0 mm 0.00 in0.0 mm
12:42 PM 58.5°F14.7°C 30.9°F-0.6°C 35% 7.9 mph N12.7 kmh N 11.3 mph18.2 kmh 29.64 in1003.7 mb 0.00 in0.0 mm 0.00 in0.0 mm 0.00 in0.0 mm
12:41 PM 61.0°F16.1°C 32.4°F0.2°C 34% 7.6 mph N12.2 kmh N 11.3 mph18.2 kmh 29.64 in1003.7 mb 0.00 in0.0 mm 0.00 in0.0 mm 0.00 in0.0 mm
12:40 PM 60.8°F16.0°C 33.0°F0.6°C 35% 7.4 mph N11.9 kmh N 11.3 mph18.2 kmh 29.64 in1003.7 mb 0.00 in0.0 mm 0.00 in0.0 mm 0.00 in0.0 mm
12:39 PM 60.1°F15.6°C 33.0°F0.6°C 36% 7.5 mph N12.1 kmh N 11.3 mph18.2 kmh 29.64 in1003.7 mb 0.00 in0.0 mm 0.00 in0.0 mm 0.00 in0.0 mm
12:38 PM 60.1°F15.6°C 33.7°F0.9°C 37% 7.0 mph N11.3 kmh N 11.3 mph18.2 kmh 29.64 in1003.7 mb 0.00 in0.0 mm 0.00 in0.0 mm 0.00 in0.0 mm
12:37 PM 58.8°F14.9°C 31.2°F-0.4°C 35% 6.7 mph N10.8 kmh N 11.3 mph18.2 kmh 29.64 in1003.7 mb 0.00 in0.0 mm 0.00 in0.0 mm 0.00 in0.0 mm
12:36 PM 60.4°F15.8°C 31.9°F-0.1°C 34% 6.5 mph N10.5 kmh N 11.3 mph18.2 kmh 29.64 in1003.7 mb 0.00 in0.0 mm 0.00 in0.0 mm 0.00 in0.0 mm
12:35 PM 63.0°F17.2°C 34.1°F1.2°C 34% 6.0 mph N9.7 kmh N 10.5 mph16.9 kmh 29.63 in1003.4 mb 0.00 in0.0 mm 0.00 in0.0 mm 0.00 in0.0 mm
12:34 PM 63.3°F17.4°C 35.9°F2.2°C 36% 5.7 mph N9.2 kmh N 8.7 mph14.0 kmh 29.64 in1003.7 mb 0.00 in0.0 mm 0.00 in0.0 mm 0.00 in0.0 mm
12:33 PM 61.3°F16.3°C 33.4°F0.8°C 35% 5.8 mph N9.3 kmh N 8.7 mph14.0 kmh 29.63 in1003.4 mb 0.00 in0.0 mm 0.00 in0.0 mm 0.00 in0.0 mm
12:32 PM 60.4°F15.8°C 31.9°F-0.1°C 34% 6.2 mph N10.0 kmh N 8.7 mph14.0 kmh 29.64 in1003.7 mb 0.00 in0.0 mm 0.00 in0.0 mm 0.00 in0.0 mm
12:31 PM 61.0°F16.1°C 30.9°F-0.6°C 32% 6.3 mph N10.1 kmh N 8.7 mph14.0 kmh 29.64 in1003.7 mb 0.00 in0.0 mm 0.00 in0.0 mm 0.00 in0.0 mm
12:30 PM 61.9°F16.6°C 31.7°F-0.2°C 32% 6.1 mph N9.8 kmh N 8.7 mph14.0 kmh 29.64 in1003.7 mb 0.00 in0.0 mm 0.00 in0.0 mm 0.00 in0.0 mm
12:29 PM 63.1°F17.3°C 33.5°F0.8°C 33% 5.9 mph N9.5 kmh N 8.7 mph14.0 kmh 29.64 in1003.7 mb 0.00 in0.0 mm 0.00 in0.0 mm 0.00 in0.0 mm
12:28 PM 64.0°F17.8°C 35.1°F1.7°C 34% 6.1 mph N9.8 kmh N 8.7 mph14.0 kmh 29.64 in1003.7 mb 0.00 in0.0 mm 0.00 in0.0 mm 0.00 in0.0 mm
12:27 PM 62.2°F16.8°C 34.2°F1.2°C 35% 6.2 mph N10.0 kmh N 8.7 mph14.0 kmh 29.64 in1003.7 mb 0.00 in0.0 mm 0.00 in0.0 mm 0.00 in0.0 mm
12:26 PM 63.0°F17.2°C 34.1°F1.2°C 34% 6.3 mph N10.1 kmh N 8.7 mph14.0 kmh 29.64 in1003.7 mb 0.00 in0.0 mm 0.00 in0.0 mm 0.00 in0.0 mm
12:25 PM 62.2°F16.8°C 34.2°F1.2°C 35% 6.3 mph N10.1 kmh N 8.7 mph14.0 kmh 29.64 in1003.7 mb 0.00 in0.0 mm 0.00 in0.0 mm 0.00 in0.0 mm
12:24 PM 61.9°F16.6°C 33.9°F1.1°C 35% 6.2 mph N10.0 kmh N 8.7 mph14.0 kmh 29.65 in1004.1 mb 0.00 in0.0 mm 0.00 in0.0 mm 0.00 in0.0 mm
12:23 PM 62.6°F17.0°C 34.5°F1.4°C 35% 6.2 mph N10.0 kmh N 8.7 mph14.0 kmh 29.65 in1004.1 mb 0.00 in0.0 mm 0.00 in0.0 mm 0.00 in0.0 mm
12:22 PM 61.9°F16.6°C 35.3°F1.8°C 37% 6.0 mph N9.7 kmh N 7.0 mph11.3 kmh 29.65 in1004.1 mb 0.00 in0.0 mm 0.00 in0.0 mm 0.00 in0.0 mm
12:21 PM 61.9°F16.6°C 35.3°F1.8°C 37% 6.3 mph N10.1 kmh N 11.3 mph18.2 kmh 29.64 in1003.7 mb 0.00 in0.0 mm 0.00 in0.0 mm 0.00 in0.0 mm
12:20 PM 61.9°F16.6°C 35.3°F1.8°C 37% 6.6 mph N10.6 kmh N 11.3 mph18.2 kmh 29.65 in1004.1 mb 0.00 in0.0 mm 0.00 in0.0 mm 0.00 in0.0 mm
12:19 PM 61.9°F16.6°C 35.3°F1.8°C 37% 6.5 mph N10.5 kmh N 11.3 mph18.2 kmh 29.65 in1004.1 mb 0.00 in0.0 mm 0.00 in0.0 mm 0.00 in0.0 mm
12:18 PM 61.9°F16.6°C 35.3°F1.8°C 37% 6.5 mph N10.5 kmh N 11.3 mph18.2 kmh 29.65 in1004.1 mb 0.00 in0.0 mm 0.00 in0.0 mm 0.00 in0.0 mm
12:17 PM 61.9°F16.6°C 35.3°F1.8°C 37% 6.4 mph N10.3 kmh N 11.3 mph18.2 kmh 29.65 in1004.1 mb 0.00 in0.0 mm 0.00 in0.0 mm 0.00 in0.0 mm
12:16 PM 61.9°F16.6°C 35.3°F1.8°C 37% 6.3 mph N10.1 kmh N 11.3 mph18.2 kmh 29.65 in1004.1 mb 0.00 in0.0 mm 0.00 in0.0 mm 0.00 in0.0 mm
12:15 PM 61.9°F16.6°C 35.3°F1.8°C 37% 6.0 mph N9.7 kmh N 11.3 mph18.2 kmh 29.65 in1004.1 mb 0.00 in0.0 mm 0.00 in0.0 mm 0.00 in0.0 mm
12:14 PM 61.0°F16.1°C 33.8°F1.0°C 36% 6.1 mph N9.8 kmh N 11.3 mph18.2 kmh 29.65 in1004.1 mb 0.00 in0.0 mm 0.00 in0.0 mm 0.00 in0.0 mm
12:13 PM 60.1°F15.6°C 32.3°F0.2°C 35% 5.8 mph NNE9.3 kmh NNE 11.3 mph18.2 kmh 29.65 in1004.1 mb 0.00 in0.0 mm 0.00 in0.0 mm 0.00 in0.0 mm
12:12 PM 61.2°F16.2°C 33.3°F0.7°C 35% 5.7 mph NNE9.2 kmh NNE 11.3 mph18.2 kmh 29.65 in1004.1 mb 0.00 in0.0 mm 0.00 in0.0 mm 0.00 in0.0 mm
12:11 PM 62.2°F16.8°C 34.9°F1.6°C 36% 5.3 mph NE8.5 kmh NE 11.3 mph18.2 kmh 29.65 in1004.1 mb 0.00 in0.0 mm 0.00 in0.0 mm 0.00 in0.0 mm
12:10 PM 63.9°F17.7°C 35.7°F2.1°C 35% 4.7 mph NE7.6 kmh NE 7.9 mph12.7 kmh 29.65 in1004.1 mb 0.00 in0.0 mm 0.00 in0.0 mm 0.00 in0.0 mm
12:09 PM 62.6°F17.0°C 35.3°F1.8°C 36% 4.7 mph NE7.6 kmh NE 7.9 mph12.7 kmh 29.65 in1004.1 mb 0.00 in0.0 mm 0.00 in0.0 mm 0.00 in0.0 mm
12:08 PM 63.3°F17.4°C 35.9°F2.2°C 36% 4.6 mph NNE7.4 kmh NNE 7.9 mph12.7 kmh 29.65 in1004.1 mb 0.00 in0.0 mm 0.00 in0.0 mm 0.00 in0.0 mm
12:07 PM 61.9°F16.6°C 35.3°F1.8°C 37% 4.6 mph NNE7.4 kmh NNE 7.9 mph12.7 kmh 29.65 in1004.1 mb 0.00 in0.0 mm 0.00 in0.0 mm 0.00 in0.0 mm
12:06 PM 62.6°F17.0°C 35.9°F2.2°C 37% 4.7 mph NNE7.6 kmh NNE 7.9 mph12.7 kmh 29.65 in1004.1 mb 0.00 in0.0 mm 0.00 in0.0 mm 0.00 in0.0 mm
12:05 PM 63.5°F17.5°C 37.4°F3.0°C 38% 5.2 mph N8.4 kmh N 9.6 mph15.4 kmh 29.65 in1004.1 mb 0.00 in0.0 mm 0.00 in0.0 mm 0.00 in0.0 mm
12:04 PM 61.3°F16.3°C 34.8°F1.6°C 37% 5.5 mph N8.9 kmh N 9.6 mph15.4 kmh 29.66 in1004.4 mb 0.00 in0.0 mm 0.00 in0.0 mm 0.00 in0.0 mm
12:03 PM 62.2°F16.8°C 37.0°F2.8°C 39% 6.2 mph N10.0 kmh N 10.5 mph16.9 kmh 29.65 in1004.1 mb 0.00 in0.0 mm 0.00 in0.0 mm 0.00 in0.0 mm
12:02 PM 61.7°F16.5°C 36.5°F2.5°C 39% 6.2 mph N10.0 kmh N 10.5 mph16.9 kmh 29.65 in1004.1 mb 0.00 in0.0 mm 0.00 in0.0 mm 0.00 in0.0 mm
12:01 PM 60.4°F15.8°C 34.7°F1.5°C 38% 6.6 mph N10.6 kmh N 10.5 mph16.9 kmh 29.65 in1004.1 mb 0.00 in0.0 mm 0.00 in0.0 mm 0.00 in0.0 mm
12:00 PM 60.4°F15.8°C 34.7°F1.5°C 38% 7.0 mph N11.3 kmh N 10.5 mph16.9 kmh 29.65 in1004.1 mb 0.00 in0.0 mm 0.00 in0.0 mm 0.00 in0.0 mm
11:59 AM 60.4°F15.8°C 34.7°F1.5°C 38% 7.0 mph N11.3 kmh N 10.5 mph16.9 kmh 29.65 in1004.1 mb 0.00 in0.0 mm 0.00 in0.0 mm 0.00 in0.0 mm
11:58 AM 60.3°F15.7°C 34.5°F1.4°C 38% 7.0 mph N11.3 kmh N 10.5 mph16.9 kmh 29.65 in1004.1 mb 0.00 in0.0 mm 0.00 in0.0 mm 0.00 in0.0 mm
11:57 AM 60.8°F16.0°C 35.0°F1.7°C 38% 6.7 mph N10.8 kmh N 10.5 mph16.9 kmh 29.66 in1004.4 mb 0.00 in0.0 mm 0.00 in0.0 mm 0.00 in0.0 mm
11:56 AM 60.4°F15.8°C 35.3°F1.8°C 39% 6.7 mph N10.8 kmh N 10.5 mph16.9 kmh 29.65 in1004.1 mb 0.00 in0.0 mm 0.00 in0.0 mm 0.00 in0.0 mm
11:55 AM 60.4°F15.8°C 35.3°F1.8°C 39% 6.6 mph N10.6 kmh N 10.5 mph16.9 kmh 29.65 in1004.1 mb 0.00 in0.0 mm 0.00 in0.0 mm 0.00 in0.0 mm
11:54 AM 60.8°F16.0°C 35.7°F2.1°C 39% 6.1 mph N9.8 kmh N 10.5 mph16.9 kmh 29.65 in1004.1 mb 0.00 in0.0 mm 0.00 in0.0 mm 0.00 in0.0 mm
11:53 AM 61.7°F16.5°C 37.1°F2.8°C 40% 5.9 mph N9.5 kmh N 10.5 mph16.9 kmh 29.65 in1004.1 mb 0.00 in0.0 mm 0.00 in0.0 mm 0.00 in0.0 mm
11:52 AM 61.3°F16.3°C 36.8°F2.7°C 40% 6.0 mph N9.7 kmh N 10.5 mph16.9 kmh 29.65 in1004.1 mb 0.00 in0.0 mm 0.00 in0.0 mm 0.00 in0.0 mm
11:51 AM 61.2°F16.2°C 37.3°F2.9°C 41% 5.9 mph N9.5 kmh N 10.5 mph16.9 kmh 29.65 in1004.1 mb 0.00 in0.0 mm 0.00 in0.0 mm 0.00 in0.0 mm
11:50 AM 60.4°F15.8°C 37.2°F2.9°C 42% 5.4 mph N8.7 kmh N 9.6 mph15.4 kmh 29.65 in1004.1 mb 0.00 in0.0 mm 0.00 in0.0 mm 0.00 in0.0 mm
11:49 AM 59.4°F15.2°C 36.2°F2.3°C 42% 5.3 mph N8.5 kmh N 9.6 mph15.4 kmh 29.66 in1004.4 mb 0.00 in0.0 mm 0.00 in0.0 mm 0.00 in0.0 mm
11:48 AM 58.5°F14.7°C 35.4°F1.9°C 42% 5.4 mph N8.7 kmh N 9.6 mph15.4 kmh 29.65 in1004.1 mb 0.00 in0.0 mm 0.00 in0.0 mm 0.00 in0.0 mm
11:47 AM 58.1°F14.5°C 35.1°F1.7°C 42% 5.5 mph N8.9 kmh N 9.6 mph15.4 kmh 29.65 in1004.1 mb 0.00 in0.0 mm 0.00 in0.0 mm 0.00 in0.0 mm
11:46 AM 58.6°F14.8°C 35.6°F2.0°C 42% 5.7 mph N9.2 kmh N 9.6 mph15.4 kmh 29.65 in1004.1 mb 0.00 in0.0 mm 0.00 in0.0 mm 0.00 in0.0 mm
11:45 AM 58.5°F14.7°C 35.4°F1.9°C 42% 5.5 mph N8.9 kmh N 9.6 mph15.4 kmh 29.65 in1004.1 mb 0.00 in0.0 mm 0.00 in0.0 mm 0.00 in0.0 mm
11:44 AM 57.4°F14.1°C 33.9°F1.1°C 41% 5.4 mph N8.7 kmh N 9.6 mph15.4 kmh 29.65 in1004.1 mb 0.00 in0.0 mm 0.00 in0.0 mm 0.00 in0.0 mm
11:43 AM 59.0°F15.0°C 34.7°F1.5°C 40% 5.2 mph N8.4 kmh N 9.6 mph15.4 kmh 29.65 in1004.1 mb 0.00 in0.0 mm 0.00 in0.0 mm 0.00 in0.0 mm
11:42 AM 59.4°F15.2°C 35.0°F1.7°C 40% 5.0 mph N8.0 kmh N 7.0 mph11.3 kmh 29.65 in1004.1 mb 0.00 in0.0 mm 0.00 in0.0 mm 0.00 in0.0 mm
11:41 AM 60.4°F15.8°C 36.0°F2.2°C 40% 4.9 mph N7.9 kmh N 6.1 mph9.8 kmh 29.65 in1004.1 mb 0.00 in0.0 mm 0.00 in0.0 mm 0.00 in0.0 mm
11:40 AM 61.2°F16.2°C 36.0°F2.2°C 39% 5.0 mph NNE8.0 kmh NNE 6.1 mph9.8 kmh 29.64 in1003.7 mb 0.00 in0.0 mm 0.00 in0.0 mm 0.00 in0.0 mm
11:39 AM 61.9°F16.6°C 36.6°F2.6°C 39% 5.2 mph N8.4 kmh N 7.0 mph11.3 kmh 29.65 in1004.1 mb 0.00 in0.0 mm 0.00 in0.0 mm 0.00 in0.0 mm
11:38 AM 62.2°F16.8°C 37.0°F2.8°C 39% 5.6 mph N9.0 kmh N 9.6 mph15.4 kmh 29.65 in1004.1 mb 0.00 in0.0 mm 0.00 in0.0 mm 0.00 in0.0 mm
11:37 AM 63.1°F17.3°C 38.4°F3.6°C 40% 5.8 mph N9.3 kmh N 9.6 mph15.4 kmh 29.64 in1003.7 mb 0.00 in0.0 mm 0.00 in0.0 mm 0.00 in0.0 mm
11:36 AM 62.6°F17.0°C 37.9°F3.3°C 40% 5.9 mph N9.5 kmh N 9.6 mph15.4 kmh 29.65 in1004.1 mb 0.00 in0.0 mm 0.00 in0.0 mm 0.00 in0.0 mm
11:35 AM 61.7°F16.5°C 38.4°F3.6°C 42% 6.1 mph N9.8 kmh N 9.6 mph15.4 kmh 29.65 in1004.1 mb 0.00 in0.0 mm 0.00 in0.0 mm 0.00 in0.0 mm
11:34 AM 61.0°F16.1°C 37.1°F2.8°C 41% 6.7 mph N10.8 kmh N 10.5 mph16.9 kmh 29.65 in1004.1 mb 0.00 in0.0 mm 0.00 in0.0 mm 0.00 in0.0 mm
11:33 AM 59.9°F15.5°C 36.7°F2.6°C 42% 6.8 mph N10.9 kmh N 10.5 mph16.9 kmh 29.64 in1003.7 mb 0.00 in0.0 mm 0.00 in0.0 mm 0.00 in0.0 mm
11:32 AM 59.7°F15.4°C 37.2°F2.9°C 43% 6.9 mph N11.1 kmh N 10.5 mph16.9 kmh 29.65 in1004.1 mb 0.00 in0.0 mm 0.00 in0.0 mm 0.00 in0.0 mm
11:31 AM 59.2°F15.1°C 36.7°F2.6°C 43% 6.9 mph N11.1 kmh N 10.5 mph16.9 kmh 29.65 in1004.1 mb 0.00 in0.0 mm 0.00 in0.0 mm 0.00 in0.0 mm
11:30 AM 58.8°F14.9°C 36.9°F2.7°C 44% 7.1 mph N11.4 kmh N 10.5 mph16.9 kmh 29.65 in1004.1 mb 0.00 in0.0 mm 0.00 in0.0 mm 0.00 in0.0 mm
11:29 AM 58.1°F14.5°C 35.7°F2.1°C 43% 6.9 mph N11.1 kmh N 10.5 mph16.9 kmh 29.64 in1003.7 mb 0.00 in0.0 mm 0.00 in0.0 mm 0.00 in0.0 mm
11:28 AM 58.1°F14.5°C 35.7°F2.1°C 43% 6.6 mph N10.6 kmh N 10.5 mph16.9 kmh 29.65 in1004.1 mb 0.00 in0.0 mm 0.00 in0.0 mm 0.00 in0.0 mm
11:27 AM 58.1°F14.5°C 35.1°F1.7°C 42% 6.8 mph N10.9 kmh N 10.5 mph16.9 kmh 29.65 in1004.1 mb 0.00 in0.0 mm 0.00 in0.0 mm 0.00 in0.0 mm
11:26 AM 58.8°F14.9°C 35.8°F2.1°C 42% 6.7 mph N10.8 kmh N 10.5 mph16.9 kmh 29.65 in1004.1 mb 0.00 in0.0 mm 0.00 in0.0 mm 0.00 in0.0 mm
11:25 AM 61.0°F16.1°C 37.7°F3.2°C 42% 6.8 mph N10.9 kmh N 10.5 mph16.9 kmh 29.65 in1004.1 mb 0.00 in0.0 mm 0.00 in0.0 mm 0.00 in0.0 mm
11:24 AM 60.4°F15.8°C 38.4°F3.6°C 44% 6.6 mph N10.6 kmh N 9.6 mph15.4 kmh 29.64 in1003.7 mb 0.00 in0.0 mm 0.00 in0.0 mm 0.00 in0.0 mm
11:23 AM 59.4°F15.2°C 37.4°F3.0°C 44% 6.7 mph N10.8 kmh N 9.6 mph15.4 kmh 29.65 in1004.1 mb 0.00 in0.0 mm 0.00 in0.0 mm 0.00 in0.0 mm
11:22 AM 58.1°F14.5°C 36.3°F2.4°C 44% 6.8 mph N10.9 kmh N 9.6 mph15.4 kmh 29.65 in1004.1 mb 0.00 in0.0 mm 0.00 in0.0 mm 0.00 in0.0 mm
11:21 AM 57.6°F14.2°C 35.8°F2.1°C 44% 6.9 mph N11.1 kmh N 9.6 mph15.4 kmh 29.65 in1004.1 mb 0.00 in0.0 mm 0.00 in0.0 mm 0.00 in0.0 mm
11:20 AM 56.8°F13.8°C 35.7°F2.1°C 45% 6.9 mph N11.1 kmh N 9.6 mph15.4 kmh 29.65 in1004.1 mb 0.00 in0.0 mm 0.00 in0.0 mm 0.00 in0.0 mm
11:19 AM 56.5°F13.6°C 35.4°F1.9°C 45% 7.3 mph N11.7 kmh N 9.6 mph15.4 kmh 29.65 in1004.1 mb 0.00 in0.0 mm 0.00 in0.0 mm 0.00 in0.0 mm
11:18 AM 57.0°F13.9°C 35.9°F2.2°C 45% 7.6 mph N12.2 kmh N 10.5 mph16.9 kmh 29.65 in1004.1 mb 0.00 in0.0 mm 0.00 in0.0 mm 0.00 in0.0 mm
11:17 AM 57.0°F13.9°C 35.3°F1.8°C 44% 7.4 mph NNW11.9 kmh NNW 10.5 mph16.9 kmh 29.65 in1004.1 mb 0.00 in0.0 mm 0.00 in0.0 mm 0.00 in0.0 mm
11:16 AM 58.5°F14.7°C 36.6°F2.6°C 44% 7.6 mph NNW12.2 kmh NNW 10.5 mph16.9 kmh 29.66 in1004.4 mb 0.00 in0.0 mm 0.00 in0.0 mm 0.00 in0.0 mm
11:15 AM 57.6°F14.2°C 35.2°F1.8°C 43% 7.8 mph N12.6 kmh N 10.5 mph16.9 kmh 29.65 in1004.1 mb 0.00 in0.0 mm 0.00 in0.0 mm 0.00 in0.0 mm
11:14 AM 57.6°F14.2°C 35.2°F1.8°C 43% 7.6 mph N12.2 kmh N 10.5 mph16.9 kmh 29.65 in1004.1 mb 0.00 in0.0 mm 0.00 in0.0 mm 0.00 in0.0 mm
11:13 AM 58.3°F14.6°C 35.9°F2.2°C 43% 7.7 mph N12.4 kmh N 10.5 mph16.9 kmh 29.65 in1004.1 mb 0.00 in0.0 mm 0.00 in0.0 mm 0.00 in0.0 mm
11:12 AM 59.4°F15.2°C 36.2°F2.3°C 42% 7.9 mph N12.7 kmh N 10.5 mph16.9 kmh 29.65 in1004.1 mb 0.00 in0.0 mm 0.00 in0.0 mm 0.00 in0.0 mm
11:11 AM 59.0°F15.0°C 36.5°F2.5°C 43% 7.9 mph N12.7 kmh N 10.5 mph16.9 kmh 29.65 in1004.1 mb 0.00 in0.0 mm 0.00 in0.0 mm 0.00 in0.0 mm
11:10 AM 59.5°F15.3°C 37.6°F3.1°C 44% 8.1 mph N13.0 kmh N 10.5 mph16.9 kmh 29.65 in1004.1 mb 0.00 in0.0 mm 0.00 in0.0 mm 0.00 in0.0 mm
11:09 AM 58.5°F14.7°C 36.6°F2.6°C 44% 8.0 mph N12.9 kmh N 10.5 mph16.9 kmh 29.65 in1004.1 mb 0.00 in0.0 mm 0.00 in0.0 mm 0.00 in0.0 mm
11:08 AM 57.9°F14.4°C 36.1°F2.3°C 44% 8.0 mph N12.9 kmh N 10.5 mph16.9 kmh 29.65 in1004.1 mb 0.00 in0.0 mm 0.00 in0.0 mm 0.00 in0.0 mm
11:07 AM 57.9°F14.4°C 36.1°F2.3°C 44% 8.0 mph N12.9 kmh N 10.5 mph16.9 kmh 29.65 in1004.1 mb 0.00 in0.0 mm 0.00 in0.0 mm 0.00 in0.0 mm
11:06 AM 57.6°F14.2°C 35.8°F2.1°C 44% 7.7 mph N12.4 kmh N 10.5 mph16.9 kmh 29.65 in1004.1 mb 0.00 in0.0 mm 0.00 in0.0 mm 0.00 in0.0 mm
11:05 AM 58.6°F14.8°C 36.8°F2.7°C 44% 7.3 mph N11.7 kmh N 10.5 mph16.9 kmh 29.65 in1004.1 mb 0.00 in0.0 mm 0.00 in0.0 mm 0.00 in0.0 mm
11:04 AM 57.7°F14.3°C 35.4°F1.9°C 43% 7.4 mph NNE11.9 kmh NNE 10.5 mph16.9 kmh 29.64 in1003.7 mb 0.00 in0.0 mm 0.00 in0.0 mm 0.00 in0.0 mm
11:03 AM 59.2°F15.1°C 36.1°F2.3°C 42% 7.3 mph NNE11.7 kmh NNE 10.5 mph16.9 kmh 29.65 in1004.1 mb 0.00 in0.0 mm 0.00 in0.0 mm 0.00 in0.0 mm
11:02 AM 59.2°F15.1°C 36.7°F2.6°C 43% 7.2 mph NNE11.6 kmh NNE 8.7 mph14.0 kmh 29.65 in1004.1 mb 0.00 in0.0 mm 0.00 in0.0 mm 0.00 in0.0 mm
11:01 AM 59.4°F15.2°C 36.2°F2.3°C 42% 7.2 mph NNE11.6 kmh NNE 8.7 mph14.0 kmh 29.65 in1004.1 mb 0.00 in0.0 mm 0.00 in0.0 mm 0.00 in0.0 mm
11:00 AM 58.6°F14.8°C 35.6°F2.0°C 42% 7.0 mph NNE11.3 kmh NNE 8.7 mph14.0 kmh 29.65 in1004.1 mb 0.00 in0.0 mm 0.00 in0.0 mm 0.00 in0.0 mm
10:59 AM 61.2°F16.2°C 37.3°F2.9°C 41% 6.8 mph NE10.9 kmh NE 8.7 mph14.0 kmh 29.65 in1004.1 mb 0.00 in0.0 mm 0.00 in0.0 mm 0.00 in0.0 mm
10:58 AM 61.5°F16.4°C 38.2°F3.4°C 42% 6.5 mph NE10.5 kmh NE 8.7 mph14.0 kmh 29.65 in1004.1 mb 0.00 in0.0 mm 0.00 in0.0 mm 0.00 in0.0 mm
10:57 AM 60.3°F15.7°C 37.7°F3.2°C 43% 6.8 mph NNE10.9 kmh NNE 10.5 mph16.9 kmh 29.65 in1004.1 mb 0.00 in0.0 mm 0.00 in0.0 mm 0.00 in0.0 mm
10:56 AM 59.7°F15.4°C 37.2°F2.9°C 43% 7.0 mph N11.3 kmh N 10.5 mph16.9 kmh 29.65 in1004.1 mb 0.00 in0.0 mm 0.00 in0.0 mm 0.00 in0.0 mm
10:55 AM 59.9°F15.5°C 37.9°F3.3°C 44% 7.2 mph N11.6 kmh N 10.5 mph16.9 kmh 29.65 in1004.1 mb 0.00 in0.0 mm 0.00 in0.0 mm 0.00 in0.0 mm
10:54 AM 58.8°F14.9°C 36.9°F2.7°C 44% 7.1 mph N11.4 kmh N 10.5 mph16.9 kmh 29.65 in1004.1 mb 0.00 in0.0 mm 0.00 in0.0 mm 0.00 in0.0 mm
10:53 AM 59.7°F15.4°C 38.3°F3.5°C 45% 7.1 mph NNW11.4 kmh NNW 10.5 mph16.9 kmh 29.65 in1004.1 mb 0.00 in0.0 mm 0.00 in0.0 mm 0.00 in0.0 mm
10:52 AM 59.0°F15.0°C 37.7°F3.2°C 45% 7.1 mph N11.4 kmh N 10.5 mph16.9 kmh 29.65 in1004.1 mb 0.00 in0.0 mm 0.00 in0.0 mm 0.00 in0.0 mm
10:51 AM 58.1°F14.5°C 37.4°F3.0°C 46% 7.2 mph N11.6 kmh N 10.5 mph16.9 kmh 29.65 in1004.1 mb 0.00 in0.0 mm 0.00 in0.0 mm 0.00 in0.0 mm
10:50 AM 57.7°F14.3°C 37.1°F2.8°C 46% 7.0 mph N11.3 kmh N 10.5 mph16.9 kmh 29.65 in1004.1 mb 0.00 in0.0 mm 0.00 in0.0 mm 0.00 in0.0 mm
10:49 AM 56.1°F13.4°C 36.1°F2.3°C 47% 6.9 mph N11.1 kmh N 10.5 mph16.9 kmh 29.65 in1004.1 mb 0.00 in0.0 mm 0.00 in0.0 mm 0.00 in0.0 mm
10:48 AM 55.9°F13.3°C 36.0°F2.2°C 47% 7.1 mph N11.4 kmh N 10.5 mph16.9 kmh 29.65 in1004.1 mb 0.00 in0.0 mm 0.00 in0.0 mm 0.00 in0.0 mm
10:47 AM 56.3°F13.5°C 36.3°F2.4°C 47% 7.1 mph N11.4 kmh N 10.5 mph16.9 kmh 29.65 in1004.1 mb 0.00 in0.0 mm 0.00 in0.0 mm 0.00 in0.0 mm
10:46 AM 55.9°F13.3°C 35.4°F1.9°C 46% 6.8 mph N10.9 kmh N 8.7 mph14.0 kmh 29.65 in1004.1 mb 0.00 in0.0 mm 0.00 in0.0 mm 0.00 in0.0 mm
10:45 AM 56.8°F13.8°C 36.8°F2.7°C 47% 6.9 mph N11.1 kmh N 8.7 mph14.0 kmh 29.65 in1004.1 mb 0.00 in0.0 mm 0.00 in0.0 mm 0.00 in0.0 mm
10:44 AM 57.4°F14.1°C 36.8°F2.7°C 46% 7.1 mph N11.4 kmh N 8.7 mph14.0 kmh 29.65 in1004.1 mb 0.00 in0.0 mm 0.00 in0.0 mm 0.00 in0.0 mm
10:43 AM 57.2°F14.0°C 36.0°F2.2°C 45% 7.1 mph N11.4 kmh N 8.7 mph14.0 kmh 29.65 in1004.1 mb 0.00 in0.0 mm 0.00 in0.0 mm 0.00 in0.0 mm
10:42 AM 58.6°F14.8°C 38.5°F3.6°C 47% 7.1 mph N11.4 kmh N 10.5 mph16.9 kmh 29.65 in1004.1 mb 0.00 in0.0 mm 0.00 in0.0 mm 0.00 in0.0 mm
10:41 AM 57.0°F13.9°C 36.4°F2.4°C 46% 7.5 mph N12.1 kmh N 10.5 mph16.9 kmh 29.64 in1003.7 mb 0.00 in0.0 mm 0.00 in0.0 mm 0.00 in0.0 mm
10:40 AM 57.2°F14.0°C 36.0°F2.2°C 45% 7.7 mph N12.4 kmh N 10.5 mph16.9 kmh 29.65 in1004.1 mb 0.00 in0.0 mm 0.00 in0.0 mm 0.00 in0.0 mm
10:39 AM 58.1°F14.5°C 37.4°F3.0°C 46% 7.7 mph N12.4 kmh N 10.5 mph16.9 kmh 29.65 in1004.1 mb 0.00 in0.0 mm 0.00 in0.0 mm 0.00 in0.0 mm
10:38 AM 57.9°F14.4°C 38.3°F3.5°C 48% 7.6 mph N12.2 kmh N 10.5 mph16.9 kmh 29.65 in1004.1 mb 0.00 in0.0 mm 0.00 in0.0 mm 0.00 in0.0 mm
10:37 AM 55.9°F13.3°C 36.5°F2.5°C 48% 7.7 mph N12.4 kmh N 10.5 mph16.9 kmh 29.64 in1003.7 mb 0.00 in0.0 mm 0.00 in0.0 mm 0.00 in0.0 mm
10:36 AM 55.9°F13.3°C 36.5°F2.5°C 48% 7.9 mph N12.7 kmh N 10.5 mph16.9 kmh 29.65 in1004.1 mb 0.00 in0.0 mm 0.00 in0.0 mm 0.00 in0.0 mm
10:35 AM 56.1°F13.4°C 36.7°F2.6°C 48% 7.7 mph N12.4 kmh N 10.5 mph16.9 kmh 29.65 in1004.1 mb 0.00 in0.0 mm 0.00 in0.0 mm 0.00 in0.0 mm
10:34 AM 55.8°F13.2°C 35.8°F2.1°C 47% 7.6 mph N12.2 kmh N 10.5 mph16.9 kmh 29.65 in1004.1 mb 0.00 in0.0 mm 0.00 in0.0 mm 0.00 in0.0 mm
10:33 AM 56.8°F13.8°C 37.3°F2.9°C 48% 7.7 mph N12.4 kmh N 10.5 mph16.9 kmh 29.64 in1003.7 mb 0.00 in0.0 mm 0.00 in0.0 mm 0.00 in0.0 mm
10:32 AM 57.0°F13.9°C 37.5°F3.1°C 48% 7.5 mph N12.1 kmh N 10.5 mph16.9 kmh 29.65 in1004.1 mb 0.00 in0.0 mm 0.00 in0.0 mm 0.00 in0.0 mm
10:31 AM 57.4°F14.1°C 37.3°F2.9°C 47% 7.1 mph N11.4 kmh N 9.6 mph15.4 kmh 29.64 in1003.7 mb 0.00 in0.0 mm 0.00 in0.0 mm 0.00 in0.0 mm
10:30 AM 57.6°F14.2°C 38.0°F3.3°C 48% 7.1 mph N11.4 kmh N 9.6 mph15.4 kmh 29.64 in1003.7 mb 0.00 in0.0 mm 0.00 in0.0 mm 0.00 in0.0 mm
10:29 AM 57.4°F14.1°C 37.8°F3.2°C 48% 7.4 mph N11.9 kmh N 9.6 mph15.4 kmh 29.65 in1004.1 mb 0.00 in0.0 mm 0.00 in0.0 mm 0.00 in0.0 mm
10:28 AM 57.2°F14.0°C 37.7°F3.2°C 48% 7.6 mph N12.2 kmh N 9.6 mph15.4 kmh 29.64 in1003.7 mb 0.00 in0.0 mm 0.00 in0.0 mm 0.00 in0.0 mm
10:27 AM 56.7°F13.7°C 38.2°F3.4°C 50% 7.4 mph N11.9 kmh N 9.6 mph15.4 kmh 29.64 in1003.7 mb 0.00 in0.0 mm 0.00 in0.0 mm 0.00 in0.0 mm
10:26 AM 56.8°F13.8°C 38.9°F3.8°C 51% 7.2 mph N11.6 kmh N 9.6 mph15.4 kmh 29.64 in1003.7 mb 0.00 in0.0 mm 0.00 in0.0 mm 0.00 in0.0 mm
10:25 AM 55.2°F12.9°C 36.4°F2.4°C 49% 7.1 mph N11.4 kmh N 8.7 mph14.0 kmh 29.64 in1003.7 mb 0.00 in0.0 mm 0.00 in0.0 mm 0.00 in0.0 mm
10:24 AM 55.9°F13.3°C 37.6°F3.1°C 50% 7.2 mph N11.6 kmh N 8.7 mph14.0 kmh 29.64 in1003.7 mb 0.00 in0.0 mm 0.00 in0.0 mm 0.00 in0.0 mm
10:23 AM 55.8°F13.2°C 37.9°F3.3°C 51% 7.2 mph N11.6 kmh N 9.6 mph15.4 kmh 29.64 in1003.7 mb 0.00 in0.0 mm 0.00 in0.0 mm 0.00 in0.0 mm
10:22 AM 55.8°F13.2°C 38.4°F3.6°C 52% 7.4 mph N11.9 kmh N 9.6 mph15.4 kmh 29.64 in1003.7 mb 0.00 in0.0 mm 0.00 in0.0 mm 0.00 in0.0 mm
10:21 AM 54.9°F12.7°C 37.1°F2.8°C 51% 7.7 mph N12.4 kmh N 10.5 mph16.9 kmh 29.64 in1003.7 mb 0.00 in0.0 mm 0.00 in0.0 mm 0.00 in0.0 mm
10:20 AM 54.1°F12.3°C 36.4°F2.4°C 51% 7.7 mph N12.4 kmh N 10.5 mph16.9 kmh 29.64 in1003.7 mb 0.00 in0.0 mm 0.00 in0.0 mm 0.00 in0.0 mm
10:19 AM 54.9°F12.7°C 37.6°F3.1°C 52% 7.7 mph N12.4 kmh N 10.5 mph16.9 kmh 29.64 in1003.7 mb 0.00 in0.0 mm 0.00 in0.0 mm 0.00 in0.0 mm
10:18 AM 54.7°F12.6°C 37.4°F3.0°C 52% 7.8 mph N12.6 kmh N 10.5 mph16.9 kmh 29.64 in1003.7 mb 0.00 in0.0 mm 0.00 in0.0 mm 0.00 in0.0 mm
10:17 AM 52.9°F11.6°C 35.2°F1.8°C 51% 7.9 mph N12.7 kmh N 10.5 mph16.9 kmh 29.64 in1003.7 mb 0.00 in0.0 mm 0.00 in0.0 mm 0.00 in0.0 mm
10:16 AM 52.9°F11.6°C 35.2°F1.8°C 51% 7.8 mph N12.6 kmh N 10.5 mph16.9 kmh 29.64 in1003.7 mb 0.00 in0.0 mm 0.00 in0.0 mm 0.00 in0.0 mm
10:15 AM 53.4°F11.9°C 35.2°F1.8°C 50% 8.0 mph N12.9 kmh N 10.5 mph16.9 kmh 29.63 in1003.4 mb 0.00 in0.0 mm 0.00 in0.0 mm 0.00 in0.0 mm
10:14 AM 54.0°F12.2°C 35.2°F1.8°C 49% 7.7 mph N12.4 kmh N 10.5 mph16.9 kmh 29.63 in1003.4 mb 0.00 in0.0 mm 0.00 in0.0 mm 0.00 in0.0 mm
10:13 AM 55.8°F13.2°C 36.9°F2.7°C 49% 7.4 mph N11.9 kmh N 10.5 mph16.9 kmh 29.63 in1003.4 mb 0.00 in0.0 mm 0.00 in0.0 mm 0.00 in0.0 mm
10:12 AM 56.3°F13.5°C 37.4°F3.0°C 49% 7.3 mph N11.7 kmh N 10.5 mph16.9 kmh 29.63 in1003.4 mb 0.00 in0.0 mm 0.00 in0.0 mm 0.00 in0.0 mm
10:11 AM 56.8°F13.8°C 37.9°F3.3°C 49% 7.1 mph N11.4 kmh N 10.5 mph16.9 kmh 29.63 in1003.4 mb 0.00 in0.0 mm 0.00 in0.0 mm 0.00 in0.0 mm
10:10 AM 55.9°F13.3°C 36.5°F2.5°C 48% 6.8 mph N10.9 kmh N 8.7 mph14.0 kmh 29.64 in1003.7 mb 0.00 in0.0 mm 0.00 in0.0 mm 0.00 in0.0 mm
10:09 AM 56.5°F13.6°C 36.5°F2.5°C 47% 6.7 mph N10.8 kmh N 8.7 mph14.0 kmh 29.62 in1003.0 mb 0.00 in0.0 mm 0.00 in0.0 mm 0.00 in0.0 mm
10:08 AM 57.6°F14.2°C 37.5°F3.1°C 47% 6.5 mph N10.5 kmh N 8.7 mph14.0 kmh 29.62 in1003.0 mb 0.00 in0.0 mm 0.00 in0.0 mm 0.00 in0.0 mm
10:07 AM 58.3°F14.6°C 38.1°F3.4°C 47% 6.2 mph N10.0 kmh N 8.7 mph14.0 kmh 29.62 in1003.0 mb 0.00 in0.0 mm 0.00 in0.0 mm 0.00 in0.0 mm
10:06 AM 57.6°F14.2°C 38.0°F3.3°C 48% 6.2 mph N10.0 kmh N 7.9 mph12.7 kmh 29.62 in1003.0 mb 0.00 in0.0 mm 0.00 in0.0 mm 0.00 in0.0 mm
10:05 AM 57.7°F14.3°C 38.7°F3.7°C 49% 6.2 mph N10.0 kmh N 8.7 mph14.0 kmh 29.63 in1003.4 mb 0.00 in0.0 mm 0.00 in0.0 mm 0.00 in0.0 mm
10:04 AM 57.2°F14.0°C 38.2°F3.4°C 49% 6.5 mph N10.5 kmh N 8.7 mph14.0 kmh 29.63 in1003.4 mb 0.00 in0.0 mm 0.00 in0.0 mm 0.00 in0.0 mm
10:03 AM 58.1°F14.5°C 40.1°F4.5°C 51% 6.5 mph N10.5 kmh N 8.7 mph14.0 kmh 29.62 in1003.0 mb 0.00 in0.0 mm 0.00 in0.0 mm 0.00 in0.0 mm
10:02 AM 56.3°F13.5°C 38.4°F3.6°C 51% 6.4 mph N10.3 kmh N 8.7 mph14.0 kmh 29.62 in1003.0 mb 0.00 in0.0 mm 0.00 in0.0 mm 0.00 in0.0 mm
10:01 AM 56.8°F13.8°C 39.4°F4.1°C 52% 6.4 mph N10.3 kmh N 8.7 mph14.0 kmh 29.62 in1003.0 mb 0.00 in0.0 mm 0.00 in0.0 mm 0.00 in0.0 mm
10:00 AM 56.8°F13.8°C 39.4°F4.1°C 52% 6.3 mph N10.1 kmh N 8.7 mph14.0 kmh 29.62 in1003.0 mb 0.00 in0.0 mm 0.00 in0.0 mm 0.00 in0.0 mm
09:59 AM 57.0°F13.9°C 39.6°F4.2°C 52% 6.3 mph N10.1 kmh N 8.7 mph14.0 kmh 29.62 in1003.0 mb 0.00 in0.0 mm 0.00 in0.0 mm 0.00 in0.0 mm
09:58 AM 56.3°F13.5°C 38.9°F3.8°C 52% 6.7 mph N10.8 kmh N 11.3 mph18.2 kmh 29.62 in1003.0 mb 0.00 in0.0 mm 0.00 in0.0 mm 0.00 in0.0 mm
09:57 AM 54.9°F12.7°C 37.1°F2.8°C 51% 6.7 mph N10.8 kmh N 11.3 mph18.2 kmh 29.62 in1003.0 mb 0.00 in0.0 mm 0.00 in0.0 mm 0.00 in0.0 mm
09:56 AM 54.9°F12.7°C 36.6°F2.6°C 50% 6.7 mph N10.8 kmh N 11.3 mph18.2 kmh 29.62 in1003.0 mb 0.00 in0.0 mm 0.00 in0.0 mm 0.00 in0.0 mm
09:55 AM 55.2°F12.9°C 36.9°F2.7°C 50% 6.5 mph N10.5 kmh N 11.3 mph18.2 kmh 29.61 in1002.7 mb 0.00 in0.0 mm 0.00 in0.0 mm 0.00 in0.0 mm
09:54 AM 55.4°F13.0°C 37.6°F3.1°C 51% 6.2 mph N10.0 kmh N 11.3 mph18.2 kmh 29.62 in1003.0 mb 0.00 in0.0 mm 0.00 in0.0 mm 0.00 in0.0 mm
09:53 AM 55.8°F13.2°C 38.4°F3.6°C 52% 6.0 mph N9.7 kmh N 11.3 mph18.2 kmh 29.62 in1003.0 mb 0.00 in0.0 mm 0.00 in0.0 mm 0.00 in0.0 mm
09:52 AM 56.8°F13.8°C 39.9°F4.4°C 53% 5.9 mph N9.5 kmh N 11.3 mph18.2 kmh 29.61 in1002.7 mb 0.00 in0.0 mm 0.00 in0.0 mm 0.00 in0.0 mm
09:51 AM 56.1°F13.4°C 39.2°F4.0°C 53% 6.0 mph N9.7 kmh N 11.3 mph18.2 kmh 29.62 in1003.0 mb 0.00 in0.0 mm 0.00 in0.0 mm 0.00 in0.0 mm
09:50 AM 55.8°F13.2°C 38.9°F3.8°C 53% 6.1 mph N9.8 kmh N 11.3 mph18.2 kmh 29.61 in1002.7 mb 0.00 in0.0 mm 0.00 in0.0 mm 0.00 in0.0 mm
09:49 AM 55.2°F12.9°C 37.9°F3.3°C 52% 6.2 mph N10.0 kmh N 11.3 mph18.2 kmh 29.61 in1002.7 mb 0.00 in0.0 mm 0.00 in0.0 mm 0.00 in0.0 mm
09:48 AM 55.6°F13.1°C 38.2°F3.4°C 52% 5.9 mph N9.5 kmh N 8.7 mph14.0 kmh 29.61 in1002.7 mb 0.00 in0.0 mm 0.00 in0.0 mm 0.00 in0.0 mm
09:47 AM 55.4°F13.0°C 38.1°F3.4°C 52% 6.1 mph N9.8 kmh N 8.7 mph14.0 kmh 29.61 in1002.7 mb 0.00 in0.0 mm 0.00 in0.0 mm 0.00 in0.0 mm
09:46 AM 55.8°F13.2°C 38.9°F3.8°C 53% 6.2 mph N10.0 kmh N 8.7 mph14.0 kmh 29.61 in1002.7 mb 0.00 in0.0 mm 0.00 in0.0 mm 0.00 in0.0 mm
09:45 AM 54.9°F12.7°C 37.6°F3.1°C 52% 6.4 mph N10.3 kmh N 8.7 mph14.0 kmh 29.60 in1002.4 mb 0.00 in0.0 mm 0.00 in0.0 mm 0.00 in0.0 mm
09:44 AM 54.5°F12.5°C 37.2°F2.9°C 52% 6.8 mph N10.9 kmh N 10.5 mph16.9 kmh 29.61 in1002.7 mb 0.00 in0.0 mm 0.00 in0.0 mm 0.00 in0.0 mm
09:43 AM 54.3°F12.4°C 37.1°F2.8°C 52% 7.0 mph N11.3 kmh N 10.5 mph16.9 kmh 29.60 in1002.4 mb 0.00 in0.0 mm 0.00 in0.0 mm 0.00 in0.0 mm
09:42 AM 54.9°F12.7°C 37.6°F3.1°C 52% 7.1 mph N11.4 kmh N 10.5 mph16.9 kmh 29.60 in1002.4 mb 0.00 in0.0 mm 0.00 in0.0 mm 0.00 in0.0 mm
09:41 AM 54.7°F12.6°C 37.4°F3.0°C 52% 7.0 mph N11.3 kmh N 10.5 mph16.9 kmh 29.59 in1002.0 mb 0.00 in0.0 mm 0.00 in0.0 mm 0.00 in0.0 mm
09:40 AM 55.0°F12.8°C 38.2°F3.4°C 53% 7.2 mph N11.6 kmh N 10.5 mph16.9 kmh 29.59 in1002.0 mb 0.00 in0.0 mm 0.00 in0.0 mm 0.00 in0.0 mm
09:39 AM 54.7°F12.6°C 37.4°F3.0°C 52% 7.3 mph N11.7 kmh N 10.5 mph16.9 kmh 29.59 in1002.0 mb 0.00 in0.0 mm 0.00 in0.0 mm 0.00 in0.0 mm
09:38 AM 54.5°F12.5°C 37.2°F2.9°C 52% 7.3 mph N11.7 kmh N 10.5 mph16.9 kmh 29.59 in1002.0 mb 0.00 in0.0 mm 0.00 in0.0 mm 0.00 in0.0 mm
09:37 AM 55.0°F12.8°C 38.2°F3.4°C 53% 7.3 mph N11.7 kmh N 10.5 mph16.9 kmh 29.59 in1002.0 mb 0.00 in0.0 mm 0.00 in0.0 mm 0.00 in0.0 mm
09:36 AM 54.1°F12.3°C 37.4°F3.0°C 53% 7.4 mph N11.9 kmh N 10.5 mph16.9 kmh 29.59 in1002.0 mb 0.00 in0.0 mm 0.00 in0.0 mm 0.00 in0.0 mm
09:35 AM 54.7°F12.6°C 37.9°F3.3°C 53% 7.6 mph N12.2 kmh N 10.5 mph16.9 kmh 29.58 in1001.7 mb 0.00 in0.0 mm 0.00 in0.0 mm 0.00 in0.0 mm
09:34 AM 54.7°F12.6°C 38.4°F3.6°C 54% 7.5 mph N12.1 kmh N 10.5 mph16.9 kmh 29.58 in1001.7 mb 0.00 in0.0 mm 0.00 in0.0 mm 0.00 in0.0 mm
09:33 AM 53.8°F12.1°C 37.0°F2.8°C 53% 7.5 mph N12.1 kmh N 10.5 mph16.9 kmh 29.58 in1001.7 mb 0.00 in0.0 mm 0.00 in0.0 mm 0.00 in0.0 mm
09:32 AM 53.6°F12.0°C 36.9°F2.7°C 53% 7.7 mph N12.4 kmh N 12.2 mph19.6 kmh 29.58 in1001.7 mb 0.00 in0.0 mm 0.00 in0.0 mm 0.00 in0.0 mm
09:31 AM 53.4°F11.9°C 37.2°F2.9°C 54% 7.9 mph N12.7 kmh N 12.2 mph19.6 kmh 29.57 in1001.4 mb 0.00 in0.0 mm 0.00 in0.0 mm 0.00 in0.0 mm
09:30 AM 54.1°F12.3°C 37.4°F3.0°C 53% 7.8 mph N12.6 kmh N 12.2 mph19.6 kmh 29.57 in1001.4 mb 0.00 in0.0 mm 0.00 in0.0 mm 0.00 in0.0 mm
09:29 AM 54.0°F12.2°C 37.7°F3.2°C 54% 7.4 mph N11.9 kmh N 12.2 mph19.6 kmh 29.57 in1001.4 mb 0.00 in0.0 mm 0.00 in0.0 mm 0.00 in0.0 mm
09:28 AM 53.6°F12.0°C 36.9°F2.7°C 53% 7.3 mph N11.7 kmh N 12.2 mph19.6 kmh 29.57 in1001.4 mb 0.00 in0.0 mm 0.00 in0.0 mm 0.00 in0.0 mm
09:27 AM 53.8°F12.1°C 37.0°F2.8°C 53% 7.3 mph N11.7 kmh N 12.2 mph19.6 kmh 29.57 in1001.4 mb 0.00 in0.0 mm 0.00 in0.0 mm 0.00 in0.0 mm
09:26 AM 54.1°F12.3°C 37.4°F3.0°C 53% 7.0 mph N11.3 kmh N 12.2 mph19.6 kmh 29.57 in1001.4 mb 0.00 in0.0 mm 0.00 in0.0 mm 0.00 in0.0 mm
09:25 AM 53.8°F12.1°C 36.6°F2.6°C 52% 6.9 mph N11.1 kmh N 12.2 mph19.6 kmh 29.56 in1001.0 mb 0.00 in0.0 mm 0.00 in0.0 mm 0.00 in0.0 mm
09:24 AM 53.8°F12.1°C 36.6°F2.6°C 52% 7.0 mph N11.3 kmh N 12.2 mph19.6 kmh 29.55 in1000.7 mb 0.00 in0.0 mm 0.00 in0.0 mm 0.00 in0.0 mm
09:23 AM 53.8°F12.1°C 36.6°F2.6°C 52% 7.2 mph N11.6 kmh N 12.2 mph19.6 kmh 29.56 in1001.0 mb 0.00 in0.0 mm 0.00 in0.0 mm 0.00 in0.0 mm
09:22 AM 54.3°F12.4°C 37.5°F3.1°C 53% 7.0 mph N11.3 kmh N 12.2 mph19.6 kmh 29.55 in1000.7 mb 0.00 in0.0 mm 0.00 in0.0 mm 0.00 in0.0 mm
09:21 AM 55.6°F13.1°C 39.7°F4.3°C 55% 6.8 mph NNE10.9 kmh NNE 8.7 mph14.0 kmh 29.55 in1000.7 mb 0.00 in0.0 mm 0.00 in0.0 mm 0.00 in0.0 mm
09:20 AM 55.4°F13.0°C 39.5°F4.2°C 55% 6.7 mph NNE10.8 kmh NNE 8.7 mph14.0 kmh 29.54 in1000.3 mb 0.00 in0.0 mm 0.00 in0.0 mm 0.00 in0.0 mm
09:19 AM 54.7°F12.6°C 39.3°F4.1°C 56% 6.8 mph NNE10.9 kmh NNE 8.7 mph14.0 kmh 29.55 in1000.7 mb 0.00 in0.0 mm 0.00 in0.0 mm 0.00 in0.0 mm
09:18 AM 54.5°F12.5°C 39.1°F3.9°C 56% 7.1 mph NNE11.4 kmh NNE 8.7 mph14.0 kmh 29.54 in1000.3 mb 0.00 in0.0 mm 0.00 in0.0 mm 0.00 in0.0 mm
09:17 AM 53.8°F12.1°C 38.0°F3.3°C 55% 6.8 mph NNE10.9 kmh NNE 8.7 mph14.0 kmh 29.54 in1000.3 mb 0.00 in0.0 mm 0.00 in0.0 mm 0.00 in0.0 mm
09:16 AM 53.8°F12.1°C 38.4°F3.6°C 56% 6.8 mph NNE10.9 kmh NNE 8.7 mph14.0 kmh 29.53 in1000.0 mb 0.00 in0.0 mm 0.00 in0.0 mm 0.00 in0.0 mm
09:15 AM 53.4°F11.9°C 38.1°F3.4°C 56% 6.6 mph NNE10.6 kmh NNE 8.7 mph14.0 kmh 29.53 in1000.0 mb 0.00 in0.0 mm 0.00 in0.0 mm 0.00 in0.0 mm
09:14 AM 54.0°F12.2°C 38.6°F3.7°C 56% 6.5 mph NNE10.5 kmh NNE 8.7 mph14.0 kmh 29.53 in1000.0 mb 0.00 in0.0 mm 0.00 in0.0 mm 0.00 in0.0 mm
09:13 AM 54.1°F12.3°C 38.8°F3.8°C 56% 6.2 mph N10.0 kmh N 7.9 mph12.7 kmh 29.52 in999.7 mb 0.00 in0.0 mm 0.00 in0.0 mm 0.00 in0.0 mm
09:12 AM 54.3°F12.4°C 38.9°F3.8°C 56% 6.0 mph N9.7 kmh N 7.9 mph12.7 kmh 29.52 in999.7 mb 0.00 in0.0 mm 0.00 in0.0 mm 0.00 in0.0 mm
09:11 AM 54.1°F12.3°C 38.3°F3.5°C 55% 5.9 mph N9.5 kmh N 7.9 mph12.7 kmh 29.52 in999.7 mb 0.00 in0.0 mm 0.00 in0.0 mm 0.00 in0.0 mm
09:10 AM 54.0°F12.2°C 38.6°F3.7°C 56% 6.0 mph N9.7 kmh N 7.9 mph12.7 kmh 29.51 in999.3 mb 0.00 in0.0 mm 0.00 in0.0 mm 0.00 in0.0 mm
09:09 AM 54.3°F12.4°C 39.4°F4.1°C 57% 5.8 mph N9.3 kmh N 7.9 mph12.7 kmh 29.50 in999.0 mb 0.00 in0.0 mm 0.00 in0.0 mm 0.00 in0.0 mm
09:08 AM 55.2°F12.9°C 40.7°F4.8°C 58% 5.5 mph N8.9 kmh N 7.0 mph11.3 kmh 29.50 in999.0 mb 0.00 in0.0 mm 0.00 in0.0 mm 0.00 in0.0 mm
09:07 AM 54.3°F12.4°C 39.8°F4.3°C 58% 5.4 mph N8.7 kmh N 7.0 mph11.3 kmh 29.50 in999.0 mb 0.00 in0.0 mm 0.00 in0.0 mm 0.00 in0.0 mm
09:06 AM 54.1°F12.3°C 39.7°F4.3°C 58% 5.5 mph N8.9 kmh N 7.0 mph11.3 kmh 29.50 in999.0 mb 0.00 in0.0 mm 0.00 in0.0 mm 0.00 in0.0 mm
09:05 AM 53.6°F12.0°C 38.7°F3.7°C 57% 5.6 mph N9.0 kmh N 7.0 mph11.3 kmh 29.49 in998.6 mb 0.00 in0.0 mm 0.00 in0.0 mm 0.00 in0.0 mm
09:04 AM 53.4°F11.9°C 39.0°F3.9°C 58% 5.5 mph N8.9 kmh N 7.0 mph11.3 kmh 29.48 in998.3 mb 0.00 in0.0 mm 0.00 in0.0 mm 0.00 in0.0 mm
09:03 AM 54.1°F12.3°C 39.7°F4.3°C 58% 5.8 mph NNW9.3 kmh NNW 8.7 mph14.0 kmh 29.48 in998.3 mb 0.00 in0.0 mm 0.00 in0.0 mm 0.00 in0.0 mm
09:02 AM 54.5°F12.5°C 40.0°F4.4°C 58% 5.9 mph NNW9.5 kmh NNW 8.7 mph14.0 kmh 29.48 in998.3 mb 0.00 in0.0 mm 0.00 in0.0 mm 0.00 in0.0 mm
09:01 AM 53.8°F12.1°C 39.3°F4.1°C 58% 5.9 mph NNW9.5 kmh NNW 8.7 mph14.0 kmh 29.47 in998.0 mb 0.00 in0.0 mm 0.00 in0.0 mm 0.00 in0.0 mm
09:00 AM 53.2°F11.8°C 39.3°F4.1°C 59% 6.2 mph NNW10.0 kmh NNW 8.7 mph14.0 kmh 29.47 in998.0 mb 0.00 in0.0 mm 0.00 in0.0 mm 0.00 in0.0 mm
08:59 AM 53.1°F11.7°C 39.5°F4.2°C 60% 6.6 mph NNW10.6 kmh NNW 8.7 mph14.0 kmh 29.47 in998.0 mb 0.00 in0.0 mm 0.00 in0.0 mm 0.00 in0.0 mm
08:58 AM 52.9°F11.6°C 38.9°F3.8°C 59% 6.8 mph NNW10.9 kmh NNW 8.7 mph14.0 kmh 29.46 in997.6 mb 0.00 in0.0 mm 0.00 in0.0 mm 0.00 in0.0 mm
08:57 AM 52.9°F11.6°C 39.4°F4.1°C 60% 7.1 mph NNW11.4 kmh NNW 8.7 mph14.0 kmh 29.46 in997.6 mb 0.00 in0.0 mm 0.00 in0.0 mm 0.00 in0.0 mm
08:56 AM 52.7°F11.5°C 39.2°F4.0°C 60% 7.0 mph NNW11.3 kmh NNW 8.7 mph14.0 kmh 29.46 in997.6 mb 0.00 in0.0 mm 0.00 in0.0 mm 0.00 in0.0 mm
08:55 AM 52.2°F11.2°C 38.3°F3.5°C 59% 7.2 mph NNW11.6 kmh NNW 8.7 mph14.0 kmh 29.45 in997.3 mb 0.00 in0.0 mm 0.00 in0.0 mm 0.00 in0.0 mm
08:54 AM 52.3°F11.3°C 38.4°F3.6°C 59% 7.2 mph NNW11.6 kmh NNW 8.7 mph14.0 kmh 29.45 in997.3 mb 0.00 in0.0 mm 0.00 in0.0 mm 0.00 in0.0 mm
08:53 AM 52.3°F11.3°C 38.9°F3.8°C 60% 7.3 mph N11.7 kmh N 10.5 mph16.9 kmh 29.45 in997.3 mb 0.00 in0.0 mm 0.00 in0.0 mm 0.00 in0.0 mm
08:52 AM 51.6°F10.9°C 38.6°F3.7°C 61% 7.7 mph N12.4 kmh N 11.3 mph18.2 kmh 29.44 in997.0 mb 0.00 in0.0 mm 0.00 in0.0 mm 0.00 in0.0 mm
08:51 AM 51.4°F10.8°C 38.0°F3.3°C 60% 7.8 mph N12.6 kmh N 11.3 mph18.2 kmh 29.45 in997.3 mb 0.00 in0.0 mm 0.00 in0.0 mm 0.00 in0.0 mm
08:50 AM 51.8°F11.0°C 38.3°F3.5°C 60% 7.6 mph N12.2 kmh N 11.3 mph18.2 kmh 29.45 in997.3 mb 0.00 in0.0 mm 0.00 in0.0 mm 0.00 in0.0 mm
08:49 AM 51.8°F11.0°C 38.3°F3.5°C 60% 7.4 mph N11.9 kmh N 11.3 mph18.2 kmh 29.44 in997.0 mb 0.00 in0.0 mm 0.00 in0.0 mm 0.00 in0.0 mm
08:48 AM 51.8°F11.0°C 38.3°F3.5°C 60% 7.3 mph N11.7 kmh N 11.3 mph18.2 kmh 29.45 in997.3 mb 0.00 in0.0 mm 0.00 in0.0 mm 0.00 in0.0 mm
08:47 AM 51.6°F10.9°C 38.6°F3.7°C 61% 7.1 mph N11.4 kmh N 11.3 mph18.2 kmh 29.44 in997.0 mb 0.00 in0.0 mm 0.00 in0.0 mm 0.00 in0.0 mm
08:46 AM 51.6°F10.9°C 39.0°F3.9°C 62% 7.2 mph N11.6 kmh N 11.3 mph18.2 kmh 29.45 in997.3 mb 0.00 in0.0 mm 0.00 in0.0 mm 0.00 in0.0 mm
08:45 AM 51.4°F10.8°C 38.4°F3.6°C 61% 6.7 mph N10.8 kmh N 11.3 mph18.2 kmh 29.45 in997.3 mb 0.00 in0.0 mm 0.00 in0.0 mm 0.00 in0.0 mm
08:44 AM 51.3°F10.7°C 38.3°F3.5°C 61% 6.5 mph N10.5 kmh N 11.3 mph18.2 kmh 29.45 in997.3 mb 0.00 in0.0 mm 0.00 in0.0 mm 0.00 in0.0 mm
08:43 AM 51.4°F10.8°C 38.8°F3.8°C 62% 6.5 mph N10.5 kmh N 11.3 mph18.2 kmh 29.45 in997.3 mb 0.00 in0.0 mm 0.00 in0.0 mm 0.00 in0.0 mm
08:42 AM 52.0°F11.1°C 38.9°F3.8°C 61% 6.0 mph N9.7 kmh N 11.3 mph18.2 kmh 29.45 in997.3 mb 0.00 in0.0 mm 0.00 in0.0 mm 0.00 in0.0 mm
08:41 AM 52.5°F11.4°C 39.5°F4.2°C 61% 5.9 mph N9.5 kmh N 9.6 mph15.4 kmh 29.45 in997.3 mb 0.00 in0.0 mm 0.00 in0.0 mm 0.00 in0.0 mm
08:40 AM 52.5°F11.4°C 39.9°F4.4°C 62% 5.9 mph N9.5 kmh N 9.6 mph15.4 kmh 29.45 in997.3 mb 0.00 in0.0 mm 0.00 in0.0 mm 0.00 in0.0 mm
08:39 AM 52.5°F11.4°C 39.9°F4.4°C 62% 5.8 mph N9.3 kmh N 9.6 mph15.4 kmh 29.45 in997.3 mb 0.00 in0.0 mm 0.00 in0.0 mm 0.00 in0.0 mm
08:38 AM 52.2°F11.2°C 39.1°F3.9°C 61% 5.9 mph N9.5 kmh N 9.6 mph15.4 kmh 29.45 in997.3 mb 0.00 in0.0 mm 0.00 in0.0 mm 0.00 in0.0 mm
08:37 AM 51.8°F11.0°C 39.2°F4.0°C 62% 5.9 mph N9.5 kmh N 9.6 mph15.4 kmh 29.46 in997.6 mb 0.00 in0.0 mm 0.00 in0.0 mm 0.00 in0.0 mm
08:36 AM 51.4°F10.8°C 38.8°F3.8°C 62% 5.9 mph N9.5 kmh N 9.6 mph15.4 kmh 29.46 in997.6 mb 0.00 in0.0 mm 0.00 in0.0 mm 0.00 in0.0 mm
08:35 AM 50.9°F10.5°C 38.3°F3.5°C 62% 6.2 mph N10.0 kmh N 9.6 mph15.4 kmh 29.46 in997.6 mb 0.00 in0.0 mm 0.00 in0.0 mm 0.00 in0.0 mm
08:34 AM 50.5°F10.3°C 38.0°F3.3°C 62% 6.4 mph N10.3 kmh N 9.6 mph15.4 kmh 29.47 in998.0 mb 0.00 in0.0 mm 0.00 in0.0 mm 0.00 in0.0 mm
08:33 AM 51.1°F10.6°C 38.9°F3.8°C 63% 6.2 mph N10.0 kmh N 7.9 mph12.7 kmh 29.47 in998.0 mb 0.00 in0.0 mm 0.00 in0.0 mm 0.00 in0.0 mm
08:32 AM 51.4°F10.8°C 39.3°F4.1°C 63% 6.2 mph N10.0 kmh N 7.9 mph12.7 kmh 29.47 in998.0 mb 0.00 in0.0 mm 0.00 in0.0 mm 0.00 in0.0 mm
08:31 AM 51.8°F11.0°C 39.2°F4.0°C 62% 6.2 mph N10.0 kmh N 7.9 mph12.7 kmh 29.48 in998.3 mb 0.00 in0.0 mm 0.00 in0.0 mm 0.00 in0.0 mm
08:30 AM 51.8°F11.0°C 39.2°F4.0°C 62% 6.2 mph N10.0 kmh N 7.9 mph12.7 kmh 29.47 in998.0 mb 0.00 in0.0 mm 0.00 in0.0 mm 0.00 in0.0 mm
08:29 AM 51.8°F11.0°C 39.6°F4.2°C 63% 5.7 mph N9.2 kmh N 7.9 mph12.7 kmh 29.48 in998.3 mb 0.00 in0.0 mm 0.00 in0.0 mm 0.00 in0.0 mm
08:28 AM 52.0°F11.1°C 39.8°F4.3°C 63% 5.4 mph N8.7 kmh N 7.0 mph11.3 kmh 29.48 in998.3 mb 0.00 in0.0 mm 0.00 in0.0 mm 0.00 in0.0 mm
08:27 AM 51.4°F10.8°C 39.3°F4.1°C 63% 5.5 mph N8.9 kmh N 7.0 mph11.3 kmh 29.49 in998.6 mb 0.00 in0.0 mm 0.00 in0.0 mm 0.00 in0.0 mm
08:26 AM 51.4°F10.8°C 39.7°F4.3°C 64% 5.6 mph N9.0 kmh N 7.0 mph11.3 kmh 29.49 in998.6 mb 0.00 in0.0 mm 0.00 in0.0 mm 0.00 in0.0 mm
08:25 AM 52.2°F11.2°C 40.3°F4.6°C 64% 5.7 mph N9.2 kmh N 7.0 mph11.3 kmh 29.50 in999.0 mb 0.00 in0.0 mm 0.00 in0.0 mm 0.00 in0.0 mm
08:24 AM 52.0°F11.1°C 39.8°F4.3°C 63% 5.6 mph N9.0 kmh N 7.0 mph11.3 kmh 29.50 in999.0 mb 0.00 in0.0 mm 0.00 in0.0 mm 0.00 in0.0 mm
08:23 AM 52.3°F11.3°C 40.5°F4.7°C 64% 5.4 mph N8.7 kmh N 7.0 mph11.3 kmh 29.50 in999.0 mb 0.00 in0.0 mm 0.00 in0.0 mm 0.00 in0.0 mm
08:22 AM 51.6°F10.9°C 39.8°F4.3°C 64% 5.4 mph NNE8.7 kmh NNE 7.0 mph11.3 kmh 29.50 in999.0 mb 0.00 in0.0 mm 0.00 in0.0 mm 0.00 in0.0 mm
08:21 AM 52.3°F11.3°C 40.5°F4.7°C 64% 5.3 mph NNE8.5 kmh NNE 7.0 mph11.3 kmh 29.51 in999.3 mb 0.00 in0.0 mm 0.00 in0.0 mm 0.00 in0.0 mm
08:20 AM 52.0°F11.1°C 40.2°F4.6°C 64% 5.1 mph NNE8.2 kmh NNE 7.0 mph11.3 kmh 29.52 in999.7 mb 0.00 in0.0 mm 0.00 in0.0 mm 0.00 in0.0 mm
08:19 AM 51.3°F10.7°C 39.5°F4.2°C 64% 5.4 mph NNE8.7 kmh NNE 7.0 mph11.3 kmh 29.51 in999.3 mb 0.00 in0.0 mm 0.00 in0.0 mm 0.00 in0.0 mm
08:18 AM 50.9°F10.5°C 39.5°F4.2°C 65% 5.6 mph NNE9.0 kmh NNE 7.0 mph11.3 kmh 29.51 in999.3 mb 0.00 in0.0 mm 0.00 in0.0 mm 0.00 in0.0 mm
08:17 AM 51.1°F10.6°C 39.7°F4.3°C 65% 5.6 mph N9.0 kmh N 7.0 mph11.3 kmh 29.52 in999.7 mb 0.00 in0.0 mm 0.00 in0.0 mm 0.00 in0.0 mm
08:16 AM 51.3°F10.7°C 40.3°F4.6°C 66% 5.5 mph N8.9 kmh N 7.0 mph11.3 kmh 29.53 in1000.0 mb 0.00 in0.0 mm 0.00 in0.0 mm 0.00 in0.0 mm
08:15 AM 51.8°F11.0°C 41.2°F5.1°C 67% 5.8 mph N9.3 kmh N 10.5 mph16.9 kmh 29.53 in1000.0 mb 0.00 in0.0 mm 0.00 in0.0 mm 0.00 in0.0 mm
08:14 AM 51.6°F10.9°C 41.4°F5.2°C 68% 6.2 mph N10.0 kmh N 10.5 mph16.9 kmh 29.53 in1000.0 mb 0.00 in0.0 mm 0.00 in0.0 mm 0.00 in0.0 mm
08:13 AM 51.3°F10.7°C 41.1°F5.1°C 68% 6.8 mph N10.9 kmh N 10.5 mph16.9 kmh 29.55 in1000.7 mb 0.00 in0.0 mm 0.00 in0.0 mm 0.00 in0.0 mm
08:12 AM 51.1°F10.6°C 41.3°F5.2°C 69% 7.4 mph N11.9 kmh N 10.5 mph16.9 kmh 29.55 in1000.7 mb 0.00 in0.0 mm 0.00 in0.0 mm 0.00 in0.0 mm
08:11 AM 51.1°F10.6°C 40.9°F4.9°C 68% 7.9 mph N12.7 kmh N 10.5 mph16.9 kmh 29.55 in1000.7 mb 0.00 in0.0 mm 0.00 in0.0 mm 0.00 in0.0 mm
08:10 AM 50.9°F10.5°C 40.7°F4.8°C 68% 8.5 mph N13.7 kmh N 10.5 mph16.9 kmh 29.56 in1001.0 mb 0.00 in0.0 mm 0.00 in0.0 mm 0.00 in0.0 mm
08:09 AM 50.5°F10.3°C 40.7°F4.8°C 69% 8.8 mph N14.2 kmh N 10.5 mph16.9 kmh 29.56 in1001.0 mb 0.00 in0.0 mm 0.00 in0.0 mm 0.00 in0.0 mm
08:08 AM 50.9°F10.5°C 41.1°F5.1°C 69% 8.7 mph N14.0 kmh N 10.5 mph16.9 kmh 29.57 in1001.4 mb 0.00 in0.0 mm 0.00 in0.0 mm 0.00 in0.0 mm
08:07 AM 50.5°F10.3°C 40.7°F4.8°C 69% 8.6 mph N13.8 kmh N 10.5 mph16.9 kmh 29.57 in1001.4 mb 0.00 in0.0 mm 0.00 in0.0 mm 0.00 in0.0 mm
08:06 AM 50.4°F10.2°C 40.6°F4.8°C 69% 8.6 mph N13.8 kmh N 10.5 mph16.9 kmh 29.58 in1001.7 mb 0.00 in0.0 mm 0.00 in0.0 mm 0.00 in0.0 mm
08:05 AM 50.5°F10.3°C 40.7°F4.8°C 69% 8.0 mph N12.9 kmh N 10.5 mph16.9 kmh 29.59 in1002.0 mb 0.00 in0.0 mm 0.00 in0.0 mm 0.00 in0.0 mm
08:04 AM 50.5°F10.3°C 40.7°F4.8°C 69% 7.7 mph N12.4 kmh N 10.5 mph16.9 kmh 29.59 in1002.0 mb 0.00 in0.0 mm 0.00 in0.0 mm 0.00 in0.0 mm
08:03 AM 50.5°F10.3°C 40.7°F4.8°C 69% 7.3 mph N11.7 kmh N 10.5 mph16.9 kmh 29.59 in1002.0 mb 0.00 in0.0 mm 0.00 in0.0 mm 0.00 in0.0 mm
08:02 AM 50.5°F10.3°C 40.7°F4.8°C 69% 6.9 mph N11.1 kmh N 10.5 mph16.9 kmh 29.60 in1002.4 mb 0.00 in0.0 mm 0.00 in0.0 mm 0.00 in0.0 mm
08:01 AM 50.5°F10.3°C 40.7°F4.8°C 69% 6.4 mph N10.3 kmh N 10.5 mph16.9 kmh 29.61 in1002.7 mb 0.00 in0.0 mm 0.00 in0.0 mm 0.00 in0.0 mm
08:00 AM 50.5°F10.3°C 40.7°F4.8°C 69% 6.0 mph N9.7 kmh N 10.5 mph16.9 kmh 29.62 in1003.0 mb 0.00 in0.0 mm 0.00 in0.0 mm 0.00 in0.0 mm
07:59 AM 50.4°F10.2°C 40.2°F4.6°C 68% 5.6 mph N9.0 kmh N 7.9 mph12.7 kmh 29.62 in1003.0 mb 0.00 in0.0 mm 0.00 in0.0 mm 0.00 in0.0 mm
07:58 AM 50.4°F10.2°C 40.6°F4.8°C 69% 5.6 mph N9.0 kmh N 7.9 mph12.7 kmh 29.63 in1003.4 mb 0.00 in0.0 mm 0.00 in0.0 mm 0.00 in0.0 mm
07:57 AM 50.4°F10.2°C 40.6°F4.8°C 69% 5.8 mph NNW9.3 kmh NNW 7.9 mph12.7 kmh 29.64 in1003.7 mb 0.00 in0.0 mm 0.00 in0.0 mm 0.00 in0.0 mm
07:56 AM 50.2°F10.1°C 40.4°F4.7°C 69% 5.8 mph N9.3 kmh N 7.9 mph12.7 kmh 29.65 in1004.1 mb 0.00 in0.0 mm 0.00 in0.0 mm 0.00 in0.0 mm
07:55 AM 50.2°F10.1°C 40.8°F4.9°C 70% 5.8 mph NNW9.3 kmh NNW 7.9 mph12.7 kmh 29.65 in1004.1 mb 0.00 in0.0 mm 0.00 in0.0 mm 0.00 in0.0 mm
07:54 AM 50.0°F10.0°C 40.6°F4.8°C 70% 5.7 mph N9.2 kmh N 7.9 mph12.7 kmh 29.66 in1004.4 mb 0.00 in0.0 mm 0.00 in0.0 mm 0.00 in0.0 mm
07:53 AM 49.8°F9.9°C 40.8°F4.9°C 71% 5.4 mph N8.7 kmh N 7.0 mph11.3 kmh 29.67 in1004.7 mb 0.00 in0.0 mm 0.00 in0.0 mm 0.00 in0.0 mm
07:52 AM 49.8°F9.9°C 40.8°F4.9°C 71% 5.0 mph N8.0 kmh N 7.0 mph11.3 kmh 29.68 in1005.1 mb 0.00 in0.0 mm 0.00 in0.0 mm 0.00 in0.0 mm
07:51 AM 49.6°F9.8°C 40.6°F4.8°C 71% 4.5 mph N7.2 kmh N 7.0 mph11.3 kmh 29.68 in1005.1 mb 0.00 in0.0 mm 0.00 in0.0 mm 0.00 in0.0 mm
07:50 AM 50.0°F10.0°C 40.6°F4.8°C 70% 4.4 mph N7.1 kmh N 7.0 mph11.3 kmh 29.69 in1005.4 mb 0.00 in0.0 mm 0.00 in0.0 mm 0.00 in0.0 mm
07:49 AM 50.2°F10.1°C 40.8°F4.9°C 70% 4.3 mph N6.9 kmh N 7.0 mph11.3 kmh 29.70 in1005.8 mb 0.00 in0.0 mm 0.00 in0.0 mm 0.00 in0.0 mm
07:48 AM 50.0°F10.0°C 40.6°F4.8°C 70% 4.2 mph N6.8 kmh N 7.0 mph11.3 kmh 29.70 in1005.8 mb 0.00 in0.0 mm 0.00 in0.0 mm 0.00 in0.0 mm
07:47 AM 50.4°F10.2°C 40.9°F4.9°C 70% 4.2 mph N6.8 kmh N 7.0 mph11.3 kmh 29.70 in1005.8 mb 0.00 in0.0 mm 0.00 in0.0 mm 0.00 in0.0 mm
07:46 AM 50.0°F10.0°C 40.6°F4.8°C 70% 4.1 mph N6.6 kmh N 6.1 mph9.8 kmh 29.71 in1006.1 mb 0.00 in0.0 mm 0.00 in0.0 mm 0.00 in0.0 mm
07:45 AM 50.2°F10.1°C 41.1°F5.1°C 71% 3.8 mph N6.1 kmh N 6.1 mph9.8 kmh 29.71 in1006.1 mb 0.00 in0.0 mm 0.00 in0.0 mm 0.00 in0.0 mm
07:44 AM 50.9°F10.5°C 41.8°F5.4°C 71% 3.7 mph N6.0 kmh N 6.1 mph9.8 kmh 29.72 in1006.4 mb 0.00 in0.0 mm 0.00 in0.0 mm 0.00 in0.0 mm
07:43 AM 50.7°F10.4°C 41.7°F5.4°C 71% 3.5 mph N5.6 kmh N 6.1 mph9.8 kmh 29.71 in1006.1 mb 0.00 in0.0 mm 0.00 in0.0 mm 0.00 in0.0 mm
07:42 AM 50.5°F10.3°C 41.5°F5.3°C 71% 3.7 mph N6.0 kmh N 6.1 mph9.8 kmh 29.72 in1006.4 mb 0.00 in0.0 mm 0.00 in0.0 mm 0.00 in0.0 mm
07:41 AM 49.8°F9.9°C 41.2°F5.1°C 72% 4.1 mph N6.6 kmh N 6.1 mph9.8 kmh 29.72 in1006.4 mb 0.00 in0.0 mm 0.00 in0.0 mm 0.00 in0.0 mm
07:40 AM 50.0°F10.0°C 41.3°F5.2°C 72% 4.2 mph N6.8 kmh N 6.1 mph9.8 kmh 29.72 in1006.4 mb 0.00 in0.0 mm 0.00 in0.0 mm 0.00 in0.0 mm
07:39 AM 49.8°F9.9°C 41.2°F5.1°C 72% 4.2 mph N6.8 kmh N 6.1 mph9.8 kmh 29.73 in1006.8 mb 0.00 in0.0 mm 0.00 in0.0 mm 0.00 in0.0 mm
07:38 AM 49.8°F9.9°C 41.5°F5.3°C 73% 4.0 mph N6.4 kmh N 6.1 mph9.8 kmh 29.73 in1006.8 mb 0.00 in0.0 mm 0.00 in0.0 mm 0.00 in0.0 mm
07:37 AM 50.0°F10.0°C 41.3°F5.2°C 72% 4.0 mph N6.4 kmh N 6.1 mph9.8 kmh 29.73 in1006.8 mb 0.00 in0.0 mm 0.00 in0.0 mm 0.00 in0.0 mm
07:36 AM 49.6°F9.8°C 41.3°F5.2°C 73% 4.1 mph N6.6 kmh N 5.2 mph8.4 kmh 29.73 in1006.8 mb 0.00 in0.0 mm 0.00 in0.0 mm 0.00 in0.0 mm
07:35 AM 49.1°F9.5°C 40.8°F4.9°C 73% 4.3 mph N6.9 kmh N 5.2 mph8.4 kmh 29.74 in1007.1 mb 0.00 in0.0 mm 0.00 in0.0 mm 0.00 in0.0 mm
07:34 AM 49.5°F9.7°C 41.2°F5.1°C 73% 4.3 mph N6.9 kmh N 5.2 mph8.4 kmh 29.73 in1006.8 mb 0.00 in0.0 mm 0.00 in0.0 mm 0.00 in0.0 mm
07:33 AM 48.9°F9.4°C 40.3°F4.6°C 72% 4.3 mph N6.9 kmh N 5.2 mph8.4 kmh 29.74 in1007.1 mb 0.00 in0.0 mm 0.00 in0.0 mm 0.00 in0.0 mm
07:32 AM 48.9°F9.4°C 40.3°F4.6°C 72% 4.4 mph N7.1 kmh N 6.1 mph9.8 kmh 29.74 in1007.1 mb 0.00 in0.0 mm 0.00 in0.0 mm 0.00 in0.0 mm
07:31 AM 48.9°F9.4°C 40.3°F4.6°C 72% 4.6 mph N7.4 kmh N 7.0 mph11.3 kmh 29.75 in1007.5 mb 0.00 in0.0 mm 0.00 in0.0 mm 0.00 in0.0 mm
07:30 AM 48.9°F9.4°C 40.3°F4.6°C 72% 4.5 mph N7.2 kmh N 7.0 mph11.3 kmh 29.75 in1007.5 mb 0.00 in0.0 mm 0.00 in0.0 mm 0.00 in0.0 mm
07:29 AM 49.3°F9.6°C 40.6°F4.8°C 72% 4.4 mph N7.1 kmh N 7.0 mph11.3 kmh 29.75 in1007.5 mb 0.00 in0.0 mm 0.00 in0.0 mm 0.00 in0.0 mm
07:28 AM 49.5°F9.7°C 40.8°F4.9°C 72% 4.3 mph N6.9 kmh N 7.0 mph11.3 kmh 29.75 in1007.5 mb 0.00 in0.0 mm 0.00 in0.0 mm 0.00 in0.0 mm
07:27 AM 49.6°F9.8°C 41.3°F5.2°C 73% 4.2 mph N6.8 kmh N 7.0 mph11.3 kmh 29.76 in1007.8 mb 0.00 in0.0 mm 0.00 in0.0 mm 0.00 in0.0 mm
07:26 AM 49.8°F9.9°C 41.5°F5.3°C 73% 4.5 mph N7.2 kmh N 9.6 mph15.4 kmh 29.75 in1007.5 mb 0.00 in0.0 mm 0.00 in0.0 mm 0.00 in0.0 mm
07:25 AM 49.6°F9.8°C 41.3°F5.2°C 73% 4.2 mph N6.8 kmh N 9.6 mph15.4 kmh 29.76 in1007.8 mb 0.00 in0.0 mm 0.00 in0.0 mm 0.00 in0.0 mm
07:24 AM 49.6°F9.8°C 41.3°F5.2°C 73% 3.9 mph N6.3 kmh N 9.6 mph15.4 kmh 29.76 in1007.8 mb 0.00 in0.0 mm 0.00 in0.0 mm 0.00 in0.0 mm
07:23 AM 49.6°F9.8°C 41.3°F5.2°C 73% 3.7 mph N6.0 kmh N 9.6 mph15.4 kmh 29.76 in1007.8 mb 0.00 in0.0 mm 0.00 in0.0 mm 0.00 in0.0 mm
07:22 AM 49.3°F9.6°C 41.0°F5.0°C 73% 3.6 mph N5.8 kmh N 9.6 mph15.4 kmh 29.76 in1007.8 mb 0.00 in0.0 mm 0.00 in0.0 mm 0.00 in0.0 mm
07:21 AM 50.0°F10.0°C 41.3°F5.2°C 72% 3.3 mph N5.3 kmh N 9.6 mph15.4 kmh 29.77 in1008.1 mb 0.00 in0.0 mm 0.00 in0.0 mm 0.00 in0.0 mm
07:20 AM 49.8°F9.9°C 41.5°F5.3°C 73% 3.1 mph N5.0 kmh N 9.6 mph15.4 kmh 29.77 in1008.1 mb 0.00 in0.0 mm 0.00 in0.0 mm 0.00 in0.0 mm
07:19 AM 49.8°F9.9°C 41.5°F5.3°C 73% 3.1 mph N5.0 kmh N 9.6 mph15.4 kmh 29.77 in1008.1 mb 0.00 in0.0 mm 0.00 in0.0 mm 0.00 in0.0 mm
07:18 AM 49.6°F9.8°C 41.3°F5.2°C 73% 3.2 mph NNW5.1 kmh NNW 9.6 mph15.4 kmh 29.77 in1008.1 mb 0.00 in0.0 mm 0.00 in0.0 mm 0.00 in0.0 mm
07:17 AM 50.2°F10.1°C 42.2°F5.7°C 74% 3.2 mph NNW5.1 kmh NNW 9.6 mph15.4 kmh 29.77 in1008.1 mb 0.00 in0.0 mm 0.00 in0.0 mm 0.00 in0.0 mm
07:16 AM 50.5°F10.3°C 42.9°F6.1°C 75% 2.8 mph NW4.5 kmh NW 4.4 mph7.1 kmh 29.77 in1008.1 mb 0.00 in0.0 mm 0.00 in0.0 mm 0.00 in0.0 mm
07:15 AM 50.2°F10.1°C 42.6°F5.9°C 75% 3.0 mph NW4.8 kmh NW 5.2 mph8.4 kmh 29.77 in1008.1 mb 0.00 in0.0 mm 0.00 in0.0 mm 0.00 in0.0 mm
07:14 AM 49.6°F9.8°C 42.4°F5.8°C 76% 3.3 mph NW5.3 kmh NW 5.2 mph8.4 kmh 29.77 in1008.1 mb 0.00 in0.0 mm 0.00 in0.0 mm 0.00 in0.0 mm
07:13 AM 49.5°F9.7°C 42.2°F5.7°C 76% 3.7 mph NW6.0 kmh NW 5.2 mph8.4 kmh 29.77 in1008.1 mb 0.00 in0.0 mm 0.00 in0.0 mm 0.00 in0.0 mm
07:12 AM 49.3°F9.6°C 42.0°F5.6°C 76% 3.8 mph NW6.1 kmh NW 5.2 mph8.4 kmh 29.77 in1008.1 mb 0.00 in0.0 mm 0.00 in0.0 mm 0.00 in0.0 mm
07:11 AM 49.1°F9.5°C 41.9°F5.5°C 76% 3.9 mph NW6.3 kmh NW 5.2 mph8.4 kmh 29.77 in1008.1 mb 0.00 in0.0 mm 0.00 in0.0 mm 0.00 in0.0 mm
07:10 AM 48.6°F9.2°C 41.7°F5.4°C 77% 4.1 mph NW6.6 kmh NW 5.2 mph8.4 kmh 29.77 in1008.1 mb 0.00 in0.0 mm 0.00 in0.0 mm 0.00 in0.0 mm
07:09 AM 48.4°F9.1°C 41.5°F5.3°C 77% 3.9 mph NW6.3 kmh NW 5.2 mph8.4 kmh 29.77 in1008.1 mb 0.00 in0.0 mm 0.00 in0.0 mm 0.00 in0.0 mm
07:08 AM 48.0°F8.9°C 41.5°F5.3°C 78% 3.8 mph NW6.1 kmh NW 5.2 mph8.4 kmh 29.77 in1008.1 mb 0.00 in0.0 mm 0.00 in0.0 mm 0.00 in0.0 mm
07:07 AM 47.8°F8.8°C 41.3°F5.2°C 78% 3.8 mph NW6.1 kmh NW 5.2 mph8.4 kmh 29.77 in1008.1 mb 0.00 in0.0 mm 0.00 in0.0 mm 0.00 in0.0 mm
07:06 AM 47.8°F8.8°C 41.6°F5.3°C 79% 3.8 mph NNW6.1 kmh NNW 5.2 mph8.4 kmh 29.78 in1008.5 mb 0.00 in0.0 mm 0.00 in0.0 mm 0.00 in0.0 mm
07:05 AM 47.8°F8.8°C 41.3°F5.2°C 78% 3.7 mph N6.0 kmh N 5.2 mph8.4 kmh 29.77 in1008.1 mb 0.00 in0.0 mm 0.00 in0.0 mm 0.00 in0.0 mm
07:04 AM 48.0°F8.9°C 41.5°F5.3°C 78% 3.6 mph NNW5.8 kmh NNW 5.2 mph8.4 kmh 29.77 in1008.1 mb 0.00 in0.0 mm 0.00 in0.0 mm 0.00 in0.0 mm
07:03 AM 48.2°F9.0°C 41.7°F5.4°C 78% 3.4 mph NNW5.5 kmh NNW 5.2 mph8.4 kmh 29.77 in1008.1 mb 0.00 in0.0 mm 0.00 in0.0 mm 0.00 in0.0 mm
07:02 AM 48.0°F8.9°C 41.8°F5.4°C 79% 3.3 mph NNW5.3 kmh NNW 5.2 mph8.4 kmh 29.78 in1008.5 mb 0.00 in0.0 mm 0.00 in0.0 mm 0.00 in0.0 mm
07:01 AM 48.7°F9.3°C 42.8°F6.0°C 80% 3.1 mph N5.0 kmh N 5.2 mph8.4 kmh 29.78 in1008.5 mb 0.00 in0.0 mm 0.00 in0.0 mm 0.00 in0.0 mm
07:00 AM 48.7°F9.3°C 42.8°F6.0°C 80% 3.0 mph NNW4.8 kmh NNW 4.4 mph7.1 kmh 29.78 in1008.5 mb 0.00 in0.0 mm 0.00 in0.0 mm 0.00 in0.0 mm
06:59 AM 48.0°F8.9°C 42.8°F6.0°C 82% 2.9 mph NNW4.7 kmh NNW 4.4 mph7.1 kmh 29.78 in1008.5 mb 0.00 in0.0 mm 0.00 in0.0 mm 0.00 in0.0 mm
06:58 AM 48.0°F8.9°C 42.8°F6.0°C 82% 2.8 mph NNW4.5 kmh NNW 4.4 mph7.1 kmh 29.78 in1008.5 mb 0.00 in0.0 mm 0.00 in0.0 mm 0.00 in0.0 mm
06:57 AM 47.3°F8.5°C 42.1°F5.6°C 82% 2.7 mph NW4.3 kmh NW 5.2 mph8.4 kmh 29.78 in1008.5 mb 0.00 in0.0 mm 0.00 in0.0 mm 0.00 in0.0 mm
06:56 AM 47.5°F8.6°C 42.3°F5.7°C 82% 2.7 mph W4.3 kmh W 5.2 mph8.4 kmh 29.78 in1008.5 mb 0.00 in0.0 mm 0.00 in0.0 mm 0.00 in0.0 mm
06:55 AM 47.7°F8.7°C 42.8°F6.0°C 83% 2.6 mph W4.2 kmh W 5.2 mph8.4 kmh 29.78 in1008.5 mb 0.00 in0.0 mm 0.00 in0.0 mm 0.00 in0.0 mm
06:54 AM 47.3°F8.5°C 42.4°F5.8°C 83% 2.6 mph W4.2 kmh W 5.2 mph8.4 kmh 29.78 in1008.5 mb 0.00 in0.0 mm 0.00 in0.0 mm 0.00 in0.0 mm
06:53 AM 47.3°F8.5°C 42.4°F5.8°C 83% 2.7 mph WNW4.3 kmh WNW 5.2 mph8.4 kmh 29.78 in1008.5 mb 0.00 in0.0 mm 0.00 in0.0 mm 0.00 in0.0 mm
06:52 AM 47.1°F8.4°C 42.2°F5.7°C 83% 2.6 mph W4.2 kmh W 5.2 mph8.4 kmh 29.78 in1008.5 mb 0.00 in0.0 mm 0.00 in0.0 mm 0.00 in0.0 mm
06:51 AM 46.9°F8.3°C 42.4°F5.8°C 84% 2.5 mph WSW4.0 kmh WSW 5.2 mph8.4 kmh 29.78 in1008.5 mb 0.00 in0.0 mm 0.00 in0.0 mm 0.00 in0.0 mm
06:50 AM 46.8°F8.2°C 42.2°F5.7°C 84% 2.3 mph WSW3.7 kmh WSW 5.2 mph8.4 kmh 29.78 in1008.5 mb 0.00 in0.0 mm 0.00 in0.0 mm 0.00 in0.0 mm
06:49 AM 46.4°F8.0°C 41.5°F5.3°C 83% 2.1 mph WSW3.4 kmh WSW 5.2 mph8.4 kmh 29.78 in1008.5 mb 0.00 in0.0 mm 0.00 in0.0 mm 0.00 in0.0 mm
06:48 AM 46.0°F7.8°C 41.2°F5.1°C 83% 2.3 mph W3.7 kmh W 5.2 mph8.4 kmh 29.78 in1008.5 mb 0.00 in0.0 mm 0.00 in0.0 mm 0.00 in0.0 mm
06:47 AM 45.9°F7.7°C 41.0°F5.0°C 83% 2.1 mph W3.4 kmh W 5.2 mph8.4 kmh 29.78 in1008.5 mb 0.00 in0.0 mm 0.00 in0.0 mm 0.00 in0.0 mm
06:46 AM 46.2°F7.9°C 41.7°F5.4°C 84% 1.8 mph W2.9 kmh W 4.4 mph7.1 kmh 29.78 in1008.5 mb 0.00 in0.0 mm 0.00 in0.0 mm 0.00 in0.0 mm
06:45 AM 46.2°F7.9°C 41.7°F5.4°C 84% 1.9 mph WNW3.1 kmh WNW 3.5 mph5.6 kmh 29.79 in1008.8 mb 0.00 in0.0 mm 0.00 in0.0 mm 0.00 in0.0 mm
06:44 AM 46.2°F7.9°C 42.0°F5.6°C 85% 1.7 mph NW2.7 kmh NW 3.5 mph5.6 kmh 29.78 in1008.5 mb 0.00 in0.0 mm 0.00 in0.0 mm 0.00 in0.0 mm
06:43 AM 46.0°F7.8°C 41.8°F5.4°C 85% 1.5 mph W2.4 kmh W 2.6 mph4.2 kmh 29.79 in1008.8 mb 0.00 in0.0 mm 0.00 in0.0 mm 0.00 in0.0 mm
06:42 AM 45.5°F7.5°C 41.3°F5.2°C 85% 1.4 mph NW2.3 kmh NW 2.6 mph4.2 kmh 29.79 in1008.8 mb 0.00 in0.0 mm 0.00 in0.0 mm 0.00 in0.0 mm
06:41 AM 45.1°F7.3°C 40.9°F4.9°C 85% 1.6 mph NW2.6 kmh NW 4.4 mph7.1 kmh 29.78 in1008.5 mb 0.00 in0.0 mm 0.00 in0.0 mm 0.00 in0.0 mm
06:40 AM 45.1°F7.3°C 40.9°F4.9°C 85% 1.8 mph W2.9 kmh W 4.4 mph7.1 kmh 29.78 in1008.5 mb 0.00 in0.0 mm 0.00 in0.0 mm 0.00 in0.0 mm
06:39 AM 45.1°F7.3°C 40.9°F4.9°C 85% 1.9 mph WSW3.1 kmh WSW 4.4 mph7.1 kmh 29.79 in1008.8 mb 0.00 in0.0 mm 0.00 in0.0 mm 0.00 in0.0 mm
06:38 AM 45.0°F7.2°C 40.7°F4.8°C 85% 2.0 mph W3.2 kmh W 4.4 mph7.1 kmh 29.79 in1008.8 mb 0.00 in0.0 mm 0.00 in0.0 mm 0.00 in0.0 mm
06:37 AM 45.0°F7.2°C 40.7°F4.8°C 85% 1.8 mph SW2.9 kmh SW 4.4 mph7.1 kmh 29.79 in1008.8 mb 0.00 in0.0 mm 0.00 in0.0 mm 0.00 in0.0 mm
06:36 AM 45.1°F7.3°C 40.9°F4.9°C 85% 1.7 mph NW2.7 kmh NW 4.4 mph7.1 kmh 29.79 in1008.8 mb 0.00 in0.0 mm 0.00 in0.0 mm 0.00 in0.0 mm
06:35 AM 45.1°F7.3°C 40.9°F4.9°C 85% 1.7 mph WNW2.7 kmh WNW 4.4 mph7.1 kmh 29.79 in1008.8 mb 0.00 in0.0 mm 0.00 in0.0 mm 0.00 in0.0 mm
06:34 AM 45.3°F7.4°C 41.1°F5.1°C 85% 1.8 mph SW2.9 kmh SW 4.4 mph7.1 kmh 29.79 in1008.8 mb 0.00 in0.0 mm 0.00 in0.0 mm 0.00 in0.0 mm
06:33 AM 45.1°F7.3°C 41.2°F5.1°C 86% 2.0 mph SSW3.2 kmh SSW 4.4 mph7.1 kmh 29.79 in1008.8 mb 0.00 in0.0 mm 0.00 in0.0 mm 0.00 in0.0 mm
06:32 AM 45.0°F7.2°C 41.0°F5.0°C 86% 2.0 mph S3.2 kmh S 4.4 mph7.1 kmh 29.79 in1008.8 mb 0.00 in0.0 mm 0.00 in0.0 mm 0.00 in0.0 mm
06:31 AM 45.0°F7.2°C 41.0°F5.0°C 86% 1.8 mph S2.9 kmh S 4.4 mph7.1 kmh 29.79 in1008.8 mb 0.00 in0.0 mm 0.00 in0.0 mm 0.00 in0.0 mm
06:30 AM 44.8°F7.1°C 41.1°F5.1°C 87% 1.5 mph SSW2.4 kmh SSW 3.5 mph5.6 kmh 29.79 in1008.8 mb 0.00 in0.0 mm 0.00 in0.0 mm 0.00 in0.0 mm
06:29 AM 45.0°F7.2°C 41.3°F5.2°C 87% 1.6 mph SW2.6 kmh SW 3.5 mph5.6 kmh 29.78 in1008.5 mb 0.00 in0.0 mm 0.00 in0.0 mm 0.00 in0.0 mm
06:28 AM 44.8°F7.1°C 41.1°F5.1°C 87% 1.6 mph SW2.6 kmh SW 3.5 mph5.6 kmh 29.79 in1008.8 mb 0.00 in0.0 mm 0.00 in0.0 mm 0.00 in0.0 mm
06:27 AM 44.6°F7.0°C 41.3°F5.2°C 88% 1.8 mph SW2.9 kmh SW 3.5 mph5.6 kmh 29.79 in1008.8 mb 0.00 in0.0 mm 0.00 in0.0 mm 0.00 in0.0 mm
06:26 AM 44.2°F6.8°C 41.2°F5.1°C 89% 1.8 mph SW2.9 kmh SW 3.5 mph5.6 kmh 29.79 in1008.8 mb 0.00 in0.0 mm 0.00 in0.0 mm 0.00 in0.0 mm
06:25 AM 44.2°F6.8°C 41.2°F5.1°C 89% 1.8 mph SW2.9 kmh SW 3.5 mph5.6 kmh 29.79 in1008.8 mb 0.00 in0.0 mm 0.00 in0.0 mm 0.00 in0.0 mm
06:24 AM 43.9°F6.6°C 40.8°F4.9°C 89% 1.8 mph SW2.9 kmh SW 3.5 mph5.6 kmh 29.79 in1008.8 mb 0.00 in0.0 mm 0.00 in0.0 mm 0.00 in0.0 mm
06:23 AM 43.7°F6.5°C 40.7°F4.8°C 89% 1.8 mph WSW2.9 kmh WSW 3.5 mph5.6 kmh 29.78 in1008.5 mb 0.00 in0.0 mm 0.00 in0.0 mm 0.00 in0.0 mm
06:22 AM 43.9°F6.6°C 40.8°F4.9°C 89% 1.6 mph WSW2.6 kmh WSW 3.5 mph5.6 kmh 29.79 in1008.8 mb 0.00 in0.0 mm 0.00 in0.0 mm 0.00 in0.0 mm
06:21 AM 43.7°F6.5°C 40.7°F4.8°C 89% 1.6 mph W2.6 kmh W 3.5 mph5.6 kmh 29.79 in1008.8 mb 0.00 in0.0 mm 0.00 in0.0 mm 0.00 in0.0 mm
06:20 AM 43.7°F6.5°C 40.7°F4.8°C 89% 1.6 mph W2.6 kmh W 3.5 mph5.6 kmh 29.78 in1008.5 mb 0.00 in0.0 mm 0.00 in0.0 mm 0.00 in0.0 mm
06:19 AM 43.7°F6.5°C 40.7°F4.8°C 89% 1.5 mph W2.4 kmh W 3.5 mph5.6 kmh 29.79 in1008.8 mb 0.00 in0.0 mm 0.00 in0.0 mm 0.00 in0.0 mm
06:18 AM 43.5°F6.4°C 40.5°F4.7°C 89% 1.2 mph W1.9 kmh W 2.6 mph4.2 kmh 29.78 in1008.5 mb 0.00 in0.0 mm 0.00 in0.0 mm 0.00 in0.0 mm
06:17 AM 43.3°F6.3°C 40.3°F4.6°C 89% 1.0 mph WNW1.6 kmh WNW 2.6 mph4.2 kmh 29.79 in1008.8 mb 0.00 in0.0 mm 0.00 in0.0 mm 0.00 in0.0 mm
06:16 AM 43.5°F6.4°C 40.5°F4.7°C 89% 1.0 mph WNW1.6 kmh WNW 2.6 mph4.2 kmh 29.79 in1008.8 mb 0.00 in0.0 mm 0.00 in0.0 mm 0.00 in0.0 mm
06:15 AM 43.0°F6.1°C 40.0°F4.4°C 89% 0.9 mph NW1.4 kmh NW 2.6 mph4.2 kmh 29.78 in1008.5 mb 0.00 in0.0 mm 0.00 in0.0 mm 0.00 in0.0 mm
06:14 AM 43.0°F6.1°C 40.0°F4.4°C 89% 0.7 mph NW1.1 kmh NW 2.6 mph4.2 kmh 29.79 in1008.8 mb 0.00 in0.0 mm 0.00 in0.0 mm 0.00 in0.0 mm
06:13 AM 43.0°F6.1°C 40.0°F4.4°C 89% 0.6 mph NW1.0 kmh NW 2.6 mph4.2 kmh 29.78 in1008.5 mb 0.00 in0.0 mm 0.00 in0.0 mm 0.00 in0.0 mm
06:12 AM 43.0°F6.1°C 40.0°F4.4°C 89% 0.7 mph WNW1.1 kmh WNW 2.6 mph4.2 kmh 29.78 in1008.5 mb 0.00 in0.0 mm 0.00 in0.0 mm 0.00 in0.0 mm
06:11 AM 42.8°F6.0°C 39.8°F4.3°C 89% 0.5 mph W0.8 kmh W 1.7 mph2.7 kmh 29.79 in1008.8 mb 0.00 in0.0 mm 0.00 in0.0 mm 0.00 in0.0 mm
06:10 AM 42.8°F6.0°C 39.8°F4.3°C 89% 0.6 mph W1.0 kmh W 1.7 mph2.7 kmh 29.79 in1008.8 mb 0.00 in0.0 mm 0.00 in0.0 mm 0.00 in0.0 mm
06:09 AM 43.0°F6.1°C 40.0°F4.4°C 89% 0.8 mph WSW1.3 kmh WSW 1.7 mph2.7 kmh 29.78 in1008.5 mb 0.00 in0.0 mm 0.00 in0.0 mm 0.00 in0.0 mm
06:08 AM 43.0°F6.1°C 40.0°F4.4°C 89% 0.9 mph WSW1.4 kmh WSW 1.7 mph2.7 kmh 29.78 in1008.5 mb 0.00 in0.0 mm 0.00 in0.0 mm 0.00 in0.0 mm
06:07 AM 43.2°F6.2°C 40.1°F4.5°C 89% 1.1 mph WSW1.8 kmh WSW 1.7 mph2.7 kmh 29.78 in1008.5 mb 0.00 in0.0 mm 0.00 in0.0 mm 0.00 in0.0 mm
06:06 AM 43.0°F6.1°C 40.0°F4.4°C 89% 1.1 mph WSW1.8 kmh WSW 1.7 mph2.7 kmh 29.78 in1008.5 mb 0.00 in0.0 mm 0.00 in0.0 mm 0.00 in0.0 mm
06:05 AM 43.0°F6.1°C 40.0°F4.4°C 89% 1.2 mph WSW1.9 kmh WSW 2.6 mph4.2 kmh 29.78 in1008.5 mb 0.00 in0.0 mm 0.00 in0.0 mm 0.00 in0.0 mm
06:04 AM 43.0°F6.1°C 40.0°F4.4°C 89% 1.3 mph WSW2.1 kmh WSW 2.6 mph4.2 kmh 29.78 in1008.5 mb 0.00 in0.0 mm 0.00 in0.0 mm 0.00 in0.0 mm
06:03 AM 43.0°F6.1°C 40.0°F4.4°C 89% 1.2 mph WSW1.9 kmh WSW 2.6 mph4.2 kmh 29.78 in1008.5 mb 0.00 in0.0 mm 0.00 in0.0 mm 0.00 in0.0 mm
06:02 AM 43.0°F6.1°C 40.0°F4.4°C 89% 1.3 mph WSW2.1 kmh WSW 2.6 mph4.2 kmh 29.79 in1008.8 mb 0.00 in0.0 mm 0.00 in0.0 mm 0.00 in0.0 mm
06:01 AM 43.0°F6.1°C 40.0°F4.4°C 89% 1.4 mph SW2.3 kmh SW 2.6 mph4.2 kmh 29.78 in1008.5 mb 0.00 in0.0 mm 0.00 in0.0 mm 0.00 in0.0 mm
06:00 AM 43.0°F6.1°C 40.0°F4.4°C 89% 1.5 mph SW2.4 kmh SW 2.6 mph4.2 kmh 29.78 in1008.5 mb 0.00 in0.0 mm 0.00 in0.0 mm 0.00 in0.0 mm
05:59 AM 43.0°F6.1°C 40.0°F4.4°C 89% 1.5 mph SW2.4 kmh SW 2.6 mph4.2 kmh 29.78 in1008.5 mb 0.00 in0.0 mm 0.00 in0.0 mm 0.00 in0.0 mm
05:58 AM 43.0°F6.1°C 40.0°F4.4°C 89% 1.5 mph SW2.4 kmh SW 2.6 mph4.2 kmh 29.78 in1008.5 mb 0.00 in0.0 mm 0.00 in0.0 mm 0.00 in0.0 mm
05:57 AM 43.0°F6.1°C 40.0°F4.4°C 89% 1.5 mph SW2.4 kmh SW 2.6 mph4.2 kmh 29.77 in1008.1 mb 0.00 in0.0 mm 0.00 in0.0 mm 0.00 in0.0 mm
05:56 AM 43.0°F6.1°C 40.0°F4.4°C 89% 1.5 mph SW2.4 kmh SW 2.6 mph4.2 kmh 29.78 in1008.5 mb 0.00 in0.0 mm 0.00 in0.0 mm 0.00 in0.0 mm
05:55 AM 43.0°F6.1°C 40.0°F4.4°C 89% 1.7 mph SW2.7 kmh SW 2.6 mph4.2 kmh 29.77 in1008.1 mb 0.00 in0.0 mm 0.00 in0.0 mm 0.00 in0.0 mm
05:54 AM 43.0°F6.1°C 40.2°F4.6°C 90% 1.5 mph SW2.4 kmh SW 2.6 mph4.2 kmh 29.78 in1008.5 mb 0.00 in0.0 mm 0.00 in0.0 mm 0.00 in0.0 mm
05:53 AM 43.3°F6.3°C 40.6°F4.8°C 90% 1.5 mph SW2.4 kmh SW 2.6 mph4.2 kmh 29.77 in1008.1 mb 0.00 in0.0 mm 0.00 in0.0 mm 0.00 in0.0 mm
05:52 AM 43.3°F6.3°C 40.6°F4.8°C 90% 1.6 mph WSW2.6 kmh WSW 3.5 mph5.6 kmh 29.78 in1008.5 mb 0.00 in0.0 mm 0.00 in0.0 mm 0.00 in0.0 mm
05:51 AM 43.3°F6.3°C 40.6°F4.8°C 90% 1.6 mph NW2.6 kmh NW 3.5 mph5.6 kmh 29.78 in1008.5 mb 0.00 in0.0 mm 0.00 in0.0 mm 0.00 in0.0 mm
05:50 AM 43.3°F6.3°C 40.6°F4.8°C 90% 1.4 mph NW2.3 kmh NW 3.5 mph5.6 kmh 29.77 in1008.1 mb 0.00 in0.0 mm 0.00 in0.0 mm 0.00 in0.0 mm
05:49 AM 43.3°F6.3°C 40.6°F4.8°C 90% 1.3 mph NNW2.1 kmh NNW 3.5 mph5.6 kmh 29.78 in1008.5 mb 0.00 in0.0 mm 0.00 in0.0 mm 0.00 in0.0 mm
05:48 AM 43.3°F6.3°C 40.6°F4.8°C 90% 1.3 mph WSW2.1 kmh WSW 3.5 mph5.6 kmh 29.78 in1008.5 mb 0.00 in0.0 mm 0.00 in0.0 mm 0.00 in0.0 mm
05:47 AM 43.3°F6.3°C 40.6°F4.8°C 90% 1.4 mph NNW2.3 kmh NNW 3.5 mph5.6 kmh 29.77 in1008.1 mb 0.00 in0.0 mm 0.00 in0.0 mm 0.00 in0.0 mm
05:46 AM 43.3°F6.3°C 40.6°F4.8°C 90% 1.4 mph NNW2.3 kmh NNW 3.5 mph5.6 kmh 29.78 in1008.5 mb 0.00 in0.0 mm 0.00 in0.0 mm 0.00 in0.0 mm
05:45 AM 43.3°F6.3°C 40.6°F4.8°C 90% 1.5 mph NW2.4 kmh NW 4.4 mph7.1 kmh 29.77 in1008.1 mb 0.00 in0.0 mm 0.00 in0.0 mm 0.00 in0.0 mm
05:44 AM 43.3°F6.3°C 40.6°F4.8°C 90% 1.8 mph SW2.9 kmh SW 4.4 mph7.1 kmh 29.77 in1008.1 mb 0.00 in0.0 mm 0.00 in0.0 mm 0.00 in0.0 mm
05:43 AM 43.0°F6.1°C 40.2°F4.6°C 90% 2.0 mph SSE3.2 kmh SSE 4.4 mph7.1 kmh 29.77 in1008.1 mb 0.00 in0.0 mm 0.00 in0.0 mm 0.00 in0.0 mm
05:42 AM 43.0°F6.1°C 40.2°F4.6°C 90% 1.9 mph S3.1 kmh S 4.4 mph7.1 kmh 29.77 in1008.1 mb 0.00 in0.0 mm 0.00 in0.0 mm 0.00 in0.0 mm
05:41 AM 43.0°F6.1°C 40.2°F4.6°C 90% 2.0 mph S3.2 kmh S 4.4 mph7.1 kmh 29.77 in1008.1 mb 0.00 in0.0 mm 0.00 in0.0 mm 0.00 in0.0 mm
05:40 AM 43.0°F6.1°C 40.2°F4.6°C 90% 2.2 mph SSE3.5 kmh SSE 4.4 mph7.1 kmh 29.76 in1007.8 mb 0.00 in0.0 mm 0.00 in0.0 mm 0.00 in0.0 mm
05:39 AM 43.0°F6.1°C 40.2°F4.6°C 90% 2.5 mph SW4.0 kmh SW 5.2 mph8.4 kmh 29.77 in1008.1 mb 0.00 in0.0 mm 0.00 in0.0 mm 0.00 in0.0 mm
05:38 AM 43.0°F6.1°C 40.2°F4.6°C 90% 2.6 mph WSW4.2 kmh WSW 5.2 mph8.4 kmh 29.77 in1008.1 mb 0.00 in0.0 mm 0.00 in0.0 mm 0.00 in0.0 mm
05:37 AM 43.0°F6.1°C 40.2°F4.6°C 90% 2.8 mph WNW4.5 kmh WNW 5.2 mph8.4 kmh 29.76 in1007.8 mb 0.00 in0.0 mm 0.00 in0.0 mm 0.00 in0.0 mm
05:36 AM 43.3°F6.3°C 40.6°F4.8°C 90% 2.9 mph WNW4.7 kmh WNW 5.2 mph8.4 kmh 29.76 in1007.8 mb 0.00 in0.0 mm 0.00 in0.0 mm 0.00 in0.0 mm
05:35 AM 43.3°F6.3°C 40.9°F4.9°C 91% 2.8 mph WNW4.5 kmh WNW 5.2 mph8.4 kmh 29.76 in1007.8 mb 0.00 in0.0 mm 0.00 in0.0 mm 0.00 in0.0 mm
05:34 AM 43.0°F6.1°C 40.5°F4.7°C 91% 2.6 mph NW4.2 kmh NW 5.2 mph8.4 kmh 29.76 in1007.8 mb 0.00 in0.0 mm 0.00 in0.0 mm 0.00 in0.0 mm
05:33 AM 43.3°F6.3°C 40.9°F4.9°C 91% 2.4 mph NW3.9 kmh NW 5.2 mph8.4 kmh 29.76 in1007.8 mb 0.00 in0.0 mm 0.00 in0.0 mm 0.00 in0.0 mm
05:32 AM 43.3°F6.3°C 40.9°F4.9°C 91% 2.5 mph NW4.0 kmh NW 5.2 mph8.4 kmh 29.76 in1007.8 mb 0.00 in0.0 mm 0.00 in0.0 mm 0.00 in0.0 mm
05:31 AM 43.3°F6.3°C 40.9°F4.9°C 91% 2.5 mph NW4.0 kmh NW 5.2 mph8.4 kmh 29.76 in1007.8 mb 0.00 in0.0 mm 0.00 in0.0 mm 0.00 in0.0 mm
05:30 AM 43.5°F6.4°C 41.4°F5.2°C 92% 2.4 mph W3.9 kmh W 5.2 mph8.4 kmh 29.76 in1007.8 mb 0.00 in0.0 mm 0.00 in0.0 mm 0.00 in0.0 mm
05:29 AM 43.3°F6.3°C 41.2°F5.1°C 92% 2.0 mph WNW3.2 kmh WNW 4.4 mph7.1 kmh 29.76 in1007.8 mb 0.00 in0.0 mm 0.00 in0.0 mm 0.00 in0.0 mm
05:28 AM 43.0°F6.1°C 40.8°F4.9°C 92% 2.1 mph NW3.4 kmh NW 4.4 mph7.1 kmh 29.76 in1007.8 mb 0.00 in0.0 mm 0.00 in0.0 mm 0.00 in0.0 mm
05:27 AM 43.0°F6.1°C 40.8°F4.9°C 92% 2.0 mph W3.2 kmh W 4.4 mph7.1 kmh 29.76 in1007.8 mb 0.00 in0.0 mm 0.00 in0.0 mm 0.00 in0.0 mm
05:26 AM 43.0°F6.1°C 40.8°F4.9°C 92% 1.9 mph WSW3.1 kmh WSW 4.4 mph7.1 kmh 29.76 in1007.8 mb 0.00 in0.0 mm 0.00 in0.0 mm 0.00 in0.0 mm
05:25 AM 42.8°F6.0°C 40.6°F4.8°C 92% 2.0 mph WSW3.2 kmh WSW 4.4 mph7.1 kmh 29.75 in1007.5 mb 0.00 in0.0 mm 0.00 in0.0 mm 0.00 in0.0 mm
05:24 AM 43.0°F6.1°C 40.8°F4.9°C 92% 2.0 mph WSW3.2 kmh WSW 4.4 mph7.1 kmh 29.75 in1007.5 mb 0.00 in0.0 mm 0.00 in0.0 mm 0.00 in0.0 mm
05:23 AM 43.0°F6.1°C 40.8°F4.9°C 92% 2.0 mph WSW3.2 kmh WSW 4.4 mph7.1 kmh 29.75 in1007.5 mb 0.00 in0.0 mm 0.00 in0.0 mm 0.00 in0.0 mm
05:22 AM 43.0°F6.1°C 40.8°F4.9°C 92% 1.8 mph WSW2.9 kmh WSW 4.4 mph7.1 kmh 29.75 in1007.5 mb 0.00 in0.0 mm 0.00 in0.0 mm 0.00 in0.0 mm
05:21 AM 43.0°F6.1°C 40.8°F4.9°C 92% 1.5 mph W2.4 kmh W 4.4 mph7.1 kmh 29.75 in1007.5 mb 0.00 in0.0 mm 0.00 in0.0 mm 0.00 in0.0 mm
05:20 AM 43.0°F6.1°C 40.8°F4.9°C 92% 1.5 mph WNW2.4 kmh WNW 4.4 mph7.1 kmh 29.75 in1007.5 mb 0.00 in0.0 mm 0.00 in0.0 mm 0.00 in0.0 mm
05:19 AM 43.0°F6.1°C 40.8°F4.9°C 92% 1.5 mph NW2.4 kmh NW 4.4 mph7.1 kmh 29.75 in1007.5 mb 0.00 in0.0 mm 0.00 in0.0 mm 0.00 in0.0 mm
05:18 AM 43.0°F6.1°C 40.8°F4.9°C 92% 1.2 mph W1.9 kmh W 4.4 mph7.1 kmh 29.75 in1007.5 mb 0.00 in0.0 mm 0.00 in0.0 mm 0.00 in0.0 mm
05:17 AM 43.0°F6.1°C 40.8°F4.9°C 92% 1.0 mph WNW1.6 kmh WNW 2.6 mph4.2 kmh 29.74 in1007.1 mb 0.00 in0.0 mm 0.00 in0.0 mm 0.00 in0.0 mm
05:16 AM 43.0°F6.1°C 40.8°F4.9°C 92% 1.0 mph WNW1.6 kmh WNW 2.6 mph4.2 kmh 29.74 in1007.1 mb 0.00 in0.0 mm 0.00 in0.0 mm 0.00 in0.0 mm
05:15 AM 43.0°F6.1°C 40.8°F4.9°C 92% 1.0 mph NW1.6 kmh NW 2.6 mph4.2 kmh 29.75 in1007.5 mb 0.00 in0.0 mm 0.00 in0.0 mm 0.00 in0.0 mm
05:14 AM 43.0°F6.1°C 40.8°F4.9°C 92% 0.8 mph NW1.3 kmh NW 2.6 mph4.2 kmh 29.75 in1007.5 mb 0.00 in0.0 mm 0.00 in0.0 mm 0.00 in0.0 mm
05:13 AM 43.0°F6.1°C 40.8°F4.9°C 92% 0.8 mph WNW1.3 kmh WNW 2.6 mph4.2 kmh 29.74 in1007.1 mb 0.00 in0.0 mm 0.00 in0.0 mm 0.00 in0.0 mm
05:12 AM 43.0°F6.1°C 41.1°F5.1°C 93% 0.9 mph NW1.4 kmh NW 2.6 mph4.2 kmh 29.74 in1007.1 mb 0.00 in0.0 mm 0.00 in0.0 mm 0.00 in0.0 mm
05:11 AM 43.0°F6.1°C 41.1°F5.1°C 93% 1.1 mph WNW1.8 kmh WNW 2.6 mph4.2 kmh 29.74 in1007.1 mb 0.00 in0.0 mm 0.00 in0.0 mm 0.00 in0.0 mm
05:10 AM 43.0°F6.1°C 41.1°F5.1°C 93% 1.1 mph WNW1.8 kmh WNW 2.6 mph4.2 kmh 29.74 in1007.1 mb 0.00 in0.0 mm 0.00 in0.0 mm 0.00 in0.0 mm
05:09 AM 43.0°F6.1°C 41.1°F5.1°C 93% 1.1 mph WNW1.8 kmh WNW 2.6 mph4.2 kmh 29.74 in1007.1 mb 0.00 in0.0 mm 0.00 in0.0 mm 0.00 in0.0 mm
05:08 AM 43.0°F6.1°C 41.1°F5.1°C 93% 1.2 mph WNW1.9 kmh WNW 2.6 mph4.2 kmh 29.74 in1007.1 mb 0.00 in0.0 mm 0.00 in0.0 mm 0.00 in0.0 mm
05:07 AM 43.0°F6.1°C 41.1°F5.1°C 93% 1.1 mph WNW1.8 kmh WNW 2.6 mph4.2 kmh 29.74 in1007.1 mb 0.00 in0.0 mm 0.00 in0.0 mm 0.00 in0.0 mm
05:06 AM 43.0°F6.1°C 41.1°F5.1°C 93% 1.0 mph WNW1.6 kmh WNW 2.6 mph4.2 kmh 29.74 in1007.1 mb 0.00 in0.0 mm 0.00 in0.0 mm 0.00 in0.0 mm
05:05 AM 43.0°F6.1°C 41.1°F5.1°C 93% 0.7 mph WNW1.1 kmh WNW 1.7 mph2.7 kmh 29.75 in1007.5 mb 0.00 in0.0 mm 0.00 in0.0 mm 0.00 in0.0 mm
05:04 AM 43.0°F6.1°C 41.1°F5.1°C 93% 0.8 mph W1.3 kmh W 1.7 mph2.7 kmh 29.74 in1007.1 mb 0.00 in0.0 mm 0.00 in0.0 mm 0.00 in0.0 mm
05:03 AM 43.0°F6.1°C 41.1°F5.1°C 93% 0.8 mph NW1.3 kmh NW 1.7 mph2.7 kmh 29.74 in1007.1 mb 0.00 in0.0 mm 0.00 in0.0 mm 0.00 in0.0 mm
05:02 AM 43.0°F6.1°C 41.1°F5.1°C 93% 0.6 mph WSW1.0 kmh WSW 1.7 mph2.7 kmh 29.74 in1007.1 mb 0.00 in0.0 mm 0.00 in0.0 mm 0.00 in0.0 mm
05:01 AM 43.0°F6.1°C 41.1°F5.1°C 93% 0.5 mph WNW0.8 kmh WNW 1.7 mph2.7 kmh 29.74 in1007.1 mb 0.00 in0.0 mm 0.00 in0.0 mm 0.00 in0.0 mm
05:00 AM 43.0°F6.1°C 41.1°F5.1°C 93% 0.4 mph W0.6 kmh W 1.7 mph2.7 kmh 29.74 in1007.1 mb 0.00 in0.0 mm 0.00 in0.0 mm 0.00 in0.0 mm
04:59 AM 43.0°F6.1°C 41.1°F5.1°C 93% 0.3 mph WNW0.5 kmh WNW 1.7 mph2.7 kmh 29.73 in1006.8 mb 0.00 in0.0 mm 0.00 in0.0 mm 0.00 in0.0 mm
04:58 AM 43.0°F6.1°C 41.1°F5.1°C 93% 0.3 mph WNW0.5 kmh WNW 1.7 mph2.7 kmh 29.73 in1006.8 mb 0.00 in0.0 mm 0.00 in0.0 mm 0.00 in0.0 mm
04:57 AM 43.0°F6.1°C 41.1°F5.1°C 93% 0.2 mph WNW0.3 kmh WNW 1.7 mph2.7 kmh 29.73 in1006.8 mb 0.00 in0.0 mm 0.00 in0.0 mm 0.00 in0.0 mm
04:56 AM 43.0°F6.1°C 41.1°F5.1°C 93% 0.4 mph S0.6 kmh S 1.7 mph2.7 kmh 29.74 in1007.1 mb 0.00 in0.0 mm 0.00 in0.0 mm 0.00 in0.0 mm
04:55 AM 43.0°F6.1°C 41.1°F5.1°C 93% 0.6 mph S1.0 kmh S 2.6 mph4.2 kmh 29.74 in1007.1 mb 0.00 in0.0 mm 0.00 in0.0 mm 0.00 in0.0 mm
04:54 AM 43.0°F6.1°C 41.1°F5.1°C 93% 0.5 mph S0.8 kmh S 3.5 mph5.6 kmh 29.74 in1007.1 mb 0.00 in0.0 mm 0.00 in0.0 mm 0.00 in0.0 mm
04:53 AM 43.0°F6.1°C 41.1°F5.1°C 93% 0.8 mph SSE1.3 kmh SSE 3.5 mph5.6 kmh 29.73 in1006.8 mb 0.00 in0.0 mm 0.00 in0.0 mm 0.00 in0.0 mm
04:52 AM 43.0°F6.1°C 41.4°F5.2°C 94% 1.1 mph S1.8 kmh S 3.5 mph5.6 kmh 29.73 in1006.8 mb 0.00 in0.0 mm 0.00 in0.0 mm 0.00 in0.0 mm
04:51 AM 43.0°F6.1°C 41.4°F5.2°C 94% 1.5 mph S2.4 kmh S 3.5 mph5.6 kmh 29.74 in1007.1 mb 0.00 in0.0 mm 0.00 in0.0 mm 0.00 in0.0 mm
04:50 AM 43.0°F6.1°C 41.4°F5.2°C 94% 1.5 mph S2.4 kmh S 3.5 mph5.6 kmh 29.73 in1006.8 mb 0.00 in0.0 mm 0.00 in0.0 mm 0.00 in0.0 mm
04:49 AM 43.0°F6.1°C 41.4°F5.2°C 94% 1.6 mph S2.6 kmh S 3.5 mph5.6 kmh 29.74 in1007.1 mb 0.00 in0.0 mm 0.00 in0.0 mm 0.00 in0.0 mm
04:48 AM 43.3°F6.3°C 41.7°F5.4°C 94% 1.7 mph S2.7 kmh S 3.5 mph5.6 kmh 29.73 in1006.8 mb 0.00 in0.0 mm 0.00 in0.0 mm 0.00 in0.0 mm
04:47 AM 43.3°F6.3°C 41.7°F5.4°C 94% 2.1 mph S3.4 kmh S 4.4 mph7.1 kmh 29.74 in1007.1 mb 0.00 in0.0 mm 0.00 in0.0 mm 0.00 in0.0 mm
04:46 AM 43.3°F6.3°C 41.7°F5.4°C 94% 2.4 mph S3.9 kmh S 4.4 mph7.1 kmh 29.73 in1006.8 mb 0.00 in0.0 mm 0.00 in0.0 mm 0.00 in0.0 mm
04:45 AM 43.3°F6.3°C 41.7°F5.4°C 94% 2.3 mph SW3.7 kmh SW 4.4 mph7.1 kmh 29.73 in1006.8 mb 0.00 in0.0 mm 0.00 in0.0 mm 0.00 in0.0 mm
04:44 AM 43.3°F6.3°C 41.7°F5.4°C 94% 2.4 mph WSW3.9 kmh WSW 4.4 mph7.1 kmh 29.73 in1006.8 mb 0.00 in0.0 mm 0.00 in0.0 mm 0.00 in0.0 mm
04:43 AM 43.3°F6.3°C 41.7°F5.4°C 94% 2.1 mph WNW3.4 kmh WNW 4.4 mph7.1 kmh 29.73 in1006.8 mb 0.00 in0.0 mm 0.00 in0.0 mm 0.00 in0.0 mm
04:42 AM 43.0°F6.1°C 41.4°F5.2°C 94% 1.7 mph NW2.7 kmh NW 4.4 mph7.1 kmh 29.73 in1006.8 mb 0.00 in0.0 mm 0.00 in0.0 mm 0.00 in0.0 mm
04:41 AM 43.3°F6.3°C 42.0°F5.6°C 95% 1.3 mph NW2.1 kmh NW 4.4 mph7.1 kmh 29.73 in1006.8 mb 0.00 in0.0 mm 0.00 in0.0 mm 0.00 in0.0 mm
04:40 AM 43.3°F6.3°C 42.0°F5.6°C 95% 1.4 mph NW2.3 kmh NW 4.4 mph7.1 kmh 29.73 in1006.8 mb 0.00 in0.0 mm 0.00 in0.0 mm 0.00 in0.0 mm
04:39 AM 43.3°F6.3°C 42.0°F5.6°C 95% 1.5 mph W2.4 kmh W 4.4 mph7.1 kmh 29.73 in1006.8 mb 0.00 in0.0 mm 0.00 in0.0 mm 0.00 in0.0 mm
04:38 AM 43.3°F6.3°C 42.0°F5.6°C 95% 1.6 mph W2.6 kmh W 4.4 mph7.1 kmh 29.73 in1006.8 mb 0.00 in0.0 mm 0.00 in0.0 mm 0.00 in0.0 mm
04:37 AM 43.3°F6.3°C 42.0°F5.6°C 95% 1.6 mph WSW2.6 kmh WSW 4.4 mph7.1 kmh 29.73 in1006.8 mb 0.00 in0.0 mm 0.00 in0.0 mm 0.00 in0.0 mm
04:36 AM 43.3°F6.3°C 42.0°F5.6°C 95% 1.5 mph WSW2.4 kmh WSW 3.5 mph5.6 kmh 29.73 in1006.8 mb 0.00 in0.0 mm 0.00 in0.0 mm 0.00 in0.0 mm
04:35 AM 43.3°F6.3°C 42.0°F5.6°C 95% 1.5 mph WSW2.4 kmh WSW 3.5 mph5.6 kmh 29.73 in1006.8 mb 0.00 in0.0 mm 0.00 in0.0 mm 0.00 in0.0 mm
04:34 AM 43.3°F6.3°C 42.0°F5.6°C 95% 1.3 mph WSW2.1 kmh WSW 3.5 mph5.6 kmh 29.73 in1006.8 mb 0.00 in0.0 mm 0.00 in0.0 mm 0.00 in0.0 mm
04:33 AM 43.3°F6.3°C 42.0°F5.6°C 95% 1.2 mph WSW1.9 kmh WSW 3.5 mph5.6 kmh 29.73 in1006.8 mb 0.00 in0.0 mm 0.00 in0.0 mm 0.00 in0.0 mm
04:32 AM 43.3°F6.3°C 42.0°F5.6°C 95% 1.2 mph WSW1.9 kmh WSW 3.5 mph5.6 kmh 29.73 in1006.8 mb 0.00 in0.0 mm 0.00 in0.0 mm 0.00 in0.0 mm
04:31 AM 43.3°F6.3°C 42.3°F5.7°C 96% 1.3 mph WSW2.1 kmh WSW 3.5 mph5.6 kmh 29.73 in1006.8 mb 0.00 in0.0 mm 0.00 in0.0 mm 0.00 in0.0 mm
04:30 AM 43.3°F6.3°C 42.3°F5.7°C 96% 1.2 mph WSW1.9 kmh WSW 3.5 mph5.6 kmh 29.73 in1006.8 mb 0.00 in0.0 mm 0.00 in0.0 mm 0.00 in0.0 mm
04:29 AM 43.3°F6.3°C 42.3°F5.7°C 96% 1.1 mph WSW1.8 kmh WSW 3.5 mph5.6 kmh 29.73 in1006.8 mb 0.00 in0.0 mm 0.00 in0.0 mm 0.00 in0.0 mm
04:28 AM 43.3°F6.3°C 42.3°F5.7°C 96% 1.0 mph SW1.6 kmh SW 3.5 mph5.6 kmh 29.73 in1006.8 mb 0.00 in0.0 mm 0.00 in0.0 mm 0.00 in0.0 mm
04:27 AM 43.3°F6.3°C 42.3°F5.7°C 96% 0.9 mph SW1.4 kmh SW 3.5 mph5.6 kmh 29.72 in1006.4 mb 0.00 in0.0 mm 0.00 in0.0 mm 0.00 in0.0 mm
04:26 AM 43.3°F6.3°C 42.3°F5.7°C 96% 0.7 mph WSW1.1 kmh WSW 2.6 mph4.2 kmh 29.73 in1006.8 mb 0.00 in0.0 mm 0.00 in0.0 mm 0.00 in0.0 mm
04:25 AM 43.3°F6.3°C 42.3°F5.7°C 96% 0.6 mph SW1.0 kmh SW 2.6 mph4.2 kmh 29.73 in1006.8 mb 0.00 in0.0 mm 0.00 in0.0 mm 0.00 in0.0 mm
04:24 AM 43.3°F6.3°C 42.3°F5.7°C 96% 0.8 mph SW1.3 kmh SW 2.6 mph4.2 kmh 29.73 in1006.8 mb 0.00 in0.0 mm 0.00 in0.0 mm 0.00 in0.0 mm
04:23 AM 43.3°F6.3°C 42.3°F5.7°C 96% 0.9 mph SW1.4 kmh SW 2.6 mph4.2 kmh 29.72 in1006.4 mb 0.00 in0.0 mm 0.00 in0.0 mm 0.00 in0.0 mm
04:22 AM 43.3°F6.3°C 42.3°F5.7°C 96% 0.9 mph SW1.4 kmh SW 2.6 mph4.2 kmh 29.73 in1006.8 mb 0.00 in0.0 mm 0.00 in0.0 mm 0.00 in0.0 mm
04:21 AM 43.3°F6.3°C 42.3°F5.7°C 96% 1.0 mph SW1.6 kmh SW 2.6 mph4.2 kmh 29.73 in1006.8 mb 0.00 in0.0 mm 0.00 in0.0 mm 0.00 in0.0 mm
04:20 AM 43.3°F6.3°C 42.3°F5.7°C 96% 1.1 mph SW1.8 kmh SW 2.6 mph4.2 kmh 29.73 in1006.8 mb 0.00 in0.0 mm 0.00 in0.0 mm 0.00 in0.0 mm
04:19 AM 43.3°F6.3°C 42.3°F5.7°C 96% 1.2 mph SW1.9 kmh SW 2.6 mph4.2 kmh 29.72 in1006.4 mb 0.00 in0.0 mm 0.00 in0.0 mm 0.00 in0.0 mm
04:18 AM 43.5°F6.4°C 42.5°F5.8°C 96% 1.3 mph SW2.1 kmh SW 2.6 mph4.2 kmh 29.72 in1006.4 mb 0.00 in0.0 mm 0.00 in0.0 mm 0.00 in0.0 mm
04:17 AM 43.5°F6.4°C 42.5°F5.8°C 96% 1.3 mph SW2.1 kmh SW 2.6 mph4.2 kmh 29.72 in1006.4 mb 0.00 in0.0 mm 0.00 in0.0 mm 0.00 in0.0 mm
04:16 AM 43.5°F6.4°C 42.5°F5.8°C 96% 1.3 mph SW2.1 kmh SW 2.6 mph4.2 kmh 29.73 in1006.8 mb 0.00 in0.0 mm 0.00 in0.0 mm 0.00 in0.0 mm
04:15 AM 43.5°F6.4°C 42.7°F5.9°C 97% 1.5 mph WSW2.4 kmh WSW 2.6 mph4.2 kmh 29.73 in1006.8 mb 0.00 in0.0 mm 0.00 in0.0 mm 0.00 in0.0 mm
04:14 AM 43.5°F6.4°C 42.7°F5.9°C 97% 1.5 mph WSW2.4 kmh WSW 2.6 mph4.2 kmh 29.72 in1006.4 mb 0.00 in0.0 mm 0.00 in0.0 mm 0.00 in0.0 mm
04:13 AM 43.5°F6.4°C 42.7°F5.9°C 97% 1.6 mph W2.6 kmh W 2.6 mph4.2 kmh 29.72 in1006.4 mb 0.00 in0.0 mm 0.00 in0.0 mm 0.00 in0.0 mm
04:12 AM 43.5°F6.4°C 42.7°F5.9°C 97% 1.7 mph W2.7 kmh W 2.6 mph4.2 kmh 29.72 in1006.4 mb 0.00 in0.0 mm 0.00 in0.0 mm 0.00 in0.0 mm
04:11 AM 43.7°F6.5°C 42.9°F6.1°C 97% 1.9 mph WNW3.1 kmh WNW 2.6 mph4.2 kmh 29.72 in1006.4 mb 0.00 in0.0 mm 0.00 in0.0 mm 0.00 in0.0 mm
04:10 AM 43.7°F6.5°C 42.9°F6.1°C 97% 1.8 mph NW2.9 kmh NW 2.6 mph4.2 kmh 29.72 in1006.4 mb 0.00 in0.0 mm 0.00 in0.0 mm 0.00 in0.0 mm
04:09 AM 43.5°F6.4°C 42.7°F5.9°C 97% 1.8 mph NW2.9 kmh NW 2.6 mph4.2 kmh 29.72 in1006.4 mb 0.00 in0.0 mm 0.00 in0.0 mm 0.00 in0.0 mm
04:08 AM 43.7°F6.5°C 42.9°F6.1°C 97% 1.8 mph NW2.9 kmh NW 2.6 mph4.2 kmh 29.72 in1006.4 mb 0.00 in0.0 mm 0.00 in0.0 mm 0.00 in0.0 mm
04:07 AM 44.1°F6.7°C 43.5°F6.4°C 98% 1.9 mph WNW3.1 kmh WNW 3.5 mph5.6 kmh 29.72 in1006.4 mb 0.00 in0.0 mm 0.00 in0.0 mm 0.00 in0.0 mm
04:06 AM 44.1°F6.7°C 43.5°F6.4°C 98% 2.0 mph NW3.2 kmh NW 3.5 mph5.6 kmh 29.72 in1006.4 mb 0.00 in0.0 mm 0.00 in0.0 mm 0.00 in0.0 mm
04:05 AM 44.1°F6.7°C 43.5°F6.4°C 98% 2.1 mph NW3.4 kmh NW 3.5 mph5.6 kmh 29.72 in1006.4 mb 0.00 in0.0 mm 0.00 in0.0 mm 0.00 in0.0 mm
04:04 AM 44.1°F6.7°C 43.5°F6.4°C 98% 2.1 mph NW3.4 kmh NW 3.5 mph5.6 kmh 29.72 in1006.4 mb 0.00 in0.0 mm 0.00 in0.0 mm 0.00 in0.0 mm
04:03 AM 44.1°F6.7°C 43.5°F6.4°C 98% 2.2 mph NW3.5 kmh NW 3.5 mph5.6 kmh 29.72 in1006.4 mb 0.00 in0.0 mm 0.00 in0.0 mm 0.00 in0.0 mm
04:02 AM 44.1°F6.7°C 43.5°F6.4°C 98% 2.0 mph NW3.2 kmh NW 3.5 mph5.6 kmh 29.72 in1006.4 mb 0.00 in0.0 mm 0.00 in0.0 mm 0.00 in0.0 mm
04:01 AM 44.1°F6.7°C 43.5°F6.4°C 98% 1.9 mph NW3.1 kmh NW 3.5 mph5.6 kmh 29.71 in1006.1 mb 0.00 in0.0 mm 0.00 in0.0 mm 0.00 in0.0 mm
04:00 AM 44.1°F6.7°C 43.5°F6.4°C 98% 1.9 mph NW3.1 kmh NW 3.5 mph5.6 kmh 29.71 in1006.1 mb 0.00 in0.0 mm 0.00 in0.0 mm 0.00 in0.0 mm
03:59 AM 44.1°F6.7°C 43.5°F6.4°C 98% 1.9 mph NW3.1 kmh NW 3.5 mph5.6 kmh 29.72 in1006.4 mb 0.00 in0.0 mm 0.00 in0.0 mm 0.00 in0.0 mm
03:58 AM 44.1°F6.7°C 43.5°F6.4°C 98% 1.8 mph NNW2.9 kmh NNW 3.5 mph5.6 kmh 29.72 in1006.4 mb 0.00 in0.0 mm 0.00 in0.0 mm 0.00 in0.0 mm
03:57 AM 43.9°F6.6°C 43.4°F6.3°C 98% 1.6 mph NNW2.6 kmh NNW 3.5 mph5.6 kmh 29.72 in1006.4 mb 0.00 in0.0 mm 0.00 in0.0 mm 0.00 in0.0 mm
03:56 AM 43.9°F6.6°C 43.4°F6.3°C 98% 1.5 mph NW2.4 kmh NW 3.5 mph5.6 kmh 29.71 in1006.1 mb 0.00 in0.0 mm 0.00 in0.0 mm 0.00 in0.0 mm
03:55 AM 43.9°F6.6°C 43.4°F6.3°C 98% 1.5 mph NW2.4 kmh NW 3.5 mph5.6 kmh 29.72 in1006.4 mb 0.00 in0.0 mm 0.00 in0.0 mm 0.00 in0.0 mm
03:54 AM 43.9°F6.6°C 43.4°F6.3°C 98% 1.3 mph WSW2.1 kmh WSW 3.5 mph5.6 kmh 29.71 in1006.1 mb 0.00 in0.0 mm 0.00 in0.0 mm 0.00 in0.0 mm
03:53 AM 43.9°F6.6°C 43.4°F6.3°C 98% 1.3 mph SW2.1 kmh SW 3.5 mph5.6 kmh 29.71 in1006.1 mb 0.00 in0.0 mm 0.00 in0.0 mm 0.00 in0.0 mm
03:52 AM 43.9°F6.6°C 43.4°F6.3°C 98% 1.6 mph SW2.6 kmh SW 5.2 mph8.4 kmh 29.71 in1006.1 mb 0.00 in0.0 mm 0.00 in0.0 mm 0.00 in0.0 mm
03:51 AM 43.9°F6.6°C 43.4°F6.3°C 98% 1.8 mph SW2.9 kmh SW 5.2 mph8.4 kmh 29.71 in1006.1 mb 0.00 in0.0 mm 0.00 in0.0 mm 0.00 in0.0 mm
03:50 AM 44.1°F6.7°C 43.5°F6.4°C 98% 1.7 mph SW2.7 kmh SW 5.2 mph8.4 kmh 29.71 in1006.1 mb 0.00 in0.0 mm 0.00 in0.0 mm 0.00 in0.0 mm
03:49 AM 44.1°F6.7°C 43.5°F6.4°C 98% 1.6 mph SSW2.6 kmh SSW 5.2 mph8.4 kmh 29.71 in1006.1 mb 0.00 in0.0 mm 0.00 in0.0 mm 0.00 in0.0 mm
03:48 AM 44.1°F6.7°C 43.5°F6.4°C 98% 1.7 mph SW2.7 kmh SW 5.2 mph8.4 kmh 29.71 in1006.1 mb 0.00 in0.0 mm 0.00 in0.0 mm 0.00 in0.0 mm
03:47 AM 44.1°F6.7°C 43.5°F6.4°C 98% 1.9 mph SW3.1 kmh SW 5.2 mph8.4 kmh 29.71 in1006.1 mb 0.00 in0.0 mm 0.00 in0.0 mm 0.00 in0.0 mm
03:46 AM 44.1°F6.7°C 43.5°F6.4°C 98% 2.0 mph SW3.2 kmh SW 5.2 mph8.4 kmh 29.71 in1006.1 mb 0.00 in0.0 mm 0.00 in0.0 mm 0.00 in0.0 mm
03:45 AM 43.9°F6.6°C 43.4°F6.3°C 98% 1.6 mph SW2.6 kmh SW 5.2 mph8.4 kmh 29.71 in1006.1 mb 0.00 in0.0 mm 0.00 in0.0 mm 0.00 in0.0 mm
03:44 AM 44.1°F6.7°C 43.5°F6.4°C 98% 1.6 mph SW2.6 kmh SW 5.2 mph8.4 kmh 29.71 in1006.1 mb 0.00 in0.0 mm 0.00 in0.0 mm 0.00 in0.0 mm
03:43 AM 44.1°F6.7°C 43.5°F6.4°C 98% 1.6 mph SW2.6 kmh SW 5.2 mph8.4 kmh 29.71 in1006.1 mb 0.00 in0.0 mm 0.00 in0.0 mm 0.00 in0.0 mm
03:42 AM 43.9°F6.6°C 43.4°F6.3°C 98% 1.3 mph WSW2.1 kmh WSW 5.2 mph8.4 kmh 29.71 in1006.1 mb 0.00 in0.0 mm 0.00 in0.0 mm 0.00 in0.0 mm
03:41 AM 43.7°F6.5°C 43.2°F6.2°C 98% 1.4 mph SW2.3 kmh SW 3.5 mph5.6 kmh 29.71 in1006.1 mb 0.00 in0.0 mm 0.00 in0.0 mm 0.00 in0.0 mm
03:40 AM 43.7°F6.5°C 43.2°F6.2°C 98% 1.5 mph SW2.4 kmh SW 3.5 mph5.6 kmh 29.71 in1006.1 mb 0.00 in0.0 mm 0.00 in0.0 mm 0.00 in0.0 mm
03:39 AM 43.7°F6.5°C 43.2°F6.2°C 98% 1.5 mph SW2.4 kmh SW 3.5 mph5.6 kmh 29.71 in1006.1 mb 0.00 in0.0 mm 0.00 in0.0 mm 0.00 in0.0 mm
03:38 AM 43.9°F6.6°C 43.4°F6.3°C 98% 1.5 mph SW2.4 kmh SW 3.5 mph5.6 kmh 29.70 in1005.8 mb 0.00 in0.0 mm 0.00 in0.0 mm 0.00 in0.0 mm
03:37 AM 43.9°F6.6°C 43.4°F6.3°C 98% 1.5 mph SW2.4 kmh SW 3.5 mph5.6 kmh 29.70 in1005.8 mb 0.00 in0.0 mm 0.00 in0.0 mm 0.00 in0.0 mm
03:36 AM 43.9°F6.6°C 43.4°F6.3°C 98% 1.5 mph SW2.4 kmh SW 3.5 mph5.6 kmh 29.71 in1006.1 mb 0.00 in0.0 mm 0.00 in0.0 mm 0.00 in0.0 mm
03:35 AM 43.9°F6.6°C 43.4°F6.3°C 98% 1.6 mph SW2.6 kmh SW 3.5 mph5.6 kmh 29.71 in1006.1 mb 0.00 in0.0 mm 0.00 in0.0 mm 0.00 in0.0 mm
03:34 AM 43.9°F6.6°C 43.4°F6.3°C 98% 1.7 mph SW2.7 kmh SW 3.5 mph5.6 kmh 29.71 in1006.1 mb 0.00 in0.0 mm 0.00 in0.0 mm 0.00 in0.0 mm
03:33 AM 43.9°F6.6°C 43.4°F6.3°C 98% 1.7 mph SW2.7 kmh SW 3.5 mph5.6 kmh 29.70 in1005.8 mb 0.00 in0.0 mm 0.00 in0.0 mm 0.00 in0.0 mm
03:32 AM 44.1°F6.7°C 43.5°F6.4°C 98% 1.7 mph SW2.7 kmh SW 3.5 mph5.6 kmh 29.71 in1006.1 mb 0.00 in0.0 mm 0.00 in0.0 mm 0.00 in0.0 mm
03:31 AM 44.1°F6.7°C 43.5°F6.4°C 98% 1.6 mph SW2.6 kmh SW 3.5 mph5.6 kmh 29.70 in1005.8 mb 0.00 in0.0 mm 0.00 in0.0 mm 0.00 in0.0 mm
03:30 AM 44.1°F6.7°C 43.5°F6.4°C 98% 1.7 mph WSW2.7 kmh WSW 2.6 mph4.2 kmh 29.70 in1005.8 mb 0.00 in0.0 mm 0.00 in0.0 mm 0.00 in0.0 mm
03:29 AM 44.1°F6.7°C 43.5°F6.4°C 98% 1.8 mph W2.9 kmh W 2.6 mph4.2 kmh 29.70 in1005.8 mb 0.00 in0.0 mm 0.00 in0.0 mm 0.00 in0.0 mm
03:28 AM 43.9°F6.6°C 43.4°F6.3°C 98% 1.9 mph W3.1 kmh W 3.5 mph5.6 kmh 29.70 in1005.8 mb 0.00 in0.0 mm 0.00 in0.0 mm 0.00 in0.0 mm
03:27 AM 43.9°F6.6°C 43.4°F6.3°C 98% 2.0 mph WSW3.2 kmh WSW 3.5 mph5.6 kmh 29.70 in1005.8 mb 0.00 in0.0 mm 0.00 in0.0 mm 0.00 in0.0 mm
03:26 AM 44.1°F6.7°C 43.5°F6.4°C 98% 1.9 mph SW3.1 kmh SW 3.5 mph5.6 kmh 29.69 in1005.4 mb 0.00 in0.0 mm 0.00 in0.0 mm 0.00 in0.0 mm
03:25 AM 44.1°F6.7°C 43.5°F6.4°C 98% 1.7 mph WSW2.7 kmh WSW 3.5 mph5.6 kmh 29.70 in1005.8 mb 0.00 in0.0 mm 0.00 in0.0 mm 0.00 in0.0 mm
03:24 AM 44.2°F6.8°C 43.7°F6.5°C 98% 1.7 mph WSW2.7 kmh WSW 3.5 mph5.6 kmh 29.70 in1005.8 mb 0.00 in0.0 mm 0.00 in0.0 mm 0.00 in0.0 mm
03:23 AM 44.2°F6.8°C 43.7°F6.5°C 98% 1.7 mph WSW2.7 kmh WSW 3.5 mph5.6 kmh 29.70 in1005.8 mb 0.00 in0.0 mm 0.00 in0.0 mm 0.00 in0.0 mm
03:22 AM 44.2°F6.8°C 43.7°F6.5°C 98% 1.5 mph W2.4 kmh W 3.5 mph5.6 kmh 29.70 in1005.8 mb 0.00 in0.0 mm 0.00 in0.0 mm 0.00 in0.0 mm
03:21 AM 44.1°F6.7°C 43.5°F6.4°C 98% 1.3 mph NW2.1 kmh NW 3.5 mph5.6 kmh 29.70 in1005.8 mb 0.00 in0.0 mm 0.00 in0.0 mm 0.00 in0.0 mm
03:20 AM 44.2°F6.8°C 43.7°F6.5°C 98% 1.3 mph WSW2.1 kmh WSW 3.5 mph5.6 kmh 29.69 in1005.4 mb 0.00 in0.0 mm 0.00 in0.0 mm 0.00 in0.0 mm
03:19 AM 44.2°F6.8°C 43.7°F6.5°C 98% 1.1 mph WSW1.8 kmh WSW 3.5 mph5.6 kmh 29.69 in1005.4 mb 0.00 in0.0 mm 0.00 in0.0 mm 0.00 in0.0 mm
03:18 AM 44.1°F6.7°C 43.5°F6.4°C 98% 0.8 mph SSW1.3 kmh SSW 3.5 mph5.6 kmh 29.69 in1005.4 mb 0.00 in0.0 mm 0.00 in0.0 mm 0.00 in0.0 mm
03:17 AM 44.1°F6.7°C 43.5°F6.4°C 98% 0.8 mph W1.3 kmh W 2.6 mph4.2 kmh 29.69 in1005.4 mb 0.00 in0.0 mm 0.00 in0.0 mm 0.00 in0.0 mm
03:16 AM 44.1°F6.7°C 43.5°F6.4°C 98% 0.9 mph NW1.4 kmh NW 2.6 mph4.2 kmh 29.70 in1005.8 mb 0.00 in0.0 mm 0.00 in0.0 mm 0.00 in0.0 mm
03:15 AM 44.1°F6.7°C 43.5°F6.4°C 98% 0.9 mph NW1.4 kmh NW 2.6 mph4.2 kmh 29.70 in1005.8 mb 0.00 in0.0 mm 0.00 in0.0 mm 0.00 in0.0 mm
03:14 AM 44.1°F6.7°C 43.5°F6.4°C 98% 1.2 mph NNW1.9 kmh NNW 2.6 mph4.2 kmh 29.69 in1005.4 mb 0.00 in0.0 mm 0.00 in0.0 mm 0.00 in0.0 mm
03:13 AM 44.2°F6.8°C 43.7°F6.5°C 98% 1.2 mph NNW1.9 kmh NNW 2.6 mph4.2 kmh 29.69 in1005.4 mb 0.00 in0.0 mm 0.00 in0.0 mm 0.00 in0.0 mm
03:12 AM 44.2°F6.8°C 43.7°F6.5°C 98% 1.3 mph NW2.1 kmh NW 2.6 mph4.2 kmh 29.69 in1005.4 mb 0.00 in0.0 mm 0.00 in0.0 mm 0.00 in0.0 mm
03:11 AM 44.2°F6.8°C 43.7°F6.5°C 98% 1.5 mph NNW2.4 kmh NNW 2.6 mph4.2 kmh 29.69 in1005.4 mb 0.00 in0.0 mm 0.00 in0.0 mm 0.00 in0.0 mm
03:10 AM 44.2°F6.8°C 43.7°F6.5°C 98% 1.5 mph NNW2.4 kmh NNW 2.6 mph4.2 kmh 29.69 in1005.4 mb 0.00 in0.0 mm 0.00 in0.0 mm 0.00 in0.0 mm
03:09 AM 44.2°F6.8°C 43.7°F6.5°C 98% 1.5 mph NW2.4 kmh NW 2.6 mph4.2 kmh 29.69 in1005.4 mb 0.00 in0.0 mm 0.00 in0.0 mm 0.00 in0.0 mm
03:08 AM 44.2°F6.8°C 43.7°F6.5°C 98% 1.6 mph NW2.6 kmh NW 2.6 mph4.2 kmh 29.69 in1005.4 mb 0.00 in0.0 mm 0.00 in0.0 mm 0.00 in0.0 mm
03:07 AM 44.4°F6.9°C 43.9°F6.6°C 98% 1.5 mph NW2.4 kmh NW 2.6 mph4.2 kmh 29.69 in1005.4 mb 0.00 in0.0 mm 0.00 in0.0 mm 0.00 in0.0 mm
03:06 AM 44.4°F6.9°C 43.9°F6.6°C 98% 1.3 mph WSW2.1 kmh WSW 2.6 mph4.2 kmh 29.69 in1005.4 mb 0.00 in0.0 mm 0.00 in0.0 mm 0.00 in0.0 mm
03:05 AM 44.4°F6.9°C 43.9°F6.6°C 98% 1.4 mph WSW2.3 kmh WSW 3.5 mph5.6 kmh 29.69 in1005.4 mb 0.00 in0.0 mm 0.00 in0.0 mm 0.00 in0.0 mm
03:04 AM 44.4°F6.9°C 43.9°F6.6°C 98% 1.4 mph WSW2.3 kmh WSW 3.5 mph5.6 kmh 29.69 in1005.4 mb 0.00 in0.0 mm 0.00 in0.0 mm 0.00 in0.0 mm
03:03 AM 44.4°F6.9°C 43.9°F6.6°C 98% 1.6 mph W2.6 kmh W 3.5 mph5.6 kmh 29.69 in1005.4 mb 0.00 in0.0 mm 0.00 in0.0 mm 0.00 in0.0 mm
03:02 AM 44.4°F6.9°C 43.9°F6.6°C 98% 1.6 mph W2.6 kmh W 3.5 mph5.6 kmh 29.69 in1005.4 mb 0.00 in0.0 mm 0.00 in0.0 mm 0.00 in0.0 mm
03:01 AM 44.4°F6.9°C 43.9°F6.6°C 98% 1.3 mph WSW2.1 kmh WSW 3.5 mph5.6 kmh 29.69 in1005.4 mb 0.00 in0.0 mm 0.00 in0.0 mm 0.00 in0.0 mm
03:00 AM 44.4°F6.9°C 43.9°F6.6°C 98% 1.1 mph W1.8 kmh W 3.5 mph5.6 kmh 29.69 in1005.4 mb 0.00 in0.0 mm 0.00 in0.0 mm 0.00 in0.0 mm
02:59 AM 44.4°F6.9°C 43.9°F6.6°C 98% 1.0 mph W1.6 kmh W 3.5 mph5.6 kmh 29.69 in1005.4 mb 0.00 in0.0 mm 0.00 in0.0 mm 0.00 in0.0 mm
02:58 AM 44.4°F6.9°C 43.9°F6.6°C 98% 0.9 mph W1.4 kmh W 3.5 mph5.6 kmh 29.69 in1005.4 mb 0.00 in0.0 mm 0.00 in0.0 mm 0.00 in0.0 mm
02:57 AM 44.6°F7.0°C 43.8°F6.6°C 97% 1.0 mph W1.6 kmh W 3.5 mph5.6 kmh 29.69 in1005.4 mb 0.00 in0.0 mm 0.00 in0.0 mm 0.00 in0.0 mm
02:56 AM 44.6°F7.0°C 43.8°F6.6°C 97% 1.1 mph W1.8 kmh W 3.5 mph5.6 kmh 29.69 in1005.4 mb 0.00 in0.0 mm 0.00 in0.0 mm 0.00 in0.0 mm
02:55 AM 44.8°F7.1°C 44.0°F6.7°C 97% 0.9 mph WNW1.4 kmh WNW 3.5 mph5.6 kmh 29.69 in1005.4 mb 0.00 in0.0 mm 0.00 in0.0 mm 0.00 in0.0 mm
02:54 AM 44.8°F7.1°C 44.0°F6.7°C 97% 0.6 mph WNW1.0 kmh WNW 2.6 mph4.2 kmh 29.69 in1005.4 mb 0.00 in0.0 mm 0.00 in0.0 mm 0.00 in0.0 mm
02:53 AM 44.8°F7.1°C 44.0°F6.7°C 97% 0.4 mph SW0.6 kmh SW 2.6 mph4.2 kmh 29.69 in1005.4 mb 0.00 in0.0 mm 0.00 in0.0 mm 0.00 in0.0 mm
02:52 AM 44.8°F7.1°C 44.0°F6.7°C 97% 0.4 mph SW0.6 kmh SW 2.6 mph4.2 kmh 29.68 in1005.1 mb 0.00 in0.0 mm 0.00 in0.0 mm 0.00 in0.0 mm
02:51 AM 44.8°F7.1°C 44.0°F6.7°C 97% 0.6 mph WSW1.0 kmh WSW 2.6 mph4.2 kmh 29.68 in1005.1 mb 0.00 in0.0 mm 0.00 in0.0 mm 0.00 in0.0 mm
02:50 AM 44.8°F7.1°C 44.0°F6.7°C 97% 0.9 mph SW1.4 kmh SW 3.5 mph5.6 kmh 29.69 in1005.4 mb 0.00 in0.0 mm 0.00 in0.0 mm 0.00 in0.0 mm
02:49 AM 45.0°F7.2°C 44.2°F6.8°C 97% 0.9 mph SW1.4 kmh SW 3.5 mph5.6 kmh 29.69 in1005.4 mb 0.00 in0.0 mm 0.00 in0.0 mm 0.00 in0.0 mm
02:48 AM 45.0°F7.2°C 44.2°F6.8°C 97% 1.0 mph SW1.6 kmh SW 3.5 mph5.6 kmh 29.68 in1005.1 mb 0.00 in0.0 mm 0.00 in0.0 mm 0.00 in0.0 mm
02:47 AM 45.0°F7.2°C 44.2°F6.8°C 97% 0.9 mph SW1.4 kmh SW 3.5 mph5.6 kmh 29.68 in1005.1 mb 0.00 in0.0 mm 0.00 in0.0 mm 0.00 in0.0 mm
02:46 AM 45.0°F7.2°C 44.2°F6.8°C 97% 0.7 mph SW1.1 kmh SW 3.5 mph5.6 kmh 29.69 in1005.4 mb 0.00 in0.0 mm 0.00 in0.0 mm 0.00 in0.0 mm
02:45 AM 45.0°F7.2°C 44.2°F6.8°C 97% 0.7 mph SW1.1 kmh SW 3.5 mph5.6 kmh 29.68 in1005.1 mb 0.00 in0.0 mm 0.00 in0.0 mm 0.00 in0.0 mm
02:44 AM 45.1°F7.3°C 44.3°F6.8°C 97% 0.8 mph SW1.3 kmh SW 3.5 mph5.6 kmh 29.68 in1005.1 mb 0.00 in0.0 mm 0.00 in0.0 mm 0.00 in0.0 mm
02:43 AM 45.1°F7.3°C 44.3°F6.8°C 97% 1.0 mph SW1.6 kmh SW 3.5 mph5.6 kmh 29.68 in1005.1 mb 0.00 in0.0 mm 0.00 in0.0 mm 0.00 in0.0 mm
02:42 AM 45.3°F7.4°C 44.5°F6.9°C 97% 1.2 mph SW1.9 kmh SW 3.5 mph5.6 kmh 29.68 in1005.1 mb 0.00 in0.0 mm 0.00 in0.0 mm 0.00 in0.0 mm
02:41 AM 45.5°F7.5°C 44.7°F7.1°C 97% 1.3 mph SW2.1 kmh SW 3.5 mph5.6 kmh 29.68 in1005.1 mb 0.00 in0.0 mm 0.00 in0.0 mm 0.00 in0.0 mm
02:40 AM 45.5°F7.5°C 44.7°F7.1°C 97% 1.3 mph SW2.1 kmh SW 2.6 mph4.2 kmh 29.68 in1005.1 mb 0.00 in0.0 mm 0.00 in0.0 mm 0.00 in0.0 mm
02:39 AM 45.5°F7.5°C 44.7°F7.1°C 97% 1.4 mph SW2.3 kmh SW 2.6 mph4.2 kmh 29.68 in1005.1 mb 0.00 in0.0 mm 0.00 in0.0 mm 0.00 in0.0 mm
02:38 AM 45.7°F7.6°C 44.9°F7.2°C 97% 1.4 mph SW2.3 kmh SW 2.6 mph4.2 kmh 29.68 in1005.1 mb 0.00 in0.0 mm 0.00 in0.0 mm 0.00 in0.0 mm
02:37 AM 45.7°F7.6°C 44.9°F7.2°C 97% 1.4 mph SW2.3 kmh SW 2.6 mph4.2 kmh 29.68 in1005.1 mb 0.00 in0.0 mm 0.00 in0.0 mm 0.00 in0.0 mm
02:36 AM 45.7°F7.6°C 44.9°F7.2°C 97% 1.4 mph SW2.3 kmh SW 2.6 mph4.2 kmh 29.68 in1005.1 mb 0.00 in0.0 mm 0.00 in0.0 mm 0.00 in0.0 mm
02:35 AM 45.9°F7.7°C 45.1°F7.3°C 97% 1.5 mph SW2.4 kmh SW 2.6 mph4.2 kmh 29.68 in1005.1 mb 0.00 in0.0 mm 0.00 in0.0 mm 0.00 in0.0 mm
02:34 AM 45.9°F7.7°C 45.1°F7.3°C 97% 1.4 mph SW2.3 kmh SW 2.6 mph4.2 kmh 29.68 in1005.1 mb 0.00 in0.0 mm 0.00 in0.0 mm 0.00 in0.0 mm
02:33 AM 45.9°F7.7°C 45.1°F7.3°C 97% 1.2 mph SW1.9 kmh SW 2.6 mph4.2 kmh 29.68 in1005.1 mb 0.00 in0.0 mm 0.00 in0.0 mm 0.00 in0.0 mm
02:32 AM 45.9°F7.7°C 45.1°F7.3°C 97% 1.0 mph SSW1.6 kmh SSW 2.6 mph4.2 kmh 29.68 in1005.1 mb 0.00 in0.0 mm 0.00 in0.0 mm 0.00 in0.0 mm
02:31 AM 46.0°F7.8°C 45.2°F7.3°C 97% 0.7 mph SW1.1 kmh SW 2.6 mph4.2 kmh 29.68 in1005.1 mb 0.00 in0.0 mm 0.00 in0.0 mm 0.00 in0.0 mm
02:30 AM 46.0°F7.8°C 45.2°F7.3°C 97% 0.5 mph SW0.8 kmh SW 1.7 mph2.7 kmh 29.68 in1005.1 mb 0.00 in0.0 mm 0.00 in0.0 mm 0.00 in0.0 mm
02:29 AM 46.0°F7.8°C 45.2°F7.3°C 97% 0.3 mph SSW0.5 kmh SSW 1.7 mph2.7 kmh 29.68 in1005.1 mb 0.00 in0.0 mm 0.00 in0.0 mm 0.00 in0.0 mm
02:28 AM 46.0°F7.8°C 45.2°F7.3°C 97% 0.1 mph S0.2 kmh S 1.7 mph2.7 kmh 29.68 in1005.1 mb 0.00 in0.0 mm 0.00 in0.0 mm 0.00 in0.0 mm
02:27 AM 46.0°F7.8°C 45.2°F7.3°C 97% Calm Calm -- 29.68 in1005.1 mb 0.00 in0.0 mm 0.00 in0.0 mm 0.00 in0.0 mm
02:26 AM 46.0°F7.8°C 45.2°F7.3°C 97% Calm Calm -- 29.68 in1005.1 mb 0.00 in0.0 mm 0.00 in0.0 mm 0.00 in0.0 mm
02:25 AM 46.0°F7.8°C 45.2°F7.3°C 97% Calm Calm -- 29.68 in1005.1 mb 0.00 in0.0 mm 0.00 in0.0 mm 0.00 in0.0 mm
02:24 AM 46.0°F7.8°C 45.2°F7.3°C 97% Calm Calm -- 29.69 in1005.4 mb 0.00 in0.0 mm 0.00 in0.0 mm 0.00 in0.0 mm
02:23 AM 46.0°F7.8°C 45.2°F7.3°C 97% Calm Calm -- 29.68 in1005.1 mb 0.00 in0.0 mm 0.00 in0.0 mm 0.00 in0.0 mm
02:22 AM 46.0°F7.8°C 45.2°F7.3°C 97% Calm Calm -- 29.68 in1005.1 mb 0.00 in0.0 mm 0.00 in0.0 mm 0.00 in0.0 mm
02:21 AM 46.0°F7.8°C 45.2°F7.3°C 97% Calm Calm -- 29.68 in1005.1 mb 0.00 in0.0 mm 0.00 in0.0 mm 0.00 in0.0 mm
02:20 AM 46.0°F7.8°C 45.2°F7.3°C 97% Calm Calm -- 29.68 in1005.1 mb 0.00 in0.0 mm 0.00 in0.0 mm 0.00 in0.0 mm
02:19 AM 46.0°F7.8°C 45.2°F7.3°C 97% Calm Calm -- 29.68 in1005.1 mb 0.00 in0.0 mm 0.00 in0.0 mm 0.00 in0.0 mm
02:18 AM 46.0°F7.8°C 45.2°F7.3°C 97% Calm Calm -- 29.68 in1005.1 mb 0.00 in0.0 mm 0.00 in0.0 mm 0.00 in0.0 mm
02:17 AM 46.2°F7.9°C 45.4°F7.4°C 97% 0.1 mph N0.2 kmh N 2.6 mph4.2 kmh 29.68 in1005.1 mb 0.00 in0.0 mm 0.00 in0.0 mm 0.00 in0.0 mm
02:16 AM 46.4°F8.0°C 45.3°F7.4°C 96% 0.4 mph N0.6 kmh N 2.6 mph4.2 kmh 29.68 in1005.1 mb 0.00 in0.0 mm 0.00 in0.0 mm 0.00 in0.0 mm
02:15 AM 46.2°F7.9°C 45.4°F7.4°C 97% 0.6 mph N1.0 kmh N 2.6 mph4.2 kmh 29.68 in1005.1 mb 0.00 in0.0 mm 0.00 in0.0 mm 0.00 in0.0 mm
02:14 AM 46.4°F8.0°C 45.0°F7.2°C 95% 0.9 mph N1.4 kmh N 2.6 mph4.2 kmh 29.68 in1005.1 mb 0.00 in0.0 mm 0.00 in0.0 mm 0.00 in0.0 mm
02:13 AM 46.4°F8.0°C 45.0°F7.2°C 95% 1.2 mph N1.9 kmh N 2.6 mph4.2 kmh 29.68 in1005.1 mb 0.00 in0.0 mm 0.00 in0.0 mm 0.00 in0.0 mm
02:12 AM 46.6°F8.1°C 45.2°F7.3°C 95% 1.4 mph N2.3 kmh N 2.6 mph4.2 kmh 29.68 in1005.1 mb 0.00 in0.0 mm 0.00 in0.0 mm 0.00 in0.0 mm
02:11 AM 46.6°F8.1°C 45.2°F7.3°C 95% 1.7 mph N2.7 kmh N 2.6 mph4.2 kmh 29.68 in1005.1 mb 0.00 in0.0 mm 0.00 in0.0 mm 0.00 in0.0 mm
02:10 AM 46.6°F8.1°C 45.2°F7.3°C 95% 2.0 mph N3.2 kmh N 2.6 mph4.2 kmh 29.67 in1004.7 mb 0.00 in0.0 mm 0.00 in0.0 mm 0.00 in0.0 mm
02:09 AM 46.6°F8.1°C 44.9°F7.2°C 94% 2.2 mph N3.5 kmh N 2.6 mph4.2 kmh 29.68 in1005.1 mb 0.00 in0.0 mm 0.00 in0.0 mm 0.00 in0.0 mm
02:08 AM 46.6°F8.1°C 44.9°F7.2°C 94% 2.4 mph N3.9 kmh N 2.6 mph4.2 kmh 29.68 in1005.1 mb 0.00 in0.0 mm 0.00 in0.0 mm 0.00 in0.0 mm
02:07 AM 46.8°F8.2°C 44.8°F7.1°C 93% 2.5 mph N4.0 kmh N 2.6 mph4.2 kmh 29.67 in1004.7 mb 0.00 in0.0 mm 0.00 in0.0 mm 0.00 in0.0 mm
02:06 AM 46.8°F8.2°C 44.8°F7.1°C 93% 2.4 mph N3.9 kmh N 2.6 mph4.2 kmh 29.67 in1004.7 mb 0.00 in0.0 mm 0.00 in0.0 mm 0.00 in0.0 mm
02:05 AM 46.8°F8.2°C 44.8°F7.1°C 93% 2.5 mph N4.0 kmh N 3.5 mph5.6 kmh 29.68 in1005.1 mb 0.00 in0.0 mm 0.00 in0.0 mm 0.00 in0.0 mm
02:04 AM 46.8°F8.2°C 44.8°F7.1°C 93% 2.5 mph N4.0 kmh N 3.5 mph5.6 kmh 29.67 in1004.7 mb 0.00 in0.0 mm 0.00 in0.0 mm 0.00 in0.0 mm
02:03 AM 46.8°F8.2°C 44.8°F7.1°C 93% 2.4 mph N3.9 kmh N 3.5 mph5.6 kmh 29.67 in1004.7 mb 0.00 in0.0 mm 0.00 in0.0 mm 0.00 in0.0 mm
02:02 AM 46.8°F8.2°C 44.8°F7.1°C 93% 2.4 mph N3.9 kmh N 3.5 mph5.6 kmh 29.67 in1004.7 mb 0.00 in0.0 mm 0.00 in0.0 mm 0.00 in0.0 mm
02:01 AM 46.8°F8.2°C 44.8°F7.1°C 93% 2.2 mph NNE3.5 kmh NNE 3.5 mph5.6 kmh 29.67 in1004.7 mb 0.00 in0.0 mm 0.00 in0.0 mm 0.00 in0.0 mm
02:00 AM 46.8°F8.2°C 44.8°F7.1°C 93% 2.1 mph NNE3.4 kmh NNE 3.5 mph5.6 kmh 29.68 in1005.1 mb 0.00 in0.0 mm 0.00 in0.0 mm 0.00 in0.0 mm
01:59 AM 46.8°F8.2°C 44.8°F7.1°C 93% 2.1 mph NE3.4 kmh NE 3.5 mph5.6 kmh 29.67 in1004.7 mb 0.00 in0.0 mm 0.00 in0.0 mm 0.00 in0.0 mm
01:58 AM 46.8°F8.2°C 44.8°F7.1°C 93% 2.0 mph NE3.2 kmh NE 3.5 mph5.6 kmh 29.68 in1005.1 mb 0.00 in0.0 mm 0.00 in0.0 mm 0.00 in0.0 mm
01:57 AM 46.9°F8.3°C 45.0°F7.2°C 93% 1.9 mph NE3.1 kmh NE 3.5 mph5.6 kmh 29.67 in1004.7 mb 0.00 in0.0 mm 0.00 in0.0 mm 0.00 in0.0 mm
01:56 AM 46.8°F8.2°C 44.8°F7.1°C 93% 1.8 mph NE2.9 kmh NE 3.5 mph5.6 kmh 29.67 in1004.7 mb 0.00 in0.0 mm 0.00 in0.0 mm 0.00 in0.0 mm
01:55 AM 46.8°F8.2°C 44.8°F7.1°C 93% 1.5 mph NE2.4 kmh NE 3.5 mph5.6 kmh 29.67 in1004.7 mb 0.00 in0.0 mm 0.00 in0.0 mm 0.00 in0.0 mm
01:54 AM 46.8°F8.2°C 44.8°F7.1°C 93% 1.4 mph NE2.3 kmh NE 2.6 mph4.2 kmh 29.68 in1005.1 mb 0.00 in0.0 mm 0.00 in0.0 mm 0.00 in0.0 mm
01:53 AM 46.8°F8.2°C 44.8°F7.1°C 93% 1.4 mph ENE2.3 kmh ENE 2.6 mph4.2 kmh 29.68 in1005.1 mb 0.00 in0.0 mm 0.00 in0.0 mm 0.00 in0.0 mm
01:52 AM 46.8°F8.2°C 44.8°F7.1°C 93% 1.4 mph E2.3 kmh E 2.6 mph4.2 kmh 29.67 in1004.7 mb 0.00 in0.0 mm 0.00 in0.0 mm 0.00 in0.0 mm
01:51 AM 46.8°F8.2°C 44.8°F7.1°C 93% 1.5 mph E2.4 kmh E 2.6 mph4.2 kmh 29.67 in1004.7 mb 0.00 in0.0 mm 0.00 in0.0 mm 0.00 in0.0 mm
01:50 AM 46.8°F8.2°C 44.8°F7.1°C 93% 1.5 mph E2.4 kmh E 2.6 mph4.2 kmh 29.67 in1004.7 mb 0.00 in0.0 mm 0.00 in0.0 mm 0.00 in0.0 mm
01:49 AM 46.8°F8.2°C 44.8°F7.1°C 93% 1.3 mph ESE2.1 kmh ESE 2.6 mph4.2 kmh 29.67 in1004.7 mb 0.00 in0.0 mm 0.00 in0.0 mm 0.00 in0.0 mm
01:48 AM 46.8°F8.2°C 44.8°F7.1°C 93% 1.4 mph E2.3 kmh E 2.6 mph4.2 kmh 29.67 in1004.7 mb 0.00 in0.0 mm 0.00 in0.0 mm 0.00 in0.0 mm
01:47 AM 46.8°F8.2°C 44.6°F7.0°C 92% 1.5 mph ENE2.4 kmh ENE 2.6 mph4.2 kmh 29.67 in1004.7 mb 0.00 in0.0 mm 0.00 in0.0 mm 0.00 in0.0 mm
01:46 AM 46.8°F8.2°C 44.6°F7.0°C 92% 1.6 mph E2.6 kmh E 3.5 mph5.6 kmh 29.67 in1004.7 mb 0.00 in0.0 mm 0.00 in0.0 mm 0.00 in0.0 mm
01:45 AM 46.8°F8.2°C 44.6°F7.0°C 92% 1.8 mph NE2.9 kmh NE 4.4 mph7.1 kmh 29.67 in1004.7 mb 0.00 in0.0 mm 0.00 in0.0 mm 0.00 in0.0 mm
01:44 AM 46.8°F8.2°C 44.6°F7.0°C 92% 2.1 mph NE3.4 kmh NE 4.4 mph7.1 kmh 29.67 in1004.7 mb 0.00 in0.0 mm 0.00 in0.0 mm 0.00 in0.0 mm
01:43 AM 46.9°F8.3°C 44.7°F7.1°C 92% 2.1 mph N3.4 kmh N 4.4 mph7.1 kmh 29.67 in1004.7 mb 0.00 in0.0 mm 0.00 in0.0 mm 0.00 in0.0 mm
01:42 AM 46.9°F8.3°C 44.7°F7.1°C 92% 1.9 mph N3.1 kmh N 4.4 mph7.1 kmh 29.67 in1004.7 mb 0.00 in0.0 mm 0.00 in0.0 mm 0.00 in0.0 mm
01:41 AM 46.9°F8.3°C 44.7°F7.1°C 92% 1.7 mph N2.7 kmh N 4.4 mph7.1 kmh 29.67 in1004.7 mb 0.00 in0.0 mm 0.00 in0.0 mm 0.00 in0.0 mm
01:40 AM 46.9°F8.3°C 44.7°F7.1°C 92% 1.7 mph N2.7 kmh N 4.4 mph7.1 kmh 29.67 in1004.7 mb 0.00 in0.0 mm 0.00 in0.0 mm 0.00 in0.0 mm
01:39 AM 46.9°F8.3°C 44.4°F6.9°C 91% 1.7 mph N2.7 kmh N 4.4 mph7.1 kmh 29.66 in1004.4 mb 0.00 in0.0 mm 0.00 in0.0 mm 0.00 in0.0 mm
01:38 AM 47.1°F8.4°C 44.6°F7.0°C 91% 1.7 mph NNW2.7 kmh NNW 4.4 mph7.1 kmh 29.67 in1004.7 mb 0.00 in0.0 mm 0.00 in0.0 mm 0.00 in0.0 mm
01:37 AM 47.1°F8.4°C 44.6°F7.0°C 91% 1.8 mph NNW2.9 kmh NNW 4.4 mph7.1 kmh 29.67 in1004.7 mb 0.00 in0.0 mm 0.00 in0.0 mm 0.00 in0.0 mm
01:36 AM 47.1°F8.4°C 44.3°F6.8°C 90% 1.9 mph N3.1 kmh N 4.4 mph7.1 kmh 29.67 in1004.7 mb 0.00 in0.0 mm 0.00 in0.0 mm 0.00 in0.0 mm
01:35 AM 47.1°F8.4°C 44.3°F6.8°C 90% 2.2 mph N3.5 kmh N 4.4 mph7.1 kmh 29.67 in1004.7 mb 0.00 in0.0 mm 0.00 in0.0 mm 0.00 in0.0 mm
01:34 AM 47.3°F8.5°C 44.5°F6.9°C 90% 2.0 mph N3.2 kmh N 4.4 mph7.1 kmh 29.66 in1004.4 mb 0.00 in0.0 mm 0.00 in0.0 mm 0.00 in0.0 mm
01:33 AM 47.3°F8.5°C 44.5°F6.9°C 90% 2.1 mph N3.4 kmh N 4.4 mph7.1 kmh 29.67 in1004.7 mb 0.00 in0.0 mm 0.00 in0.0 mm 0.00 in0.0 mm
01:32 AM 47.3°F8.5°C 44.5°F6.9°C 90% 2.3 mph N3.7 kmh N 4.4 mph7.1 kmh 29.67 in1004.7 mb 0.00 in0.0 mm 0.00 in0.0 mm 0.00 in0.0 mm
01:31 AM 47.3°F8.5°C 44.2°F6.8°C 89% 2.5 mph N4.0 kmh N 4.4 mph7.1 kmh 29.67 in1004.7 mb 0.00 in0.0 mm 0.00 in0.0 mm 0.00 in0.0 mm
01:30 AM 47.3°F8.5°C 44.2°F6.8°C 89% 2.3 mph N3.7 kmh N 4.4 mph7.1 kmh 29.67 in1004.7 mb 0.00 in0.0 mm 0.00 in0.0 mm 0.00 in0.0 mm
01:29 AM 47.3°F8.5°C 44.2°F6.8°C 89% 2.3 mph N3.7 kmh N 4.4 mph7.1 kmh 29.67 in1004.7 mb 0.00 in0.0 mm 0.00 in0.0 mm 0.00 in0.0 mm
01:28 AM 47.3°F8.5°C 44.2°F6.8°C 89% 2.3 mph N3.7 kmh N 4.4 mph7.1 kmh 29.67 in1004.7 mb 0.00 in0.0 mm 0.00 in0.0 mm 0.00 in0.0 mm
01:27 AM 47.5°F8.6°C 44.4°F6.9°C 89% 2.2 mph NNE3.5 kmh NNE 4.4 mph7.1 kmh 29.67 in1004.7 mb 0.00 in0.0 mm 0.00 in0.0 mm 0.00 in0.0 mm
01:26 AM 47.3°F8.5°C 44.2°F6.8°C 89% 2.1 mph NNE3.4 kmh NNE 4.4 mph7.1 kmh 29.67 in1004.7 mb 0.00 in0.0 mm 0.00 in0.0 mm 0.00 in0.0 mm
01:25 AM 47.5°F8.6°C 44.4°F6.9°C 89% 1.6 mph NNE2.6 kmh NNE 3.5 mph5.6 kmh 29.66 in1004.4 mb 0.00 in0.0 mm 0.00 in0.0 mm 0.00 in0.0 mm
01:24 AM 47.5°F8.6°C 44.4°F6.9°C 89% 1.6 mph NNE2.6 kmh NNE 3.5 mph5.6 kmh 29.66 in1004.4 mb 0.00 in0.0 mm 0.00 in0.0 mm 0.00 in0.0 mm
01:23 AM 47.5°F8.6°C 44.1°F6.7°C 88% 1.4 mph NNE2.3 kmh NNE 3.5 mph5.6 kmh 29.66 in1004.4 mb 0.00 in0.0 mm 0.00 in0.0 mm 0.00 in0.0 mm
01:22 AM 47.5°F8.6°C 44.1°F6.7°C 88% 1.4 mph N2.3 kmh N 3.5 mph5.6 kmh 29.67 in1004.7 mb 0.00 in0.0 mm 0.00 in0.0 mm 0.00 in0.0 mm
01:21 AM 47.5°F8.6°C 44.1°F6.7°C 88% 1.5 mph N2.4 kmh N 3.5 mph5.6 kmh 29.67 in1004.7 mb 0.00 in0.0 mm 0.00 in0.0 mm 0.00 in0.0 mm
01:20 AM 47.5°F8.6°C 44.1°F6.7°C 88% 1.6 mph N2.6 kmh N 3.5 mph5.6 kmh 29.66 in1004.4 mb 0.00 in0.0 mm 0.00 in0.0 mm 0.00 in0.0 mm
01:19 AM 47.5°F8.6°C 44.1°F6.7°C 88% 1.7 mph N2.7 kmh N 3.5 mph5.6 kmh 29.66 in1004.4 mb 0.00 in0.0 mm 0.00 in0.0 mm 0.00 in0.0 mm
01:18 AM 47.5°F8.6°C 44.1°F6.7°C 88% 1.9 mph N3.1 kmh N 4.4 mph7.1 kmh 29.66 in1004.4 mb 0.00 in0.0 mm 0.00 in0.0 mm 0.00 in0.0 mm
01:17 AM 47.5°F8.6°C 44.1°F6.7°C 88% 2.1 mph N3.4 kmh N 4.4 mph7.1 kmh 29.67 in1004.7 mb 0.00 in0.0 mm 0.00 in0.0 mm 0.00 in0.0 mm
01:16 AM 47.5°F8.6°C 44.1°F6.7°C 88% 2.4 mph N3.9 kmh N 5.2 mph8.4 kmh 29.66 in1004.4 mb 0.00 in0.0 mm 0.00 in0.0 mm 0.00 in0.0 mm
01:15 AM 47.5°F8.6°C 44.1°F6.7°C 88% 2.7 mph NNE4.3 kmh NNE 5.2 mph8.4 kmh 29.67 in1004.7 mb 0.00 in0.0 mm 0.00 in0.0 mm 0.00 in0.0 mm
01:14 AM 47.5°F8.6°C 44.1°F6.7°C 88% 2.6 mph NNE4.2 kmh NNE 5.2 mph8.4 kmh 29.66 in1004.4 mb 0.00 in0.0 mm 0.00 in0.0 mm 0.00 in0.0 mm
01:13 AM 47.7°F8.7°C 44.0°F6.7°C 87% 2.4 mph NNE3.9 kmh NNE 5.2 mph8.4 kmh 29.66 in1004.4 mb 0.00 in0.0 mm 0.00 in0.0 mm 0.00 in0.0 mm
01:12 AM 47.7°F8.7°C 44.0°F6.7°C 87% 2.4 mph NNE3.9 kmh NNE 5.2 mph8.4 kmh 29.66 in1004.4 mb 0.00 in0.0 mm 0.00 in0.0 mm 0.00 in0.0 mm
01:11 AM 47.7°F8.7°C 44.0°F6.7°C 87% 2.4 mph NNE3.9 kmh NNE 5.2 mph8.4 kmh 29.66 in1004.4 mb 0.00 in0.0 mm 0.00 in0.0 mm 0.00 in0.0 mm
01:10 AM 47.7°F8.7°C 44.0°F6.7°C 87% 2.5 mph NE4.0 kmh NE 5.2 mph8.4 kmh 29.66 in1004.4 mb 0.00 in0.0 mm 0.00 in0.0 mm 0.00 in0.0 mm
01:09 AM 47.7°F8.7°C 44.3°F6.8°C 88% 2.5 mph NNE4.0 kmh NNE 5.2 mph8.4 kmh 29.66 in1004.4 mb 0.00 in0.0 mm 0.00 in0.0 mm 0.00 in0.0 mm
01:08 AM 47.7°F8.7°C 44.3°F6.8°C 88% 2.5 mph N4.0 kmh N 5.2 mph8.4 kmh 29.66 in1004.4 mb 0.00 in0.0 mm 0.00 in0.0 mm 0.00 in0.0 mm
01:07 AM 47.7°F8.7°C 44.3°F6.8°C 88% 2.9 mph SE4.7 kmh SE 10.5 mph16.9 kmh 29.66 in1004.4 mb 0.00 in0.0 mm 0.00 in0.0 mm 0.00 in0.0 mm
01:06 AM 47.7°F8.7°C 44.3°F6.8°C 88% 2.5 mph S4.0 kmh S 10.5 mph16.9 kmh 29.66 in1004.4 mb 0.00 in0.0 mm 0.00 in0.0 mm 0.00 in0.0 mm
01:05 AM 47.7°F8.7°C 44.3°F6.8°C 88% 2.4 mph SSW3.9 kmh SSW 10.5 mph16.9 kmh 29.66 in1004.4 mb 0.00 in0.0 mm 0.00 in0.0 mm 0.00 in0.0 mm
01:04 AM 47.7°F8.7°C 44.3°F6.8°C 88% 2.5 mph SSW4.0 kmh SSW 10.5 mph16.9 kmh 29.66 in1004.4 mb 0.00 in0.0 mm 0.00 in0.0 mm 0.00 in0.0 mm
01:03 AM 47.7°F8.7°C 44.3°F6.8°C 88% 2.6 mph SSW4.2 kmh SSW 10.5 mph16.9 kmh 29.66 in1004.4 mb 0.00 in0.0 mm 0.00 in0.0 mm 0.00 in0.0 mm
01:02 AM 47.7°F8.7°C 44.3°F6.8°C 88% 2.6 mph SSW4.2 kmh SSW 10.5 mph16.9 kmh 29.66 in1004.4 mb 0.00 in0.0 mm 0.00 in0.0 mm 0.00 in0.0 mm
01:01 AM 47.7°F8.7°C 44.3°F6.8°C 88% 2.5 mph SSW4.0 kmh SSW 10.5 mph16.9 kmh 29.66 in1004.4 mb 0.00 in0.0 mm 0.00 in0.0 mm 0.00 in0.0 mm
01:00 AM 47.7°F8.7°C 44.3°F6.8°C 88% 2.4 mph SSW3.9 kmh SSW 10.5 mph16.9 kmh 29.65 in1004.1 mb 0.00 in0.0 mm 0.00 in0.0 mm 0.00 in0.0 mm
12:59 AM 47.7°F8.7°C 44.3°F6.8°C 88% 2.4 mph S3.9 kmh S 10.5 mph16.9 kmh 29.66 in1004.4 mb 0.00 in0.0 mm 0.00 in0.0 mm 0.00 in0.0 mm
12:58 AM 47.7°F8.7°C 44.3°F6.8°C 88% 2.5 mph S4.0 kmh S 10.5 mph16.9 kmh 29.66 in1004.4 mb 0.00 in0.0 mm 0.00 in0.0 mm 0.00 in0.0 mm
12:57 AM 47.5°F8.6°C 44.1°F6.7°C 88% 1.9 mph WSW3.1 kmh WSW 3.5 mph5.6 kmh 29.66 in1004.4 mb 0.00 in0.0 mm 0.00 in0.0 mm 0.00 in0.0 mm
12:56 AM 47.5°F8.6°C 44.1°F6.7°C 88% 2.0 mph SE3.2 kmh SE 3.5 mph5.6 kmh 29.66 in1004.4 mb 0.00 in0.0 mm 0.00 in0.0 mm 0.00 in0.0 mm
12:55 AM 47.5°F8.6°C 44.1°F6.7°C 88% 2.0 mph N3.2 kmh N 3.5 mph5.6 kmh 29.66 in1004.4 mb 0.00 in0.0 mm 0.00 in0.0 mm 0.00 in0.0 mm
12:54 AM 47.5°F8.6°C 44.1°F6.7°C 88% 2.1 mph N3.4 kmh N 3.5 mph5.6 kmh 29.66 in1004.4 mb 0.00 in0.0 mm 0.00 in0.0 mm 0.00 in0.0 mm
12:53 AM 47.5°F8.6°C 44.1°F6.7°C 88% 2.5 mph N4.0 kmh N 4.4 mph7.1 kmh 29.65 in1004.1 mb 0.00 in0.0 mm 0.00 in0.0 mm 0.00 in0.0 mm
12:52 AM 47.5°F8.6°C 44.1°F6.7°C 88% 2.6 mph NNW4.2 kmh NNW 4.4 mph7.1 kmh 29.65 in1004.1 mb 0.00 in0.0 mm 0.00 in0.0 mm 0.00 in0.0 mm
12:51 AM 47.5°F8.6°C 44.1°F6.7°C 88% 2.9 mph NNW4.7 kmh NNW 4.4 mph7.1 kmh 29.65 in1004.1 mb 0.00 in0.0 mm 0.00 in0.0 mm 0.00 in0.0 mm
12:50 AM 47.5°F8.6°C 44.1°F6.7°C 88% 3.2 mph NW5.1 kmh NW 5.2 mph8.4 kmh 29.65 in1004.1 mb 0.00 in0.0 mm 0.00 in0.0 mm 0.00 in0.0 mm
12:49 AM 47.5°F8.6°C 44.1°F6.7°C 88% 3.0 mph NNW4.8 kmh NNW 5.2 mph8.4 kmh 29.65 in1004.1 mb 0.00 in0.0 mm 0.00 in0.0 mm 0.00 in0.0 mm
12:48 AM 47.5°F8.6°C 44.1°F6.7°C 88% 2.8 mph NW4.5 kmh NW 5.2 mph8.4 kmh 29.65 in1004.1 mb 0.00 in0.0 mm 0.00 in0.0 mm 0.00 in0.0 mm
12:47 AM 47.5°F8.6°C 44.1°F6.7°C 88% 2.9 mph W4.7 kmh W 5.2 mph8.4 kmh 29.65 in1004.1 mb 0.00 in0.0 mm 0.00 in0.0 mm 0.00 in0.0 mm
12:46 AM 47.5°F8.6°C 44.1°F6.7°C 88% 3.1 mph NW5.0 kmh NW 5.2 mph8.4 kmh 29.66 in1004.4 mb 0.00 in0.0 mm 0.00 in0.0 mm 0.00 in0.0 mm
12:45 AM 47.5°F8.6°C 44.1°F6.7°C 88% 2.9 mph NW4.7 kmh NW 5.2 mph8.4 kmh 29.65 in1004.1 mb 0.00 in0.0 mm 0.00 in0.0 mm 0.00 in0.0 mm
12:44 AM 47.5°F8.6°C 44.1°F6.7°C 88% 2.8 mph NW4.5 kmh NW 5.2 mph8.4 kmh 29.65 in1004.1 mb 0.00 in0.0 mm 0.00 in0.0 mm 0.00 in0.0 mm
12:43 AM 47.5°F8.6°C 44.1°F6.7°C 88% 2.8 mph N4.5 kmh N 5.2 mph8.4 kmh 29.65 in1004.1 mb 0.00 in0.0 mm 0.00 in0.0 mm 0.00 in0.0 mm
12:42 AM 47.5°F8.6°C 44.1°F6.7°C 88% 2.6 mph NNW4.2 kmh NNW 5.2 mph8.4 kmh 29.65 in1004.1 mb 0.00 in0.0 mm 0.00 in0.0 mm 0.00 in0.0 mm
12:41 AM 47.5°F8.6°C 44.1°F6.7°C 88% 2.6 mph NW4.2 kmh NW 5.2 mph8.4 kmh 29.65 in1004.1 mb 0.00 in0.0 mm 0.00 in0.0 mm 0.00 in0.0 mm
12:40 AM 47.5°F8.6°C 44.1°F6.7°C 88% 2.3 mph N3.7 kmh N 4.4 mph7.1 kmh 29.64 in1003.7 mb 0.00 in0.0 mm 0.00 in0.0 mm 0.00 in0.0 mm
12:39 AM 47.5°F8.6°C 44.1°F6.7°C 88% 2.4 mph NNW3.9 kmh NNW 4.4 mph7.1 kmh 29.65 in1004.1 mb 0.00 in0.0 mm 0.00 in0.0 mm 0.00 in0.0 mm
12:38 AM 47.5°F8.6°C 44.1°F6.7°C 88% 2.7 mph N4.3 kmh N 4.4 mph7.1 kmh 29.65 in1004.1 mb 0.00 in0.0 mm 0.00 in0.0 mm 0.00 in0.0 mm
12:37 AM 47.5°F8.6°C 44.1°F6.7°C 88% 2.7 mph NNE4.3 kmh NNE 4.4 mph7.1 kmh 29.65 in1004.1 mb 0.00 in0.0 mm 0.00 in0.0 mm 0.00 in0.0 mm
12:36 AM 47.5°F8.6°C 44.1°F6.7°C 88% 2.8 mph N4.5 kmh N 5.2 mph8.4 kmh 29.65 in1004.1 mb 0.00 in0.0 mm 0.00 in0.0 mm 0.00 in0.0 mm
12:35 AM 47.5°F8.6°C 44.1°F6.7°C 88% 3.2 mph N5.1 kmh N 5.2 mph8.4 kmh 29.65 in1004.1 mb 0.00 in0.0 mm 0.00 in0.0 mm 0.00 in0.0 mm
12:34 AM 47.5°F8.6°C 44.1°F6.7°C 88% 3.2 mph N5.1 kmh N 5.2 mph8.4 kmh 29.65 in1004.1 mb 0.00 in0.0 mm 0.00 in0.0 mm 0.00 in0.0 mm
12:33 AM 47.5°F8.6°C 44.1°F6.7°C 88% 3.1 mph N5.0 kmh N 5.2 mph8.4 kmh 29.65 in1004.1 mb 0.00 in0.0 mm 0.00 in0.0 mm 0.00 in0.0 mm
12:32 AM 47.5°F8.6°C 44.1°F6.7°C 88% 3.1 mph N5.0 kmh N 5.2 mph8.4 kmh 29.65 in1004.1 mb 0.00 in0.0 mm 0.00 in0.0 mm 0.00 in0.0 mm
12:31 AM 47.5°F8.6°C 44.1°F6.7°C 88% 3.0 mph NNE4.8 kmh NNE 5.2 mph8.4 kmh 29.65 in1004.1 mb 0.00 in0.0 mm 0.00 in0.0 mm 0.00 in0.0 mm
12:30 AM 47.5°F8.6°C 44.1°F6.7°C 88% 3.1 mph NNE5.0 kmh NNE 5.2 mph8.4 kmh 29.65 in1004.1 mb 0.00 in0.0 mm 0.00 in0.0 mm 0.00 in0.0 mm
12:29 AM 47.5°F8.6°C 44.1°F6.7°C 88% 2.9 mph NNE4.7 kmh NNE 5.2 mph8.4 kmh 29.65 in1004.1 mb 0.00 in0.0 mm 0.00 in0.0 mm 0.00 in0.0 mm
12:28 AM 47.5°F8.6°C 44.1°F6.7°C 88% 2.6 mph NNE4.2 kmh NNE 5.2 mph8.4 kmh 29.65 in1004.1 mb 0.00 in0.0 mm 0.00 in0.0 mm 0.00 in0.0 mm
12:27 AM 47.5°F8.6°C 44.1°F6.7°C 88% 2.5 mph N4.0 kmh N 5.2 mph8.4 kmh 29.65 in1004.1 mb 0.00 in0.0 mm 0.00 in0.0 mm 0.00 in0.0 mm
12:26 AM 47.5°F8.6°C 44.1°F6.7°C 88% 2.4 mph N3.9 kmh N 5.2 mph8.4 kmh 29.65 in1004.1 mb 0.00 in0.0 mm 0.00 in0.0 mm 0.00 in0.0 mm
12:25 AM 47.5°F8.6°C 44.1°F6.7°C 88% 2.3 mph NNW3.7 kmh NNW 3.5 mph5.6 kmh 29.65 in1004.1 mb 0.00 in0.0 mm 0.00 in0.0 mm 0.00 in0.0 mm
12:24 AM 47.5°F8.6°C 44.1°F6.7°C 88% 2.2 mph N3.5 kmh N 3.5 mph5.6 kmh 29.65 in1004.1 mb 0.00 in0.0 mm 0.00 in0.0 mm 0.00 in0.0 mm
12:23 AM 47.5°F8.6°C 44.1°F6.7°C 88% 2.0 mph N3.2 kmh N 3.5 mph5.6 kmh 29.65 in1004.1 mb 0.00 in0.0 mm 0.00 in0.0 mm 0.00 in0.0 mm
12:22 AM 47.5°F8.6°C 44.1°F6.7°C 88% 2.0 mph N3.2 kmh N 5.2 mph8.4 kmh 29.65 in1004.1 mb 0.00 in0.0 mm 0.00 in0.0 mm 0.00 in0.0 mm
12:21 AM 47.5°F8.6°C 44.1°F6.7°C 88% 2.2 mph NW3.5 kmh NW 5.2 mph8.4 kmh 29.65 in1004.1 mb 0.00 in0.0 mm 0.00 in0.0 mm 0.00 in0.0 mm
12:20 AM 47.5°F8.6°C 44.1°F6.7°C 88% 2.0 mph NW3.2 kmh NW 5.2 mph8.4 kmh 29.64 in1003.7 mb 0.00 in0.0 mm 0.00 in0.0 mm 0.00 in0.0 mm
12:19 AM 47.5°F8.6°C 44.1°F6.7°C 88% 2.0 mph NW3.2 kmh NW 5.2 mph8.4 kmh 29.65 in1004.1 mb 0.00 in0.0 mm 0.00 in0.0 mm 0.00 in0.0 mm
12:18 AM 47.5°F8.6°C 44.1°F6.7°C 88% 2.3 mph NW3.7 kmh NW 5.2 mph8.4 kmh 29.65 in1004.1 mb 0.00 in0.0 mm 0.00 in0.0 mm 0.00 in0.0 mm
12:17 AM 47.5°F8.6°C 44.1°F6.7°C 88% 2.3 mph NW3.7 kmh NW 5.2 mph8.4 kmh 29.65 in1004.1 mb 0.00 in0.0 mm 0.00 in0.0 mm 0.00 in0.0 mm
12:16 AM 47.5°F8.6°C 44.1°F6.7°C 88% 2.2 mph NW3.5 kmh NW 5.2 mph8.4 kmh 29.64 in1003.7 mb 0.00 in0.0 mm 0.00 in0.0 mm 0.00 in0.0 mm
12:15 AM 47.5°F8.6°C 44.1°F6.7°C 88% 2.0 mph N3.2 kmh N 5.2 mph8.4 kmh 29.65 in1004.1 mb 0.00 in0.0 mm 0.00 in0.0 mm 0.00 in0.0 mm
12:14 AM 47.5°F8.6°C 44.1°F6.7°C 88% 2.1 mph N3.4 kmh N 5.2 mph8.4 kmh 29.65 in1004.1 mb 0.00 in0.0 mm 0.00 in0.0 mm 0.00 in0.0 mm
12:13 AM 47.5°F8.6°C 44.1°F6.7°C 88% 2.1 mph NNW3.4 kmh NNW 5.2 mph8.4 kmh 29.65 in1004.1 mb 0.00 in0.0 mm 0.00 in0.0 mm 0.00 in0.0 mm
12:12 AM 47.5°F8.6°C 44.1°F6.7°C 88% 2.0 mph NNW3.2 kmh NNW 5.2 mph8.4 kmh 29.64 in1003.7 mb 0.00 in0.0 mm 0.00 in0.0 mm 0.00 in0.0 mm
12:11 AM 47.3°F8.5°C 43.9°F6.6°C 88% 1.8 mph N2.9 kmh N 3.5 mph5.6 kmh 29.64 in1003.7 mb 0.00 in0.0 mm 0.00 in0.0 mm 0.00 in0.0 mm
12:10 AM 47.5°F8.6°C 44.1°F6.7°C 88% 1.9 mph N3.1 kmh N 3.5 mph5.6 kmh 29.64 in1003.7 mb 0.00 in0.0 mm 0.00 in0.0 mm 0.00 in0.0 mm
12:09 AM 47.5°F8.6°C 44.1°F6.7°C 88% 2.0 mph N3.2 kmh N 3.5 mph5.6 kmh 29.64 in1003.7 mb 0.00 in0.0 mm 0.00 in0.0 mm 0.00 in0.0 mm
12:08 AM 47.5°F8.6°C 43.8°F6.6°C 87% 1.8 mph N2.9 kmh N 2.6 mph4.2 kmh 29.64 in1003.7 mb 0.00 in0.0 mm 0.00 in0.0 mm 0.00 in0.0 mm
12:07 AM 47.7°F8.7°C 44.0°F6.7°C 87% 1.8 mph N2.9 kmh N 2.6 mph4.2 kmh 29.65 in1004.1 mb 0.00 in0.0 mm 0.00 in0.0 mm 0.00 in0.0 mm
12:06 AM 47.7°F8.7°C 44.0°F6.7°C 87% 2.2 mph N3.5 kmh N 7.0 mph11.3 kmh 29.64 in1003.7 mb 0.00 in0.0 mm 0.00 in0.0 mm 0.00 in0.0 mm
12:05 AM 47.7°F8.7°C 44.0°F6.7°C 87% 2.6 mph NNW4.2 kmh NNW 7.0 mph11.3 kmh 29.65 in1004.1 mb 0.00 in0.0 mm 0.00 in0.0 mm 0.00 in0.0 mm
12:04 AM 47.7°F8.7°C 44.0°F6.7°C 87% 2.7 mph NNW4.3 kmh NNW 7.0 mph11.3 kmh 29.64 in1003.7 mb 0.00 in0.0 mm 0.00 in0.0 mm 0.00 in0.0 mm
12:03 AM 47.7°F8.7°C 44.0°F6.7°C 87% 2.7 mph NNW4.3 kmh NNW 7.0 mph11.3 kmh 29.64 in1003.7 mb 0.00 in0.0 mm 0.00 in0.0 mm 0.00 in0.0 mm
12:02 AM 47.7°F8.7°C 44.0°F6.7°C 87% 2.8 mph NW4.5 kmh NW 7.0 mph11.3 kmh 29.64 in1003.7 mb 0.00 in0.0 mm 0.00 in0.0 mm 0.00 in0.0 mm
12:01 AM 47.7°F8.7°C 44.0°F6.7°C 87% 2.8 mph NW4.5 kmh NW 7.0 mph11.3 kmh 29.64 in1003.7 mb 0.00 in0.0 mm 0.00 in0.0 mm 0.00 in0.0 mm
12:00 AM 47.7°F8.7°C 44.0°F6.7°C 87% 2.8 mph NW4.5 kmh NW 7.0 mph11.3 kmh 29.64 in1003.7 mb 0.00 in0.0 mm 0.00 in0.0 mm 0.00 in0.0 mm